Darstellungsparameter: Aktuell verwendete Einstellungen:
Skalierung der Graphiken ... ?
xyx+y,   Skalierungsfaktor:      Skalierung: Modus: x, Faktor: 1
Darstellungszeitraum ... ?
Vom - - bis: - -   Zeitraum: 25.08.2020 - 24.09.2020
Min/Max/Avg-Anzeige ... ?
Zeige MMA aktuell
Zeige MMA Monat
Zeige MMA alles
Zeige --A aktuell
Zeige --A Monat
Zeige --A alles
Keine MMA-Anzeige
MMA:
Keine MMA-Graphiken
MMA-Basis: 25.08.2020 - 24.09.2020
Quicknavigation für Darstellung... ?
Tage:      1T, 2T, 3T, 5T -1T -2T -3T -5T +1T +2T +3T +5T
Wochen: 1W, 2W, 3W -1W -2W -3W +1W +2W +3W
Monate: 1M, 3M, 6M -1M -3M -6M +1M +3M +6M
Jahre:    1J, 3J, 5J, 10J -1J -3J -5J -10J +1J +3J +5J +10J
Nutze für die Darstellung ... ?
Originaldaten oder Mittelwerte auf ...
Stundenbasis Tagesbasis Wochenbasis
Monatsbasis Jahresbasis      Datenbasis: Original-Daten
Darstellen als:
Statistik (Auto) Statistik J:M      Darstellung:
Zur Graphik,    zurück zur Übersicht aller Sensoren.
 
Tabellarische Datenbersicht: ?
 
Sensor: Nr:Datum:Temp:Feuchte:
Aussen-T/F 1 25-08-2020 00:04:18 17.1 C 31 %
2 25-08-2020 00:14:18 17 C 32 %
3 25-08-2020 00:24:17 17 C 32 %
4 25-08-2020 00:34:18 17.3 C 31 %
5 25-08-2020 00:44:18 17.4 C 31 %
6 25-08-2020 00:54:18 17.6 C 31 %
7 25-08-2020 01:04:17 17.7 C 31 %
8 25-08-2020 01:14:17 17.4 C 31 %
9 25-08-2020 01:24:17 17.2 C 32 %
10 25-08-2020 01:34:18 17.1 C 32 %
11 25-08-2020 01:44:18 17 C 32 %
12 25-08-2020 01:54:17 16.9 C 32 %
13 25-08-2020 02:04:18 16.9 C 32 %
14 25-08-2020 02:14:18 16.9 C 32 %
15 25-08-2020 02:24:17 16.1 C 35 %
16 25-08-2020 02:34:18 16.2 C 35 %
17 25-08-2020 02:44:18 16.2 C 36 %
18 25-08-2020 02:54:17 16.1 C 36 %
19 25-08-2020 03:04:17 16.1 C 35 %
20 25-08-2020 03:14:17 16 C 35 %
21 25-08-2020 03:24:17 15.9 C 36 %
22 25-08-2020 03:34:18 15.8 C 36 %
23 25-08-2020 03:44:18 15.4 C 36 %
24 25-08-2020 03:54:18 15.2 C 36 %
25 25-08-2020 04:04:17 14.8 C 36 %
Sensor: Nr:Datum:Temp:Feuchte:
Aussen-T/F 26 25-08-2020 04:14:17 14.5 C 37 %
27 25-08-2020 04:24:17 14.4 C 37 %
28 25-08-2020 04:34:17 14.2 C 37 %
29 25-08-2020 04:44:17 13.8 C 38 %
30 25-08-2020 04:54:17 13.7 C 39 %
31 25-08-2020 05:04:18 13.2 C 40 %
32 25-08-2020 05:14:18 13.4 C 40 %
33 25-08-2020 05:24:17 13.3 C 40 %
34 25-08-2020 05:34:18 12.9 C 41 %
35 25-08-2020 05:44:18 12.5 C 42 %
36 25-08-2020 05:54:17 12.6 C 43 %
37 25-08-2020 06:04:17 12.6 C 42 %
38 25-08-2020 06:14:17 12.3 C 42 %
39 25-08-2020 06:24:17 12.4 C 42 %
40 25-08-2020 06:34:18 12.2 C 42 %
41 25-08-2020 06:44:18 12.3 C 43 %
42 25-08-2020 06:54:17 12.5 C 43 %
43 25-08-2020 07:04:18 12.8 C 43 %
44 25-08-2020 07:14:18 13.1 C 41 %
45 25-08-2020 07:24:17 13.2 C 41 %
46 25-08-2020 07:34:18 13.7 C 41 %
47 25-08-2020 07:44:18 14.1 C 39 %
48 25-08-2020 07:54:17 14.4 C 39 %
49 25-08-2020 08:04:17 14.9 C 37 %
50 25-08-2020 08:14:17 15.3 C 36 %
Sensor: Nr:Datum:Temp:Feuchte:
Aussen-T/F 51 25-08-2020 08:24:17 15.6 C 36 %
52 25-08-2020 08:34:17 15.6 C 35 %
53 25-08-2020 08:44:17 16 C 35 %
54 25-08-2020 08:54:17 16.3 C 35 %
55 25-08-2020 09:04:17 16.5 C 35 %
56 25-08-2020 09:14:17 16.5 C 35 %
57 25-08-2020 09:24:17 16.8 C 34 %
58 25-08-2020 09:34:18 17 C 33 %
59 25-08-2020 09:44:18 17.4 C 33 %
60 25-08-2020 09:54:18 17.7 C 33 %
61 25-08-2020 10:04:18 18 C 32 %
62 25-08-2020 10:14:18 18 C 32 %
63 25-08-2020 10:24:17 18 C 32 %
64 25-08-2020 10:34:18 18.4 C 32 %
65 25-08-2020 10:44:18 19.1 C 31 %
66 25-08-2020 10:54:17 19.6 C 31 %
67 25-08-2020 11:04:18 20.5 C 30 %
68 25-08-2020 11:14:18 20.7 C 30 %
69 25-08-2020 11:24:17 21.6 C 28 %
70 25-08-2020 11:34:18 23.1 C 25 %
71 25-08-2020 11:44:18 23 C 23 %
72 25-08-2020 11:54:18 23.4 C 23 %
73 25-08-2020 12:04:17 23 C 23 %
74 25-08-2020 12:14:17 22.9 C 24 %
75 25-08-2020 12:24:17 22.9 C 23 %
Sensor: Nr:Datum:Temp:Feuchte:
Aussen-T/F 76 25-08-2020 12:34:18 23.5 C 23 %
77 25-08-2020 12:44:18 23.9 C 22 %
78 25-08-2020 12:54:17 24.5 C 22 %
79 25-08-2020 13:04:18 24 C 22 %
80 25-08-2020 13:14:18 23.8 C 22 %
81 25-08-2020 13:24:17 24.6 C 21 %
82 25-08-2020 13:34:17 24.9 C 21 %
83 25-08-2020 13:44:17 24.4 C 21 %
84 25-08-2020 13:54:17 23.8 C 22 %
85 25-08-2020 14:04:17 23.6 C 22 %
86 25-08-2020 14:14:18 23.1 C 22 %
87 25-08-2020 14:24:17 22.7 C 22 %
88 25-08-2020 14:34:18 22.9 C 22 %
89 25-08-2020 14:44:18 23.2 C 22 %
90 25-08-2020 14:54:17 23.1 C 22 %
91 25-08-2020 15:04:17 23.3 C 22 %
92 25-08-2020 15:14:17 23.2 C 22 %
93 25-08-2020 15:24:18 23.1 C 23 %
94 25-08-2020 15:34:17 22.8 C 24 %
95 25-08-2020 15:44:17 22.3 C 25 %
96 25-08-2020 15:54:17 21 C 29 %
97 25-08-2020 16:04:17 19.9 C 33 %
98 25-08-2020 16:14:18 19.6 C 35 %
99 25-08-2020 16:24:17 20.1 C 34 %
100 25-08-2020 16:34:17 21.6 C 30 %
Sensor: Nr:Datum:Temp:Feuchte:
Aussen-T/F 101 25-08-2020 16:44:17 21.7 C 31 %
102 25-08-2020 16:54:17 21.6 C 31 %
103 25-08-2020 17:04:18 21.6 C 31 %
104 25-08-2020 17:14:18 21.9 C 31 %
105 25-08-2020 17:24:17 22.2 C 28 %
106 25-08-2020 17:34:17 22.5 C 29 %
107 25-08-2020 17:44:17 23.8 C 25 %
108 25-08-2020 17:54:17 28.4 C 20 %
109 25-08-2020 18:04:17 26.5 C 20 %
110 25-08-2020 18:14:17 25.3 C 20 %
111 25-08-2020 18:24:18 24.7 C 21 %
112 25-08-2020 18:34:17 25.3 C 20 %
113 25-08-2020 18:44:18 25.1 C 20 %
114 25-08-2020 18:54:17 25.2 C 20 %
115 25-08-2020 19:04:18 25.1 C 20 %
116 25-08-2020 19:14:18 24.6 C 21 %
117 25-08-2020 19:24:17 23.8 C 22 %
118 25-08-2020 19:34:17 22.9 C 24 %
119 25-08-2020 19:44:17 22.5 C 25 %
120 25-08-2020 19:54:17 22.5 C 24 %
121 25-08-2020 20:04:17 22.5 C 24 %
122 25-08-2020 20:14:18 22.3 C 24 %
123 25-08-2020 20:24:17 22.8 C 22 %
124 25-08-2020 20:34:18 22.5 C 22 %
125 25-08-2020 20:44:18 22.6 C 23 %
Sensor: Nr:Datum:Temp:Feuchte:
Aussen-T/F 126 25-08-2020 20:54:18 22.2 C 23 %
127 25-08-2020 21:04:18 21.8 C 24 %
128 25-08-2020 21:14:18 21.6 C 24 %
129 25-08-2020 21:24:17 20.3 C 25 %
130 25-08-2020 21:34:18 20.3 C 25 %
131 25-08-2020 21:44:18 20.2 C 25 %
132 25-08-2020 21:54:17 20 C 25 %
133 25-08-2020 22:04:17 20.8 C 25 %
134 25-08-2020 22:14:17 20.4 C 25 %
135 25-08-2020 22:24:17 20.8 C 24 %
136 25-08-2020 22:34:17 20.8 C 24 %
137 25-08-2020 22:44:18 21.2 C 23 %
138 25-08-2020 22:54:17 20.6 C 24 %
139 25-08-2020 23:04:17 20.9 C 25 %
140 25-08-2020 23:14:17 21 C 23 %
141 25-08-2020 23:24:17 20.7 C 25 %
142 25-08-2020 23:34:17 20.3 C 25 %
143 25-08-2020 23:44:17 20.4 C 25 %
144 25-08-2020 23:54:17 20.2 C 25 %
145 26-08-2020 00:04:17 21.2 C 24 %
146 26-08-2020 00:14:17 21.4 C 24 %
147 26-08-2020 00:24:17 21.7 C 24 %
148 26-08-2020 00:34:18 21.5 C 24 %
149 26-08-2020 00:44:18 21.2 C 25 %
150 26-08-2020 00:54:18 20.8 C 26 %
Sensor: Nr:Datum:Temp:Feuchte:
Aussen-T/F 151 26-08-2020 01:04:18 21.4 C 25 %
152 26-08-2020 01:14:18 21.9 C 25 %
153 26-08-2020 01:24:17 21.4 C 25 %
154 26-08-2020 01:34:17 21.9 C 25 %
155 26-08-2020 01:44:17 22.7 C 25 %
156 26-08-2020 01:54:17 22.7 C 25 %
157 26-08-2020 02:04:17 22.9 C 25 %
158 26-08-2020 02:14:17 22.7 C 25 %
159 26-08-2020 02:24:17 22.9 C 25 %
160 26-08-2020 02:34:17 22.4 C 25 %
161 26-08-2020 02:44:18 22 C 25 %
162 26-08-2020 02:54:17 22.6 C 25 %
163 26-08-2020 03:04:18 22.3 C 25 %
164 26-08-2020 03:14:18 22.3 C 25 %
165 26-08-2020 03:24:17 21.9 C 26 %
166 26-08-2020 03:34:17 21.9 C 25 %
167 26-08-2020 03:44:17 21.4 C 25 %
168 26-08-2020 03:54:17 21.1 C 25 %
169 26-08-2020 04:04:18 21 C 25 %
170 26-08-2020 04:14:18 20.8 C 26 %
171 26-08-2020 04:24:17 20.6 C 26 %
172 26-08-2020 04:34:17 20.2 C 26 %
173 26-08-2020 04:44:17 20.5 C 25 %
174 26-08-2020 04:54:17 20.5 C 25 %
175 26-08-2020 05:04:17 20.4 C 25 %
Sensor: Nr:Datum:Temp:Feuchte:
Aussen-T/F 176 26-08-2020 05:14:17 20.3 C 25 %
177 26-08-2020 05:24:17 20.2 C 25 %
178 26-08-2020 05:34:17 20 C 25 %
179 26-08-2020 05:44:17 20 C 24 %
180 26-08-2020 05:54:17 20 C 24 %
181 26-08-2020 06:04:17 19.9 C 25 %
182 26-08-2020 06:14:17 19.8 C 25 %
183 26-08-2020 06:24:17 19.7 C 25 %
184 26-08-2020 06:34:18 19.6 C 25 %
185 26-08-2020 06:44:18 19.4 C 25 %
186 26-08-2020 06:54:17 19.4 C 25 %
187 26-08-2020 07:04:17 19.4 C 25 %
188 26-08-2020 07:14:17 19.4 C 25 %
189 26-08-2020 07:24:17 19.4 C 24 %
190 26-08-2020 07:34:17 19.4 C 25 %
191 26-08-2020 07:44:17 19.4 C 25 %
192 26-08-2020 07:54:17 19.4 C 25 %
193 26-08-2020 08:04:17 19.5 C 25 %
194 26-08-2020 08:14:17 19.4 C 25 %
195 26-08-2020 08:24:17 19.5 C 25 %
196 26-08-2020 08:34:18 19.5 C 25 %
197 26-08-2020 08:44:18 19.6 C 25 %
198 26-08-2020 08:54:17 19.6 C 25 %
199 26-08-2020 09:04:17 19.5 C 25 %
200 26-08-2020 09:14:17 19.5 C 25 %
Sensor: Nr:Datum:Temp:Feuchte:
Aussen-T/F 201 26-08-2020 09:24:17 19.7 C 25 %
202 26-08-2020 09:34:17 19.8 C 25 %
203 26-08-2020 09:44:17 19.6 C 25 %
204 26-08-2020 09:54:18 19.7 C 25 %
205 26-08-2020 10:04:18 19.7 C 25 %
206 26-08-2020 10:14:18 19.8 C 25 %
207 26-08-2020 10:24:17 20 C 25 %
208 26-08-2020 10:34:18 19.8 C 25 %
209 26-08-2020 10:44:18 19.7 C 25 %
210 26-08-2020 10:54:17 19.8 C 25 %
211 26-08-2020 11:04:18 19.7 C 25 %
212 26-08-2020 11:14:18 19.7 C 25 %
213 26-08-2020 11:24:17 20 C 24 %
214 26-08-2020 11:34:18 20.2 C 24 %
215 26-08-2020 11:44:18 20.7 C 24 %
216 26-08-2020 11:54:17 20.7 C 24 %
217 26-08-2020 12:04:18 20.4 C 24 %
218 26-08-2020 12:14:18 20.4 C 25 %
219 26-08-2020 12:24:17 20.2 C 25 %
220 26-08-2020 12:34:17 20.2 C 25 %
221 26-08-2020 12:44:17 20.5 C 25 %
222 26-08-2020 12:54:17 20.7 C 25 %
223 26-08-2020 13:04:18 21.2 C 24 %
224 26-08-2020 13:14:18 21.7 C 23 %
225 26-08-2020 13:24:18 21.4 C 24 %
Sensor: Nr:Datum:Temp:Feuchte:
Aussen-T/F 226 26-08-2020 13:34:17 22 C 22 %
227 26-08-2020 13:44:17 22.5 C 22 %
228 26-08-2020 13:54:17 22.5 C 22 %
229 26-08-2020 14:04:18 22 C 22 %
230 26-08-2020 14:14:18 22.4 C 22 %
231 26-08-2020 14:24:17 22 C 21 %
232 26-08-2020 14:34:18 24.2 C 20 %
233 26-08-2020 14:44:18 22.4 C 21 %
234 26-08-2020 14:54:17 22.3 C 21 %
235 26-08-2020 15:04:17 22.7 C 21 %
236 26-08-2020 15:14:17 22.9 C 21 %
237 26-08-2020 15:24:17 24.5 C 20 %
238 26-08-2020 15:34:17 24.9 C 20 %
239 26-08-2020 15:44:17 24.3 C 20 %
240 26-08-2020 15:54:17 24.3 C 20 %
241 26-08-2020 16:04:18 23.3 C 20 %
242 26-08-2020 16:14:18 23.7 C 20 %
243 26-08-2020 16:24:17 23.3 C 20 %
244 26-08-2020 16:34:17 24.6 C 20 %
245 26-08-2020 16:44:17 23.8 C 20 %
246 26-08-2020 16:54:18 23.3 C 20 %
247 26-08-2020 17:04:18 23.2 C 20 %
248 26-08-2020 17:14:18 23.2 C 20 %
249 26-08-2020 17:24:17 23.2 C 20 %
250 26-08-2020 17:34:17 23.1 C 20 %
Sensor: Nr:Datum:Temp:Feuchte:
Aussen-T/F 251 26-08-2020 17:44:17 23 C 20 %
252 26-08-2020 17:54:17 22.9 C 20 %
253 26-08-2020 18:04:17 22.9 C 20 %
254 26-08-2020 18:14:17 22.9 C 20 %
255 26-08-2020 18:24:17 22.7 C 20 %
256 26-08-2020 18:34:17 22.6 C 21 %
257 26-08-2020 18:44:17 22.3 C 21 %
258 26-08-2020 18:54:17 22.3 C 21 %
259 26-08-2020 19:04:18 22.1 C 21 %
260 26-08-2020 19:14:18 21.9 C 22 %
261 26-08-2020 19:24:17 21.8 C 22 %
262 26-08-2020 19:34:18 21.7 C 22 %
263 26-08-2020 19:44:18 21.4 C 22 %
264 26-08-2020 19:54:17 21.2 C 23 %
265 26-08-2020 20:04:17 21 C 23 %
266 26-08-2020 20:14:17 20.9 C 24 %
267 26-08-2020 20:24:18 20.7 C 25 %
268 26-08-2020 20:34:17 20.4 C 25 %
269 26-08-2020 20:44:17 20.3 C 25 %
270 26-08-2020 20:54:17 20.2 C 25 %
271 26-08-2020 21:04:17 20 C 25 %
272 26-08-2020 21:14:17 20 C 25 %
273 26-08-2020 21:24:17 20 C 25 %
274 26-08-2020 21:34:18 19.9 C 25 %
275 26-08-2020 21:44:18 19.7 C 26 %
Sensor: Nr:Datum:Temp:Feuchte:
Aussen-T/F 276 26-08-2020 21:54:17 19.7 C 25 %
277 26-08-2020 22:04:18 19.6 C 25 %
278 26-08-2020 22:14:18 19.6 C 26 %
279 26-08-2020 22:24:18 19.3 C 26 %
280 26-08-2020 22:34:17 19.3 C 26 %
281 26-08-2020 22:44:17 19.1 C 26 %
282 26-08-2020 22:54:17 19 C 26 %
283 26-08-2020 23:04:17 19 C 26 %
284 26-08-2020 23:14:17 18.9 C 27 %
285 26-08-2020 23:24:17 18.6 C 27 %
286 26-08-2020 23:34:18 18.7 C 27 %
287 26-08-2020 23:44:18 18.6 C 27 %
288 26-08-2020 23:54:18 18.4 C 27 %
289 27-08-2020 00:04:17 18.4 C 27 %
290 27-08-2020 00:14:17 18.3 C 27 %
291 27-08-2020 00:24:17 18 C 28 %
292 27-08-2020 00:34:17 17.8 C 29 %
293 27-08-2020 00:44:17 17.8 C 29 %
294 27-08-2020 00:54:17 17.8 C 29 %
295 27-08-2020 01:04:18 17.8 C 29 %
296 27-08-2020 01:14:18 17.6 C 29 %
297 27-08-2020 01:24:18 16.9 C 30 %
298 27-08-2020 01:34:18 16.4 C 31 %
299 27-08-2020 01:44:18 15.9 C 32 %
300 27-08-2020 01:54:17 16 C 32 %
Sensor: Nr:Datum:Temp:Feuchte:
Aussen-T/F 301 27-08-2020 02:04:17 15.6 C 33 %
302 27-08-2020 02:14:17 16.4 C 32 %
303 27-08-2020 02:24:17 16.4 C 32 %
304 27-08-2020 02:34:17 16.7 C 32 %
305 27-08-2020 02:44:17 16.4 C 32 %
306 27-08-2020 02:54:18 16.2 C 32 %
307 27-08-2020 03:04:18 15.7 C 33 %
308 27-08-2020 03:14:18 14.8 C 35 %
309 27-08-2020 03:24:17 14.7 C 35 %
310 27-08-2020 03:34:17 14.4 C 35 %
311 27-08-2020 03:44:18 14 C 36 %
312 27-08-2020 03:54:17 14.1 C 36 %
313 27-08-2020 04:04:17 13.7 C 38 %
314 27-08-2020 04:14:17 13.4 C 38 %
315 27-08-2020 04:24:17 13.2 C 39 %
316 27-08-2020 04:34:18 13.3 C 38 %
317 27-08-2020 04:44:18 13.4 C 38 %
318 27-08-2020 04:54:17 13.3 C 39 %
319 27-08-2020 05:04:17 13 C 39 %
320 27-08-2020 05:14:17 12.6 C 40 %
321 27-08-2020 05:24:18 12.4 C 41 %
322 27-08-2020 05:34:18 12.9 C 41 %
323 27-08-2020 05:44:18 12.8 C 41 %
324 27-08-2020 05:54:17 12.5 C 41 %
325 27-08-2020 06:04:17 12.5 C 41 %
Sensor: Nr:Datum:Temp:Feuchte:
Aussen-T/F 326 27-08-2020 06:14:17 12.5 C 41 %
327 27-08-2020 06:24:17 12.7 C 41 %
328 27-08-2020 06:34:18 12.5 C 41 %
329 27-08-2020 06:44:18 12.5 C 41 %
330 27-08-2020 06:54:17 12.4 C 41 %
331 27-08-2020 07:04:18 12.2 C 42 %
332 27-08-2020 07:14:18 12.2 C 42 %
333 27-08-2020 07:24:17 12.8 C 41 %
334 27-08-2020 07:34:17 12.6 C 40 %
335 27-08-2020 07:44:18 12.7 C 40 %
336 27-08-2020 07:54:17 13 C 39 %
337 27-08-2020 08:04:17 13 C 39 %
338 27-08-2020 08:14:17 13.1 C 39 %
339 27-08-2020 08:24:17 13.8 C 38 %
340 27-08-2020 08:34:18 14.1 C 36 %
341 27-08-2020 08:44:18 14.5 C 36 %
342 27-08-2020 08:54:17 15.4 C 35 %
343 27-08-2020 09:04:18 15.9 C 34 %
344 27-08-2020 09:14:18 16.3 C 33 %
345 27-08-2020 09:24:18 16.4 C 33 %
346 27-08-2020 09:34:17 17 C 32 %
347 27-08-2020 09:44:17 17.5 C 31 %
348 27-08-2020 09:54:17 17.3 C 32 %
349 27-08-2020 10:04:17 16.8 C 32 %
350 27-08-2020 10:14:17 16.9 C 32 %
Sensor: Nr:Datum:Temp:Feuchte:
Aussen-T/F 351 27-08-2020 10:24:17 17.5 C 32 %
352 27-08-2020 10:34:17 18 C 31 %
353 27-08-2020 10:44:17 19.2 C 30 %
354 27-08-2020 10:54:17 19.7 C 30 %
355 27-08-2020 11:04:17 20.8 C 28 %
356 27-08-2020 11:14:17 20 C 28 %
357 27-08-2020 11:24:18 20.3 C 28 %
358 27-08-2020 11:34:17 19.7 C 28 %
359 27-08-2020 11:44:18 20.4 C 28 %
360 27-08-2020 11:54:17 20.6 C 27 %
361 27-08-2020 12:04:17 20.4 C 27 %
362 27-08-2020 12:14:17 20.6 C 27 %
363 27-08-2020 12:24:17 20.9 C 27 %
364 27-08-2020 12:34:18 20.6 C 26 %
365 27-08-2020 12:44:18 21.3 C 26 %
366 27-08-2020 12:54:17 21.6 C 25 %
367 27-08-2020 13:04:17 21.7 C 25 %
368 27-08-2020 13:14:17 21.2 C 25 %
369 27-08-2020 13:24:17 20.4 C 26 %
370 27-08-2020 13:34:18 21.1 C 25 %
371 27-08-2020 13:44:18 21.2 C 25 %
372 27-08-2020 13:54:17 21.7 C 25 %
373 27-08-2020 14:04:17 22.3 C 23 %
374 27-08-2020 14:14:17 22.1 C 23 %
375 27-08-2020 14:24:18 23.6 C 22 %
Sensor: Nr:Datum:Temp:Feuchte:
Aussen-T/F 376 27-08-2020 14:34:17 25.6 C 20 %
377 27-08-2020 14:44:18 25.3 C 20 %
378 27-08-2020 14:54:17 27.5 C 20 %
379 27-08-2020 15:04:18 26.2 C 20 %
380 27-08-2020 15:14:18 28.3 C 20 %
381 27-08-2020 15:24:17 27.6 C 20 %
382 27-08-2020 15:34:17 29.9 C 20 %
383 27-08-2020 15:44:17 29.5 C 20 %
384 27-08-2020 15:54:17 29.4 C 20 %
385 27-08-2020 16:04:17 31 C 20 %
386 27-08-2020 16:14:17 29.2 C 20 %
387 27-08-2020 16:24:17 29.2 C 20 %
388 27-08-2020 16:34:17 29.8 C 20 %
389 27-08-2020 16:44:17 30.5 C 20 %
390 27-08-2020 16:54:18 27.9 C 20 %
391 27-08-2020 17:04:18 29.4 C 20 %
392 27-08-2020 17:14:18 29.5 C 20 %
393 27-08-2020 17:24:17 29.6 C 20 %
394 27-08-2020 17:34:18 28.7 C 20 %
395 27-08-2020 17:44:18 28.8 C 20 %
396 27-08-2020 17:54:17 28.1 C 20 %
397 27-08-2020 18:04:18 26 C 20 %
398 27-08-2020 18:14:18 25.3 C 20 %
399 27-08-2020 18:24:17 24.8 C 20 %
400 27-08-2020 18:34:17 25 C 20 %
Sensor: Nr:Datum:Temp:Feuchte:
Aussen-T/F 401 27-08-2020 18:44:17 24.7 C 20 %
402 27-08-2020 18:54:17 24.6 C 20 %
403 27-08-2020 19:04:17 24.4 C 20 %
404 27-08-2020 19:14:17 24 C 20 %
405 27-08-2020 19:24:17 23.7 C 20 %
406 27-08-2020 19:34:17 23.1 C 20 %
407 27-08-2020 19:44:18 22.5 C 20 %
408 27-08-2020 19:54:17 20.9 C 23 %
409 27-08-2020 20:04:18 20.2 C 24 %
410 27-08-2020 20:14:18 19.8 C 25 %
411 27-08-2020 20:24:18 19.5 C 25 %
412 27-08-2020 20:34:17 19 C 25 %
413 27-08-2020 20:44:17 18.8 C 26 %
414 27-08-2020 20:54:17 18.5 C 26 %
415 27-08-2020 21:04:18 18.5 C 26 %
416 27-08-2020 21:14:18 18.2 C 26 %
417 27-08-2020 21:24:17 18.2 C 26 %
418 27-08-2020 21:34:17 18.2 C 26 %
419 27-08-2020 21:44:17 18.3 C 26 %
420 27-08-2020 21:54:17 18 C 26 %
421 27-08-2020 22:04:17 18.1 C 26 %
422 27-08-2020 22:14:17 17.7 C 27 %
423 27-08-2020 22:24:17 17.7 C 27 %
424 27-08-2020 22:34:17 17.2 C 28 %
425 27-08-2020 22:44:17 17.4 C 29 %
Sensor: Nr:Datum:Temp:Feuchte:
Aussen-T/F 426 27-08-2020 22:54:18 18 C 27 %
427 27-08-2020 23:04:17 18.2 C 27 %
428 27-08-2020 23:14:17 17.4 C 31 %
429 27-08-2020 23:24:17 17.7 C 31 %
430 27-08-2020 23:34:17 16.8 C 35 %
431 27-08-2020 23:44:17 16.4 C 36 %
432 27-08-2020 23:54:17 16.6 C 36 %
433 28-08-2020 00:04:18 16.9 C 35 %
434 28-08-2020 00:14:18 17 C 34 %
435 28-08-2020 00:24:17 17 C 34 %
436 28-08-2020 00:34:17 17.1 C 34 %
437 28-08-2020 00:44:17 17.2 C 32 %
438 28-08-2020 00:54:17 17.1 C 33 %
439 28-08-2020 01:04:18 17 C 34 %
440 28-08-2020 01:14:18 17.1 C 33 %
441 28-08-2020 01:24:17 17.2 C 33 %
442 28-08-2020 01:34:18 16.7 C 35 %
443 28-08-2020 01:44:18 15.9 C 39 %
444 28-08-2020 01:54:17 15.9 C 41 %
445 28-08-2020 02:04:18 16.1 C 41 %
446 28-08-2020 02:14:18 16 C 41 %
447 28-08-2020 02:24:18 16 C 42 %
448 28-08-2020 02:34:18 16 C 42 %
449 28-08-2020 02:44:18 15.8 C 43 %
450 28-08-2020 02:54:17 15.6 C 42 %
Sensor: Nr:Datum:Temp:Feuchte:
Aussen-T/F 451 28-08-2020 03:04:18 15.6 C 42 %
452 28-08-2020 03:14:18 15.5 C 42 %
453 28-08-2020 03:24:17 15.6 C 42 %
454 28-08-2020 03:34:17 15.6 C 42 %
455 28-08-2020 03:44:17 15.6 C 42 %
456 28-08-2020 03:54:17 15.5 C 42 %
457 28-08-2020 04:04:17 15.4 C 42 %
458 28-08-2020 04:14:17 15.5 C 42 %
459 28-08-2020 04:24:17 15.5 C 42 %
460 28-08-2020 04:34:17 15.6 C 42 %
461 28-08-2020 04:44:17 15.5 C 42 %
462 28-08-2020 04:54:17 15.8 C 41 %
463 28-08-2020 05:04:18 15.9 C 41 %
464 28-08-2020 05:14:18 16 C 40 %
465 28-08-2020 05:24:17 15.6 C 42 %
466 28-08-2020 05:34:18 15.4 C 42 %
467 28-08-2020 05:44:18 15.2 C 43 %
468 28-08-2020 05:54:18 15.3 C 43 %
469 28-08-2020 06:04:17 15.3 C 42 %
470 28-08-2020 06:14:17 15.5 C 42 %
471 28-08-2020 06:24:17 15.5 C 42 %
472 28-08-2020 06:34:18 15.5 C 42 %
473 28-08-2020 06:44:18 15.6 C 41 %
474 28-08-2020 06:54:17 15.5 C 42 %
475 28-08-2020 07:04:18 15.5 C 42 %
Sensor: Nr:Datum:Temp:Feuchte:
Aussen-T/F 476 28-08-2020 07:14:18 15.5 C 42 %
477 28-08-2020 07:24:17 15.5 C 42 %
478 28-08-2020 07:34:18 15.9 C 40 %
479 28-08-2020 07:44:18 15.8 C 41 %
480 28-08-2020 07:54:18 16 C 40 %
481 28-08-2020 08:04:18 16.4 C 39 %
482 28-08-2020 08:14:18 16.6 C 38 %
483 28-08-2020 08:24:18 16.9 C 36 %
484 28-08-2020 08:34:17 17 C 36 %
485 28-08-2020 08:44:17 17.5 C 35 %
486 28-08-2020 08:54:17 17.5 C 35 %
487 28-08-2020 09:04:17 17.6 C 35 %
488 28-08-2020 09:14:17 17.9 C 34 %
489 28-08-2020 09:24:18 17.8 C 34 %
490 28-08-2020 09:34:17 18.1 C 33 %
491 28-08-2020 09:44:17 18.1 C 33 %
492 28-08-2020 09:54:17 18.2 C 33 %
493 28-08-2020 10:04:18 18.8 C 32 %
494 28-08-2020 10:14:18 19.4 C 31 %
495 28-08-2020 10:24:17 19.8 C 30 %
496 28-08-2020 10:34:17 19.8 C 29 %
497 28-08-2020 10:44:18 20 C 28 %
498 28-08-2020 10:54:17 20.4 C 28 %
499 28-08-2020 11:04:18 21.2 C 27 %
500 28-08-2020 11:14:18 20.7 C 28 %
Sensor: Nr:Datum:Temp:Feuchte:
Aussen-T/F 501 28-08-2020 11:24:18 20.6 C 28 %
502 28-08-2020 11:34:18 21.9 C 27 %
503 28-08-2020 11:44:18 22.5 C 25 %
504 28-08-2020 11:54:17 22.8 C 25 %
505 28-08-2020 12:04:17 22.9 C 25 %
506 28-08-2020 12:14:17 22 C 25 %
507 28-08-2020 12:24:17 22.4 C 25 %
508 28-08-2020 12:34:17 21.5 C 26 %
509 28-08-2020 12:44:17 21.3 C 26 %
510 28-08-2020 12:54:17 21.8 C 26 %
511 28-08-2020 13:04:18 22.1 C 25 %
512 28-08-2020 13:14:18 21.8 C 26 %
513 28-08-2020 13:24:17 21.5 C 26 %
514 28-08-2020 13:34:18 21.6 C 26 %
515 28-08-2020 13:44:18 21.7 C 25 %
516 28-08-2020 13:54:17 21.5 C 26 %
517 28-08-2020 14:04:17 22.2 C 25 %
518 28-08-2020 14:14:17 22.5 C 25 %
519 28-08-2020 14:24:17 22.9 C 25 %
520 28-08-2020 14:34:18 22.7 C 25 %
521 28-08-2020 14:44:18 22.5 C 25 %
522 28-08-2020 14:54:17 22.5 C 25 %
523 28-08-2020 15:04:18 21.9 C 25 %
524 28-08-2020 15:14:18 22.7 C 25 %
525 28-08-2020 15:24:18 22.7 C 25 %
Sensor: Nr:Datum:Temp:Feuchte:
Aussen-T/F 526 28-08-2020 15:34:17 23.8 C 23 %
527 28-08-2020 15:44:18 24.5 C 22 %
528 28-08-2020 15:54:18 22.9 C 24 %
529 28-08-2020 16:04:17 23 C 23 %
530 28-08-2020 16:14:18 22.9 C 24 %
531 28-08-2020 16:24:17 22 C 24 %
532 28-08-2020 16:34:18 23.7 C 23 %
533 28-08-2020 16:44:18 24.7 C 22 %
534 28-08-2020 16:54:17 24.6 C 22 %
535 28-08-2020 17:04:17 26 C 21 %
536 28-08-2020 17:14:17 23.9 C 22 %
537 28-08-2020 17:24:17 23.4 C 22 %
538 28-08-2020 17:34:18 23.7 C 21 %
539 28-08-2020 17:44:18 23 C 22 %
540 28-08-2020 17:54:17 23.4 C 21 %
541 28-08-2020 18:04:18 23.1 C 21 %
542 28-08-2020 18:14:18 22 C 22 %
543 28-08-2020 18:24:18 21.6 C 23 %
544 28-08-2020 18:34:18 21.3 C 23 %
545 28-08-2020 18:44:18 20.9 C 24 %
546 28-08-2020 18:54:17 20.7 C 25 %
547 28-08-2020 19:04:18 20.7 C 23 %
548 28-08-2020 19:14:18 20.5 C 23 %
549 28-08-2020 19:24:17 20.4 C 23 %
550 28-08-2020 19:34:18 20.5 C 23 %
Sensor: Nr:Datum:Temp:Feuchte:
Aussen-T/F 551 28-08-2020 19:44:18 20.5 C 23 %
552 28-08-2020 19:54:18 19.7 C 25 %
553 28-08-2020 20:04:18 19.5 C 25 %
554 28-08-2020 20:14:18 19.3 C 26 %
555 28-08-2020 20:24:17 19.1 C 25 %
556 28-08-2020 20:34:17 18.2 C 26 %
557 28-08-2020 20:44:17 16.2 C 30 %
558 28-08-2020 20:54:17 15 C 34 %
559 28-08-2020 21:04:18 14.2 C 37 %
560 28-08-2020 21:14:18 13.8 C 40 %
561 28-08-2020 21:24:17 14.2 C 38 %
562 28-08-2020 21:34:18 14.1 C 38 %
563 28-08-2020 21:44:18 13.6 C 40 %
564 28-08-2020 21:54:18 13.3 C 41 %
565 28-08-2020 22:04:17 13.2 C 40 %
566 28-08-2020 22:14:17 13.4 C 39 %
567 28-08-2020 22:24:18 13.5 C 38 %
568 28-08-2020 22:34:17 13.4 C 39 %
569 28-08-2020 22:44:17 13 C 40 %
570 28-08-2020 22:54:17 13.2 C 40 %
571 28-08-2020 23:04:18 12.9 C 41 %
572 28-08-2020 23:14:18 12.3 C 41 %
573 28-08-2020 23:24:17 12.6 C 41 %
574 28-08-2020 23:34:17 12.4 C 41 %
575 28-08-2020 23:44:17 12.5 C 41 %
Sensor: Nr:Datum:Temp:Feuchte:
Aussen-T/F 576 28-08-2020 23:54:17 12.4 C 41 %
577 29-08-2020 00:04:18 12.5 C 41 %
578 29-08-2020 00:14:18 12.5 C 40 %
579 29-08-2020 00:24:17 12.7 C 40 %
580 29-08-2020 00:34:18 12.6 C 41 %
581 29-08-2020 00:44:18 12.8 C 40 %
582 29-08-2020 00:54:17 12.5 C 41 %
583 29-08-2020 01:04:18 12.7 C 41 %
584 29-08-2020 01:14:18 12.7 C 40 %
585 29-08-2020 01:24:17 12.2 C 41 %
586 29-08-2020 01:34:18 12.5 C 41 %
587 29-08-2020 01:44:18 12.2 C 41 %
588 29-08-2020 01:54:18 11.7 C 42 %
589 29-08-2020 02:04:17 11.8 C 44 %
590 29-08-2020 02:14:17 12.1 C 42 %
591 29-08-2020 02:24:17 12.1 C 41 %
592 29-08-2020 02:34:18 11.8 C 43 %
593 29-08-2020 02:44:18 11.7 C 44 %
594 29-08-2020 02:54:17 12 C 42 %
595 29-08-2020 03:04:17 12 C 41 %
596 29-08-2020 03:14:17 11.5 C 42 %
597 29-08-2020 03:24:18 11.2 C 43 %
598 29-08-2020 03:34:17 11.3 C 45 %
599 29-08-2020 03:44:17 11.7 C 44 %
600 29-08-2020 03:54:17 12 C 41 %
Sensor: Nr:Datum:Temp:Feuchte:
Aussen-T/F 601 29-08-2020 04:04:17 12 C 41 %
602 29-08-2020 04:14:17 11.7 C 42 %
603 29-08-2020 04:24:17 11.5 C 43 %
604 29-08-2020 04:34:18 11.3 C 43 %
605 29-08-2020 04:44:18 11.2 C 43 %
606 29-08-2020 04:54:17 10.9 C 45 %
607 29-08-2020 05:04:17 10.8 C 45 %
608 29-08-2020 05:14:17 11 C 44 %
609 29-08-2020 05:24:17 11.1 C 43 %
610 29-08-2020 05:34:18 10.7 C 45 %
611 29-08-2020 05:44:18 10.5 C 46 %
612 29-08-2020 05:54:17 10.4 C 46 %
613 29-08-2020 06:04:18 10.6 C 46 %
614 29-08-2020 06:14:18 10.4 C 46 %
615 29-08-2020 06:24:18 10.6 C 46 %
616 29-08-2020 06:34:17 10.7 C 45 %
617 29-08-2020 06:44:17 10.8 C 45 %
618 29-08-2020 06:54:18 10.9 C 45 %
619 29-08-2020 07:04:17 11 C 44 %
620 29-08-2020 07:14:17 10.8 C 45 %
621 29-08-2020 07:24:17 11 C 44 %
622 29-08-2020 07:34:17 11.1 C 44 %
623 29-08-2020 07:44:17 11 C 44 %
624 29-08-2020 07:54:17 11.4 C 45 %
625 29-08-2020 08:04:17 11.8 C 45 %
Sensor: Nr:Datum:Temp:Feuchte:
Aussen-T/F 626 29-08-2020 08:14:17 12.1 C 43 %
627 29-08-2020 08:24:18 12.4 C 43 %
628 29-08-2020 08:34:18 12.7 C 41 %
629 29-08-2020 08:44:18 13.4 C 39 %
630 29-08-2020 08:54:18 13.8 C 38 %
631 29-08-2020 09:04:17 14.5 C 36 %
632 29-08-2020 09:14:17 15 C 35 %
633 29-08-2020 09:24:17 15.4 C 34 %
634 29-08-2020 09:34:17 15.2 C 34 %
635 29-08-2020 09:44:18 15.7 C 34 %
636 29-08-2020 09:54:17 16 C 33 %
637 29-08-2020 10:04:17 16.5 C 32 %
638 29-08-2020 10:14:17 16.7 C 32 %
639 29-08-2020 10:24:17 16.7 C 32 %
640 29-08-2020 10:34:17 16.6 C 32 %
641 29-08-2020 10:44:17 17.1 C 32 %
642 29-08-2020 10:54:17 17.6 C 31 %
643 29-08-2020 11:04:18 18.1 C 31 %
644 29-08-2020 11:14:18 17.8 C 31 %
645 29-08-2020 11:24:17 18.4 C 30 %
646 29-08-2020 11:34:18 18.5 C 30 %
647 29-08-2020 11:44:18 19.1 C 29 %
648 29-08-2020 11:54:18 19.7 C 29 %
649 29-08-2020 12:04:17 19.7 C 28 %
650 29-08-2020 12:14:17 19 C 28 %
Sensor: Nr:Datum:Temp:Feuchte:
Aussen-T/F 651 29-08-2020 12:24:17 18.7 C 29 %
652 29-08-2020 12:34:18 19.4 C 28 %
653 29-08-2020 12:44:18 19.1 C 28 %
654 29-08-2020 12:54:17 20 C 27 %
655 29-08-2020 13:04:17 19.4 C 28 %
656 29-08-2020 13:14:17 19.7 C 28 %
657 29-08-2020 13:24:17 20.2 C 27 %
658 29-08-2020 13:34:18 20 C 27 %
659 29-08-2020 13:44:18 20 C 27 %
660 29-08-2020 13:54:17 19.7 C 27 %
661 29-08-2020 14:04:18 20.5 C 26 %
662 29-08-2020 14:14:18 20.6 C 26 %
663 29-08-2020 14:24:18 21.3 C 25 %
664 29-08-2020 14:34:18 25.2 C 20 %
665 29-08-2020 14:44:18 25.9 C 20 %
666 29-08-2020 14:54:17 26.1 C 20 %
667 29-08-2020 15:04:18 24.7 C 20 %
668 29-08-2020 15:14:18 26.6 C 20 %
669 29-08-2020 15:24:17 28.3 C 20 %
670 29-08-2020 15:34:18 23.2 C 20 %
671 29-08-2020 15:44:18 23.3 C 20 %
672 29-08-2020 15:54:17 25.9 C 20 %
673 29-08-2020 16:04:17 27.7 C 20 %
674 29-08-2020 16:14:17 27.9 C 20 %
675 29-08-2020 16:24:17 27.1 C 20 %
Sensor: Nr:Datum:Temp:Feuchte:
Aussen-T/F 676 29-08-2020 16:34:18 27.9 C 20 %
677 29-08-2020 16:44:18 24.1 C 20 %
678 29-08-2020 16:54:17 23.7 C 20 %
679 29-08-2020 17:04:17 26.8 C 20 %
680 29-08-2020 17:14:17 29.2 C 20 %
681 29-08-2020 17:24:17 24 C 20 %
682 29-08-2020 17:34:18 23.5 C 20 %
683 29-08-2020 17:44:18 22.5 C 20 %
684 29-08-2020 17:54:17 25.2 C 20 %
685 29-08-2020 18:04:17 22.3 C 20 %
686 29-08-2020 18:14:17 21.5 C 22 %
687 29-08-2020 18:24:17 21.1 C 21 %
688 29-08-2020 18:34:18 21.1 C 23 %
689 29-08-2020 18:44:18 20.4 C 25 %
690 29-08-2020 18:54:17 21.4 C 22 %
691 29-08-2020 19:04:17 21.2 C 22 %
692 29-08-2020 19:14:17 21.4 C 22 %
693 29-08-2020 19:24:17 21.3 C 23 %
694 29-08-2020 19:34:17 21 C 23 %
695 29-08-2020 19:44:17 20.8 C 25 %
696 29-08-2020 19:54:17 20.5 C 25 %
697 29-08-2020 20:04:17 19.5 C 26 %
698 29-08-2020 20:14:17 19.5 C 26 %
699 29-08-2020 20:24:17 19.4 C 27 %
700 29-08-2020 20:34:17 19.1 C 27 %
Sensor: Nr:Datum:Temp:Feuchte:
Aussen-T/F 701 29-08-2020 20:44:17 19 C 27 %
702 29-08-2020 20:54:17 19 C 27 %
703 29-08-2020 21:04:17 18.9 C 28 %
704 29-08-2020 21:14:17 17.5 C 30 %
705 29-08-2020 21:24:17 16.9 C 33 %
706 29-08-2020 21:34:17 15.3 C 37 %
707 29-08-2020 21:44:17 15 C 37 %
708 29-08-2020 21:54:17 14.4 C 39 %
709 29-08-2020 22:04:18 14.3 C 39 %
710 29-08-2020 22:14:18 14.1 C 41 %
711 29-08-2020 22:24:18 14.1 C 42 %
712 29-08-2020 22:34:17 13.7 C 41 %
713 29-08-2020 22:44:18 13.4 C 41 %
714 29-08-2020 22:54:17 13.1 C 41 %
715 29-08-2020 23:04:17 13.1 C 42 %
716 29-08-2020 23:14:17 13 C 42 %
717 29-08-2020 23:24:18 13.2 C 43 %
718 29-08-2020 23:34:18 13.2 C 43 %
719 29-08-2020 23:44:18 13.4 C 42 %
720 29-08-2020 23:54:17 13.4 C 41 %
721 30-08-2020 00:04:18 12.9 C 43 %
722 30-08-2020 00:14:18 12.7 C 44 %
723 30-08-2020 00:24:18 12.5 C 44 %
724 30-08-2020 00:34:17 12.7 C 44 %
725 30-08-2020 00:44:18 12.7 C 44 %
Sensor: Nr:Datum:Temp:Feuchte:
Aussen-T/F 726 30-08-2020 00:54:17 12.4 C 44 %
727 30-08-2020 01:04:18 11.8 C 45 %
728 30-08-2020 01:14:18 12.1 C 44 %
729 30-08-2020 01:24:18 12 C 44 %
730 30-08-2020 01:34:18 11.7 C 45 %
731 30-08-2020 01:44:18 11.7 C 45 %
732 30-08-2020 01:54:17 11.6 C 45 %
733 30-08-2020 02:04:17 11.2 C 45 %
734 30-08-2020 02:14:18 11 C 45 %
735 30-08-2020 02:24:17 11.4 C 45 %
736 30-08-2020 02:34:18 11.1 C 45 %
737 30-08-2020 02:44:18 11 C 45 %
738 30-08-2020 02:54:17 10.8 C 45 %
739 30-08-2020 03:04:17 10.8 C 45 %
740 30-08-2020 03:14:18 10.6 C 45 %
741 30-08-2020 03:24:17 10.6 C 45 %
742 30-08-2020 03:34:18 10.6 C 45 %
743 30-08-2020 03:44:18 10.5 C 45 %
744 30-08-2020 03:54:17 10.1 C 45 %
745 30-08-2020 04:04:18 10.1 C 45 %
746 30-08-2020 04:14:18 10.1 C 45 %
747 30-08-2020 04:24:17 10.1 C 45 %
748 30-08-2020 04:34:18 10.5 C 45 %
749 30-08-2020 04:44:18 10.4 C 45 %
750 30-08-2020 04:54:17 10.6 C 45 %
Sensor: Nr:Datum:Temp:Feuchte:
Aussen-T/F 751 30-08-2020 05:04:17 10.8 C 45 %
752 30-08-2020 05:14:17 10.9 C 45 %
753 30-08-2020 05:24:18 10.8 C 45 %
754 30-08-2020 05:34:18 10.6 C 45 %
755 30-08-2020 05:44:18 10.2 C 45 %
756 30-08-2020 05:54:18 10.1 C 45 %
757 30-08-2020 06:04:17 10.2 C 45 %
758 30-08-2020 06:14:18 10.3 C 45 %
759 30-08-2020 06:24:17 10.5 C 45 %
760 30-08-2020 06:34:17 10.5 C 45 %
761 30-08-2020 06:44:18 10.4 C 45 %
762 30-08-2020 06:54:18 10.5 C 45 %
763 30-08-2020 07:04:17 10.7 C 45 %
764 30-08-2020 07:14:17 10.9 C 45 %
765 30-08-2020 07:24:17 10.8 C 45 %
766 30-08-2020 07:34:17 11.2 C 44 %
767 30-08-2020 07:44:18 11.4 C 44 %
768 30-08-2020 07:54:17 11.5 C 44 %
769 30-08-2020 08:04:18 11.6 C 44 %
770 30-08-2020 08:14:18 11.8 C 44 %
771 30-08-2020 08:24:18 11.8 C 44 %
772 30-08-2020 08:34:17 12 C 43 %
773 30-08-2020 08:44:17 12.4 C 43 %
774 30-08-2020 08:54:17 12.6 C 43 %
775 30-08-2020 09:04:17 13.2 C 41 %
Sensor: Nr:Datum:Temp:Feuchte:
Aussen-T/F 776 30-08-2020 09:14:17 13.5 C 41 %
777 30-08-2020 09:24:17 14.2 C 39 %
778 30-08-2020 09:34:17 14.3 C 37 %
779 30-08-2020 09:44:17 14.7 C 37 %
780 30-08-2020 09:54:17 15 C 36 %
781 30-08-2020 10:04:17 15.5 C 36 %
782 30-08-2020 10:14:17 15.8 C 35 %
783 30-08-2020 10:24:17 15.8 C 35 %
784 30-08-2020 10:34:17 16.3 C 34 %
785 30-08-2020 10:44:17 16.5 C 33 %
786 30-08-2020 10:54:17 16.5 C 34 %
787 30-08-2020 11:04:17 16.3 C 34 %
788 30-08-2020 11:14:18 17.1 C 33 %
789 30-08-2020 11:24:18 17.3 C 32 %
790 30-08-2020 11:34:17 17.8 C 32 %
791 30-08-2020 11:44:17 18 C 31 %
792 30-08-2020 11:54:17 17.8 C 32 %
793 30-08-2020 12:04:17 17.7 C 32 %
794 30-08-2020 12:14:17 18.1 C 31 %
795 30-08-2020 12:24:17 17.8 C 31 %
796 30-08-2020 12:34:18 18.5 C 30 %
797 30-08-2020 12:44:18 18.7 C 31 %
798 30-08-2020 12:54:17 18.9 C 30 %
799 30-08-2020 13:04:17 19.3 C 30 %
800 30-08-2020 13:14:18 19.9 C 30 %
Sensor: Nr:Datum:Temp:Feuchte:
Aussen-T/F 801 30-08-2020 13:24:17 19.6 C 30 %
802 30-08-2020 13:34:18 19.8 C 29 %
803 30-08-2020 13:44:18 20.1 C 29 %
804 30-08-2020 13:54:18 19.4 C 29 %
805 30-08-2020 14:04:17 20.6 C 28 %
806 30-08-2020 14:14:17 21 C 27 %
807 30-08-2020 14:24:18 20.9 C 28 %
808 30-08-2020 14:34:17 21.4 C 26 %
809 30-08-2020 14:44:17 21.8 C 26 %
810 30-08-2020 14:54:17 22.7 C 25 %
811 30-08-2020 15:04:17 23.1 C 24 %
812 30-08-2020 15:14:17 22.7 C 24 %
813 30-08-2020 15:24:17 23.7 C 23 %
814 30-08-2020 15:34:18 24.8 C 21 %
815 30-08-2020 15:44:18 26.1 C 20 %
816 30-08-2020 15:54:17 28.7 C 20 %
817 30-08-2020 16:04:18 28.1 C 20 %
818 30-08-2020 16:14:18 24.8 C 20 %
819 30-08-2020 16:24:17 22.9 C 20 %
820 30-08-2020 16:34:17 22.8 C 20 %
821 30-08-2020 16:44:18 23.3 C 20 %
822 30-08-2020 16:54:17 23.4 C 20 %
823 30-08-2020 17:04:17 22.8 C 21 %
824 30-08-2020 17:14:17 22.1 C 21 %
825 30-08-2020 17:24:17 23.3 C 20 %
Sensor: Nr:Datum:Temp:Feuchte:
Aussen-T/F 826 30-08-2020 17:34:17 23.9 C 20 %
827 30-08-2020 17:44:18 24.7 C 20 %
828 30-08-2020 17:54:17 23.7 C 20 %
829 30-08-2020 18:04:17 22 C 20 %
830 30-08-2020 18:14:18 22.6 C 20 %
831 30-08-2020 18:24:17 22.5 C 20 %
832 30-08-2020 18:34:17 22 C 21 %
833 30-08-2020 18:44:17 21.8 C 21 %
834 30-08-2020 18:54:17 21.3 C 21 %
835 30-08-2020 19:04:17 21.2 C 21 %
836 30-08-2020 19:14:17 21 C 22 %
837 30-08-2020 19:24:17 20.6 C 25 %
838 30-08-2020 19:34:17 20.3 C 25 %
839 30-08-2020 19:44:17 19.5 C 25 %
840 30-08-2020 19:54:17 18.9 C 27 %
841 30-08-2020 20:04:18 18.4 C 28 %
842 30-08-2020 20:14:18 18.3 C 28 %
843 30-08-2020 20:24:18 17.9 C 29 %
844 30-08-2020 20:34:18 18.6 C 28 %
845 30-08-2020 20:44:18 19.1 C 27 %
846 30-08-2020 20:54:18 19.1 C 28 %
847 30-08-2020 21:04:18 18.9 C 29 %
848 30-08-2020 21:14:18 18.8 C 29 %
849 30-08-2020 21:24:17 18.9 C 29 %
850 30-08-2020 21:34:17 18.6 C 30 %
Sensor: Nr:Datum:Temp:Feuchte:
Aussen-T/F 851 30-08-2020 21:44:17 18.3 C 30 %
852 30-08-2020 21:54:17 17.9 C 31 %
853 30-08-2020 22:04:17 17.8 C 31 %
854 30-08-2020 22:14:17 17.8 C 31 %
855 30-08-2020 22:24:18 17.5 C 31 %
856 30-08-2020 22:34:18 17.3 C 32 %
857 30-08-2020 22:44:18 17.1 C 32 %
858 30-08-2020 22:54:18 17 C 32 %
859 30-08-2020 23:04:18 17 C 32 %
860 30-08-2020 23:14:18 16.7 C 33 %
861 30-08-2020 23:24:17 16.8 C 33 %
862 30-08-2020 23:34:17 16.8 C 33 %
863 30-08-2020 23:44:17 16.7 C 33 %
864 30-08-2020 23:54:17 16.2 C 34 %
865 31-08-2020 00:04:17 16.3 C 34 %
866 31-08-2020 00:14:17 16.3 C 34 %
867 31-08-2020 00:24:17 15.9 C 35 %
868 31-08-2020 00:34:17 15.9 C 35 %
869 31-08-2020 00:44:18 15.8 C 35 %
870 31-08-2020 00:54:17 15.7 C 35 %
871 31-08-2020 01:04:17 15.8 C 35 %
872 31-08-2020 01:14:17 15.9 C 35 %
873 31-08-2020 01:24:17 16.1 C 35 %
874 31-08-2020 01:34:17 15.9 C 35 %
875 31-08-2020 01:44:17 15.4 C 36 %
Sensor: Nr:Datum:Temp:Feuchte:
Aussen-T/F 876 31-08-2020 01:54:17 15.2 C 36 %
877 31-08-2020 02:04:17 15.2 C 36 %
878 31-08-2020 02:14:17 15.5 C 36 %
879 31-08-2020 02:24:17 15.6 C 36 %
880 31-08-2020 02:34:17 15.8 C 36 %
881 31-08-2020 02:44:17 15.7 C 36 %
882 31-08-2020 02:54:17 15.5 C 36 %
883 31-08-2020 03:04:17 14.8 C 37 %
884 31-08-2020 03:14:17 14.2 C 37 %
885 31-08-2020 03:24:17 13.5 C 39 %
886 31-08-2020 03:34:17 13.5 C 39 %
887 31-08-2020 03:44:18 13.3 C 40 %
888 31-08-2020 03:54:17 13.6 C 40 %
889 31-08-2020 04:04:18 13.9 C 40 %
890 31-08-2020 04:14:18 14 C 38 %
891 31-08-2020 04:24:17 13.6 C 40 %
892 31-08-2020 04:34:18 13.6 C 40 %
893 31-08-2020 04:44:18 13.1 C 40 %
894 31-08-2020 04:54:17 13.1 C 41 %
895 31-08-2020 05:04:17 12.8 C 41 %
896 31-08-2020 05:14:17 12.5 C 42 %
897 31-08-2020 05:24:18 12.5 C 43 %
898 31-08-2020 05:34:18 12.7 C 43 %
899 31-08-2020 05:44:18 12.2 C 42 %
900 31-08-2020 05:54:17 12.7 C 42 %
Sensor: Nr:Datum:Temp:Feuchte:
Aussen-T/F 901 31-08-2020 06:04:17 12.5 C 42 %
902 31-08-2020 06:14:17 12.2 C 43 %
903 31-08-2020 06:24:17 12 C 43 %
904 31-08-2020 06:34:17 12.4 C 44 %
905 31-08-2020 06:44:17 12.7 C 44 %
906 31-08-2020 06:54:17 13 C 42 %
907 31-08-2020 07:04:17 13.2 C 41 %
908 31-08-2020 07:14:18 13.4 C 41 %
909 31-08-2020 07:24:17 13.7 C 40 %
910 31-08-2020 07:34:18 13.7 C 40 %
911 31-08-2020 07:44:18 14 C 39 %
912 31-08-2020 07:54:18 14.3 C 38 %
913 31-08-2020 08:04:18 14.3 C 38 %
914 31-08-2020 08:14:18 14.7 C 38 %
915 31-08-2020 08:24:17 15.2 C 37 %
916 31-08-2020 08:34:17 15.7 C 36 %
917 31-08-2020 08:44:18 15.8 C 36 %
918 31-08-2020 08:54:17 15.7 C 36 %
919 31-08-2020 09:04:18 16.2 C 35 %
920 31-08-2020 09:14:18 16.2 C 35 %
921 31-08-2020 09:24:17 16.3 C 35 %
922 31-08-2020 09:34:17 16.4 C 35 %
923 31-08-2020 09:44:18 16.8 C 35 %
924 31-08-2020 09:54:18 17.2 C 34 %
925 31-08-2020 10:04:17 17.2 C 34 %
Sensor: Nr:Datum:Temp:Feuchte:
Aussen-T/F 926 31-08-2020 10:14:17 17.2 C 34 %
927 31-08-2020 10:24:17 17.4 C 34 %
928 31-08-2020 10:34:17 17.4 C 34 %
929 31-08-2020 10:44:17 17.8 C 34 %
930 31-08-2020 10:54:18 18.1 C 33 %
931 31-08-2020 11:04:18 18.2 C 32 %
932 31-08-2020 11:14:18 18.5 C 32 %
933 31-08-2020 11:24:17 19.2 C 31 %
934 31-08-2020 11:34:18 20 C 30 %
935 31-08-2020 11:44:18 20.4 C 30 %
936 31-08-2020 11:54:17 21 C 28 %
937 31-08-2020 12:04:18 21.3 C 29 %
938 31-08-2020 12:14:18 21 C 29 %
939 31-08-2020 12:24:17 20.3 C 30 %
940 31-08-2020 12:34:17 21.6 C 28 %
941 31-08-2020 12:44:17 20.7 C 30 %
942 31-08-2020 12:54:17 21 C 28 %
943 31-08-2020 13:04:17 21.8 C 29 %
944 31-08-2020 13:14:17 21.3 C 29 %
945 31-08-2020 13:24:17 21.2 C 29 %
946 31-08-2020 13:34:18 21 C 28 %
947 31-08-2020 13:44:18 20.4 C 30 %
948 31-08-2020 13:54:18 20.8 C 30 %
949 31-08-2020 14:04:18 20.6 C 30 %
950 31-08-2020 14:14:18 19.3 C 30 %
Sensor: Nr:Datum:Temp:Feuchte:
Aussen-T/F 951 31-08-2020 14:24:17 17.2 C 36 %
952 31-08-2020 14:34:17 16.6 C 40 %
953 31-08-2020 14:44:17 16.3 C 41 %
954 31-08-2020 14:54:17 16.1 C 42 %
955 31-08-2020 15:04:18 15.5 C 41 %
956 31-08-2020 15:14:18 15.6 C 42 %
957 31-08-2020 15:24:17 16 C 40 %
958 31-08-2020 15:34:18 16.4 C 40 %
959 31-08-2020 15:44:18 16.5 C 39 %
960 31-08-2020 15:54:17 16.6 C 40 %
961 31-08-2020 16:04:18 16.7 C 39 %
962 31-08-2020 16:14:18 16.9 C 39 %
963 31-08-2020 16:24:17 17.7 C 38 %
964 31-08-2020 16:34:18 17.5 C 37 %
965 31-08-2020 16:44:18 17.4 C 37 %
966 31-08-2020 16:54:17 17 C 38 %
967 31-08-2020 17:04:17 16.6 C 40 %
968 31-08-2020 17:14:17 16.1 C 40 %
969 31-08-2020 17:24:17 16 C 41 %
970 31-08-2020 17:34:17 15.9 C 42 %
971 31-08-2020 17:44:17 16 C 42 %
972 31-08-2020 17:54:17 15.9 C 42 %
973 31-08-2020 18:04:17 15.9 C 43 %
974 31-08-2020 18:14:18 15.8 C 42 %
975 31-08-2020 18:24:17 16 C 41 %
Sensor: Nr:Datum:Temp:Feuchte:
Aussen-T/F 976 31-08-2020 18:34:17 16.1 C 40 %
977 31-08-2020 18:44:17 15.9 C 40 %
978 31-08-2020 18:54:17 15.7 C 42 %
979 31-08-2020 19:04:18 15.6 C 43 %
980 31-08-2020 19:14:18 15.1 C 43 %
981 31-08-2020 19:24:17 14.8 C 43 %
982 31-08-2020 19:34:17 14.8 C 43 %
983 31-08-2020 19:44:17 14.8 C 43 %
984 31-08-2020 19:54:17 14.7 C 43 %
985 31-08-2020 20:04:18 14.7 C 43 %
986 31-08-2020 20:14:18 14.5 C 43 %
987 31-08-2020 20:24:17 14.5 C 43 %
988 31-08-2020 20:34:18 14.4 C 43 %
989 31-08-2020 20:44:18 14.4 C 42 %
990 31-08-2020 20:54:18 14.4 C 42 %
991 31-08-2020 21:04:18 14.3 C 42 %
992 31-08-2020 21:14:18 14.2 C 42 %
993 31-08-2020 21:24:18 14.2 C 42 %
994 31-08-2020 21:34:17 14.2 C 42 %
995 31-08-2020 21:44:17 14.2 C 42 %
996 31-08-2020 21:54:17 14.2 C 42 %
997 31-08-2020 22:04:17 14.2 C 42 %
998 31-08-2020 22:14:17 14.2 C 42 %
999 31-08-2020 22:24:17 14.2 C 42 %
1000 31-08-2020 22:34:17 14.2 C 42 %
Sensor: Nr:Datum:Temp:Feuchte:
Aussen-T/F 1001 31-08-2020 22:44:17 14.1 C 42 %
1002 31-08-2020 22:54:18 14.2 C 42 %
1003 31-08-2020 23:04:17 14.3 C 42 %
1004 31-08-2020 23:14:17 14.2 C 42 %
1005 31-08-2020 23:24:17 14.1 C 42 %
1006 31-08-2020 23:34:17 14 C 42 %
1007 31-08-2020 23:44:17 13.9 C 42 %
1008 31-08-2020 23:54:18 13.9 C 42 %
1009 01-09-2020 00:04:17 13.8 C 42 %
1010 01-09-2020 00:14:17 13.8 C 42 %
1011 01-09-2020 00:24:17 13.8 C 42 %
1012 01-09-2020 00:34:17 13.8 C 42 %
1013 01-09-2020 00:44:18 13.8 C 42 %
1014 01-09-2020 00:54:17 13.8 C 42 %
1015 01-09-2020 01:04:17 13.8 C 42 %
1016 01-09-2020 01:14:17 13.8 C 42 %
1017 01-09-2020 01:24:18 13.7 C 41 %
1018 01-09-2020 01:34:17 13.7 C 41 %
1019 01-09-2020 01:44:18 13.8 C 41 %
1020 01-09-2020 01:54:17 13.6 C 41 %
1021 01-09-2020 02:04:18 13.5 C 41 %
1022 01-09-2020 02:14:18 13.5 C 41 %
1023 01-09-2020 02:24:17 13.4 C 41 %
1024 01-09-2020 02:34:17 13.2 C 41 %
1025 01-09-2020 02:44:17 12.8 C 42 %
Sensor: Nr:Datum:Temp:Feuchte:
Aussen-T/F 1026 01-09-2020 02:54:17 12.6 C 42 %
1027 01-09-2020 03:04:18 12.9 C 42 %
1028 01-09-2020 03:14:18 12.9 C 42 %
1029 01-09-2020 03:24:17 13.1 C 41 %
1030 01-09-2020 03:34:18 13 C 41 %
1031 01-09-2020 03:44:18 12.9 C 42 %
1032 01-09-2020 03:54:17 12.7 C 42 %
1033 01-09-2020 04:04:18 12.8 C 42 %
1034 01-09-2020 04:14:18 12.8 C 42 %
1035 01-09-2020 04:24:17 12.7 C 42 %
1036 01-09-2020 04:34:17 12.6 C 42 %
1037 01-09-2020 04:44:17 12.5 C 42 %
1038 01-09-2020 04:54:18 12.5 C 42 %
1039 01-09-2020 05:04:17 12.5 C 42 %
1040 01-09-2020 05:14:17 12.4 C 42 %
1041 01-09-2020 05:24:17 12.2 C 42 %
1042 01-09-2020 05:34:17 12.1 C 42 %
1043 01-09-2020 05:44:17 12 C 42 %
1044 01-09-2020 05:54:17 12 C 42 %
1045 01-09-2020 06:04:17 11.9 C 42 %
1046 01-09-2020 06:14:17 11.8 C 42 %
1047 01-09-2020 06:24:17 11.8 C 42 %
1048 01-09-2020 06:34:17 11.8 C 42 %
1049 01-09-2020 06:44:17 11.9 C 42 %
1050 01-09-2020 06:54:18 12.1 C 42 %
Sensor: Nr:Datum:Temp:Feuchte:
Aussen-T/F 1051 01-09-2020 07:04:17 12.2 C 41 %
1052 01-09-2020 07:14:17 12.2 C 41 %
1053 01-09-2020 07:24:17 12.3 C 41 %
1054 01-09-2020 07:34:17 12.3 C 41 %
1055 01-09-2020 07:44:17 12 C 41 %
1056 01-09-2020 07:54:18 12.7 C 42 %
1057 01-09-2020 08:04:18 12.8 C 42 %
1058 01-09-2020 08:14:18 13.1 C 41 %
1059 01-09-2020 08:24:17 13.3 C 41 %
1060 01-09-2020 08:34:17 13.4 C 41 %
1061 01-09-2020 08:44:17 13.7 C 41 %
1062 01-09-2020 08:54:17 13.8 C 42 %
1063 01-09-2020 09:04:17 13.9 C 42 %
1064 01-09-2020 09:14:17 14.1 C 42 %
1065 01-09-2020 09:24:17 14.3 C 40 %
1066 01-09-2020 09:34:17 14.7 C 41 %
1067 01-09-2020 09:44:17 14.9 C 40 %
1068 01-09-2020 09:54:18 15.1 C 40 %
1069 01-09-2020 10:04:17 15.4 C 38 %
1070 01-09-2020 10:14:17 15.6 C 37 %
1071 01-09-2020 10:24:17 15.7 C 37 %
1072 01-09-2020 10:34:18 15.7 C 36 %
1073 01-09-2020 10:44:18 16.3 C 35 %
1074 01-09-2020 10:54:17 16.8 C 35 %
1075 01-09-2020 11:04:17 17.3 C 34 %
Sensor: Nr:Datum:Temp:Feuchte:
Aussen-T/F 1076 01-09-2020 11:14:17 17.6 C 33 %
1077 01-09-2020 11:24:17 18.1 C 33 %
1078 01-09-2020 11:34:17 18 C 32 %
1079 01-09-2020 11:44:17 18.8 C 32 %
1080 01-09-2020 11:54:17 18.1 C 31 %
1081 01-09-2020 12:04:17 18.1 C 31 %
1082 01-09-2020 12:14:18 18.1 C 32 %
1083 01-09-2020 12:24:17 19.1 C 31 %
1084 01-09-2020 12:34:17 19.4 C 30 %
1085 01-09-2020 12:44:17 19.4 C 31 %
1086 01-09-2020 12:54:17 19.8 C 30 %
1087 01-09-2020 13:04:17 19.6 C 30 %
1088 01-09-2020 13:14:17 19.2 C 30 %
1089 01-09-2020 13:24:17 20.6 C 29 %
1090 01-09-2020 13:34:17 21 C 27 %
1091 01-09-2020 13:44:17 21.3 C 26 %
1092 01-09-2020 13:54:17 21 C 25 %
1093 01-09-2020 14:04:17 21.3 C 25 %
1094 01-09-2020 14:14:17 20.8 C 25 %
1095 01-09-2020 14:24:17 20.7 C 26 %
1096 01-09-2020 14:34:17 22.7 C 24 %
1097 01-09-2020 14:44:17 23.5 C 22 %
1098 01-09-2020 14:54:17 22.4 C 21 %
1099 01-09-2020 15:04:18 22.9 C 21 %
1100 01-09-2020 15:14:18 22.8 C 21 %
Sensor: Nr:Datum:Temp:Feuchte:
Aussen-T/F 1101 01-09-2020 15:24:17 22.9 C 23 %
1102 01-09-2020 15:34:18 26 C 20 %
1103 01-09-2020 15:44:18 23.9 C 20 %
1104 01-09-2020 15:54:17 21.1 C 23 %
1105 01-09-2020 16:04:17 19.7 C 26 %
1106 01-09-2020 16:14:17 17.5 C 32 %
1107 01-09-2020 16:24:17 17 C 35 %
1108 01-09-2020 16:34:17 16.8 C 34 %
1109 01-09-2020 16:44:17 17.7 C 32 %
1110 01-09-2020 16:54:17 17.7 C 32 %
1111 01-09-2020 17:04:18 17.6 C 32 %
1112 01-09-2020 17:14:18 17.6 C 32 %
1113 01-09-2020 17:24:18 17.4 C 32 %
1114 01-09-2020 17:34:18 16.7 C 33 %
1115 01-09-2020 17:44:18 16.6 C 34 %
1116 01-09-2020 17:54:17 16.2 C 35 %
1117 01-09-2020 18:04:17 16 C 35 %
1118 01-09-2020 18:14:17 16.1 C 35 %
1119 01-09-2020 18:24:17 16.1 C 35 %
1120 01-09-2020 18:34:17 15.8 C 35 %
1121 01-09-2020 18:44:18 15.8 C 35 %
1122 01-09-2020 18:54:17 15.8 C 35 %
1123 01-09-2020 19:04:17 15.8 C 36 %
1124 01-09-2020 19:14:17 16.5 C 35 %
1125 01-09-2020 19:24:18 16.7 C 35 %
Sensor: Nr:Datum:Temp:Feuchte:
Aussen-T/F 1126 01-09-2020 19:34:17 16.6 C 35 %
1127 01-09-2020 19:44:17 16.2 C 35 %
1128 01-09-2020 19:54:17 15.5 C 36 %
1129 01-09-2020 20:04:17 14.5 C 38 %
1130 01-09-2020 20:14:17 14.5 C 38 %
1131 01-09-2020 20:24:17 14.5 C 37 %
1132 01-09-2020 20:34:18 14.4 C 38 %
1133 01-09-2020 20:44:18 14.1 C 37 %
1134 01-09-2020 20:54:18 14.1 C 38 %
1135 01-09-2020 21:04:18 14.2 C 37 %
1136 01-09-2020 21:14:18 14.2 C 38 %
1137 01-09-2020 21:24:18 14.1 C 37 %
1138 01-09-2020 21:34:17 14 C 38 %
1139 01-09-2020 21:44:17 14 C 38 %
1140 01-09-2020 21:54:17 13.9 C 40 %
1141 01-09-2020 22:04:17 13.8 C 40 %
1142 01-09-2020 22:14:17 13.4 C 40 %
1143 01-09-2020 22:24:18 13.1 C 40 %
1144 01-09-2020 22:34:17 12.8 C 41 %
1145 01-09-2020 22:44:17 12.8 C 42 %
1146 01-09-2020 22:54:17 13 C 41 %
1147 01-09-2020 23:04:17 13.2 C 41 %
1148 01-09-2020 23:14:17 13.1 C 41 %
1149 01-09-2020 23:24:17 13.1 C 41 %
1150 01-09-2020 23:34:17 13.1 C 41 %
Sensor: Nr:Datum:Temp:Feuchte:
Aussen-T/F 1151 01-09-2020 23:44:17 13.1 C 41 %
1152 01-09-2020 23:54:17 13.2 C 41 %
1153 02-09-2020 00:04:18 13.2 C 41 %
1154 02-09-2020 00:14:18 13.1 C 41 %
1155 02-09-2020 00:24:17 13.2 C 41 %
1156 02-09-2020 00:34:18 13 C 41 %
1157 02-09-2020 00:44:18 13.1 C 41 %
1158 02-09-2020 00:54:17 13.1 C 41 %
1159 02-09-2020 01:04:18 13.2 C 41 %
1160 02-09-2020 01:14:18 13.1 C 41 %
1161 02-09-2020 01:24:17 13.1 C 41 %
1162 02-09-2020 01:34:18 13.1 C 41 %
1163 02-09-2020 01:44:18 13 C 41 %
1164 02-09-2020 01:54:17 12.9 C 42 %
1165 02-09-2020 02:04:18 12.8 C 42 %
1166 02-09-2020 02:14:18 12.6 C 42 %
1167 02-09-2020 02:24:17 12.3 C 43 %
1168 02-09-2020 02:34:17 12.2 C 43 %
1169 02-09-2020 02:44:17 12.4 C 43 %
1170 02-09-2020 02:54:17 12.9 C 41 %
1171 02-09-2020 03:04:18 12.9 C 41 %
1172 02-09-2020 03:14:18 13 C 40 %
1173 02-09-2020 03:24:17 12.8 C 42 %
1174 02-09-2020 03:34:17 12.8 C 42 %
1175 02-09-2020 03:44:17 12.9 C 41 %
Sensor: Nr:Datum:Temp:Feuchte:
Aussen-T/F 1176 02-09-2020 03:54:17 12.8 C 42 %
1177 02-09-2020 04:04:17 12.5 C 42 %
1178 02-09-2020 04:14:17 12.3 C 43 %
1179 02-09-2020 04:24:17 12.3 C 44 %
1180 02-09-2020 04:34:18 12.2 C 44 %
1181 02-09-2020 04:44:18 12.3 C 44 %
1182 02-09-2020 04:54:17 12.2 C 44 %
1183 02-09-2020 05:04:17 12.1 C 44 %
1184 02-09-2020 05:14:17 12.2 C 44 %
1185 02-09-2020 05:24:17 12.1 C 44 %
1186 02-09-2020 05:34:17 12.2 C 44 %
1187 02-09-2020 05:44:17 12.2 C 44 %
1188 02-09-2020 05:54:17 12.3 C 44 %
1189 02-09-2020 06:14:17 12.2 C 43 %
1190 02-09-2020 06:14:18 12.1 C 44 %
1191 02-09-2020 06:24:18 12 C 44 %
1192 02-09-2020 06:44:17 11.7 C 44 %
1193 02-09-2020 06:44:17 11.6 C 45 %
1194 02-09-2020 06:54:17 11.2 C 45 %
1195 02-09-2020 07:04:18 11.2 C 45 %
1196 02-09-2020 07:14:18 11.3 C 44 %
1197 02-09-2020 07:24:18 11.1 C 44 %
1198 02-09-2020 07:34:18 11 C 45 %
1199 02-09-2020 07:44:18 11 C 45 %
1200 02-09-2020 07:54:17 11.2 C 44 %
Sensor: Nr:Datum:Temp:Feuchte:
Aussen-T/F 1201 02-09-2020 08:04:18 11.1 C 44 %
1202 02-09-2020 08:14:18 11.1 C 44 %
1203 02-09-2020 08:25:17 11.1 C 44 %
1204 02-09-2020 08:34:17 11.2 C 45 %
1205 02-09-2020 08:44:17 11.5 C 45 %
1206 02-09-2020 08:54:17 12.2 C 43 %
1207 02-09-2020 09:04:17 12.8 C 42 %
1208 02-09-2020 09:14:17 13 C 40 %
1209 02-09-2020 09:24:17 13.5 C 40 %
1210 02-09-2020 09:34:17 14.1 C 36 %
1211 02-09-2020 09:44:17 14.6 C 36 %
1212 02-09-2020 09:54:17 15 C 36 %
1213 02-09-2020 10:04:18 15.2 C 35 %
1214 02-09-2020 10:14:18 15.1 C 35 %
1215 02-09-2020 10:24:17 15.2 C 35 %
1216 02-09-2020 10:34:18 15.4 C 35 %
1217 02-09-2020 10:44:18 15.8 C 34 %
1218 02-09-2020 10:54:17 16.2 C 33 %
1219 02-09-2020 11:04:18 17.1 C 32 %
1220 02-09-2020 11:14:18 17.4 C 32 %
1221 02-09-2020 11:24:17 18 C 30 %
1222 02-09-2020 11:35:17 18 C 30 %
1223 02-09-2020 11:45:17 17.7 C 31 %
1224 02-09-2020 11:55:17 18.1 C 30 %
1225 02-09-2020 12:04:18 18 C 30 %
Sensor: Nr:Datum:Temp:Feuchte:
Aussen-T/F 1226 02-09-2020 12:14:18 17 C 32 %
1227 02-09-2020 12:25:17 16.5 C 34 %
1228 02-09-2020 12:34:18 16.6 C 34 %
1229 02-09-2020 12:44:18 17.6 C 31 %
1230 02-09-2020 12:55:17 18.6 C 30 %
1231 02-09-2020 13:04:18 18.8 C 28 %
1232 02-09-2020 13:14:18 19 C 27 %
1233 02-09-2020 13:24:18 19.1 C 26 %
1234 02-09-2020 13:35:17 19.1 C 27 %
1235 02-09-2020 13:45:17 18.3 C 30 %
1236 02-09-2020 13:55:17 18.9 C 27 %
1237 02-09-2020 14:05:17 19.8 C 26 %
1238 02-09-2020 14:15:17 19.8 C 26 %
1239 02-09-2020 14:25:17 20.6 C 25 %
1240 02-09-2020 14:34:18 26 C 20 %
1241 02-09-2020 14:44:18 29.2 C 20 %
1242 02-09-2020 14:55:17 26.5 C 20 %
1243 02-09-2020 15:05:18 27 C 20 %
1244 02-09-2020 15:15:18 27.5 C 20 %
1245 02-09-2020 15:24:18 28.8 C 20 %
1246 02-09-2020 15:34:18 28 C 20 %
1247 02-09-2020 15:44:18 27 C 20 %
1248 02-09-2020 15:55:17 29.6 C 20 %
1249 02-09-2020 16:05:18 26.5 C 20 %
1250 02-09-2020 16:15:17 28.5 C 20 %
Sensor: Nr:Datum:Temp:Feuchte:
Aussen-T/F 1251 02-09-2020 16:25:17 27.1 C 20 %
1252 02-09-2020 16:44:18 23.8 C 20 %
1253 02-09-2020 16:45:18 27.6 C 20 %
1254 02-09-2020 16:55:18 29.7 C 20 %
1255 02-09-2020 17:05:17 23.6 C 20 %
1256 02-09-2020 17:15:17 26.8 C 20 %
1257 02-09-2020 17:25:17 28.3 C 20 %
1258 02-09-2020 17:35:18 26.5 C 20 %
1259 02-09-2020 17:45:17 22.8 C 20 %
1260 02-09-2020 17:55:17 20.3 C 24 %
1261 02-09-2020 18:05:18 19.5 C 26 %
1262 02-09-2020 18:15:17 19.7 C 26 %
1263 02-09-2020 18:25:17 19.6 C 27 %
1264 02-09-2020 18:35:17 19.9 C 27 %
1265 02-09-2020 18:45:17 19.7 C 27 %
1266 02-09-2020 18:55:17 19.4 C 27 %
1267 02-09-2020 19:05:17 19.2 C 26 %
1268 02-09-2020 19:15:17 18.7 C 28 %
1269 02-09-2020 19:25:17 18.3 C 27 %
1270 02-09-2020 19:35:17 17.5 C 28 %
1271 02-09-2020 19:45:17 17.3 C 28 %
1272 02-09-2020 19:55:17 17.2 C 28 %
1273 02-09-2020 20:05:17 16.7 C 28 %
1274 02-09-2020 20:15:17 16.6 C 28 %
1275 02-09-2020 20:25:17 16.3 C 28 %
Sensor: Nr:Datum:Temp:Feuchte:
Aussen-T/F 1276 02-09-2020 20:35:17 15.9 C 29 %
1277 02-09-2020 20:45:17 15.8 C 30 %
1278 02-09-2020 20:55:17 15.5 C 30 %
1279 02-09-2020 21:05:18 15.5 C 30 %
1280 02-09-2020 21:15:18 14.5 C 32 %
1281 02-09-2020 21:25:18 13.8 C 34 %
1282 02-09-2020 21:35:17 14.2 C 33 %
1283 02-09-2020 21:45:17 14.2 C 33 %
1284 02-09-2020 21:55:17 14.2 C 35 %
1285 02-09-2020 22:05:17 14.1 C 35 %
1286 02-09-2020 22:15:17 14.3 C 35 %
1287 02-09-2020 22:25:17 14.4 C 35 %
1288 02-09-2020 22:35:18 14.2 C 35 %
1289 02-09-2020 22:45:18 13.8 C 36 %
1290 02-09-2020 22:55:18 13.7 C 36 %
1291 02-09-2020 23:05:18 13.7 C 36 %
1292 02-09-2020 23:15:17 13.6 C 36 %
1293 02-09-2020 23:25:17 13.2 C 35 %
1294 02-09-2020 23:35:17 13 C 35 %
1295 02-09-2020 23:45:18 12.8 C 36 %
1296 02-09-2020 23:55:18 12.4 C 36 %
1297 03-09-2020 00:05:18 12.3 C 37 %
1298 03-09-2020 00:15:18 11.8 C 38 %
1299 03-09-2020 00:25:18 11.5 C 39 %
1300 03-09-2020 00:35:17 11.5 C 39 %
Sensor: Nr:Datum:Temp:Feuchte:
Aussen-T/F 1301 03-09-2020 00:45:17 11.4 C 39 %
1302 03-09-2020 00:55:17 11.3 C 39 %
1303 03-09-2020 01:05:17 11.2 C 39 %
1304 03-09-2020 01:15:18 11.3 C 39 %
1305 03-09-2020 01:25:18 10.9 C 40 %
1306 03-09-2020 01:35:17 10.6 C 41 %
1307 03-09-2020 01:45:17 10.4 C 41 %
1308 03-09-2020 01:55:17 10.4 C 41 %
1309 03-09-2020 02:05:18 10.1 C 41 %
1310 03-09-2020 02:15:18 9.9 C 42 %
1311 03-09-2020 02:25:18 10 C 42 %
1312 03-09-2020 02:35:18 9.7 C 43 %
1313 03-09-2020 02:45:17 10.1 C 43 %
1314 03-09-2020 02:55:17 9.9 C 44 %
1315 03-09-2020 03:05:17 10.1 C 43 %
1316 03-09-2020 03:15:17 9.9 C 42 %
1317 03-09-2020 03:25:17 9.7 C 43 %
1318 03-09-2020 03:35:18 10 C 42 %
1319 03-09-2020 03:45:17 10.2 C 42 %
1320 03-09-2020 03:55:17 9.8 C 43 %
1321 03-09-2020 04:05:17 9.7 C 44 %
1322 03-09-2020 04:15:17 9.7 C 44 %
1323 03-09-2020 04:25:17 9.8 C 45 %
1324 03-09-2020 04:35:17 9.9 C 44 %
1325 03-09-2020 04:45:17 9.7 C 44 %
Sensor: Nr:Datum:Temp:Feuchte:
Aussen-T/F 1326 03-09-2020 04:55:17 9.6 C 45 %
1327 03-09-2020 05:05:18 9.5 C 43 %
1328 03-09-2020 05:15:17 9.5 C 44 %
1329 03-09-2020 05:25:17 9.7 C 44 %
1330 03-09-2020 05:35:17 9.8 C 44 %
1331 03-09-2020 05:45:17 9.9 C 44 %
1332 03-09-2020 05:55:17 9.9 C 44 %
1333 03-09-2020 06:05:17 10.1 C 43 %
1334 03-09-2020 06:15:17 10 C 43 %
1335 03-09-2020 06:25:17 9.9 C 44 %
1336 03-09-2020 06:35:17 10 C 43 %
1337 03-09-2020 06:45:18 10 C 43 %
1338 03-09-2020 06:55:18 10.2 C 43 %
1339 03-09-2020 07:05:18 10.3 C 43 %
1340 03-09-2020 07:15:18 10.4 C 42 %
1341 03-09-2020 07:25:18 10.5 C 43 %
1342 03-09-2020 07:35:18 10.6 C 42 %
1343 03-09-2020 07:45:17 10.7 C 42 %
1344 03-09-2020 07:55:17 11.1 C 40 %
1345 03-09-2020 08:05:17 11.2 C 40 %
1346 03-09-2020 08:15:17 11.5 C 39 %
1347 03-09-2020 08:25:17 12.1 C 38 %
1348 03-09-2020 08:35:17 12.3 C 37 %
1349 03-09-2020 08:45:18 12.4 C 37 %
1350 03-09-2020 08:55:18 12.4 C 37 %
Sensor: Nr:Datum:Temp:Feuchte:
Aussen-T/F 1351 03-09-2020 09:05:17 12.6 C 37 %
1352 03-09-2020 09:15:17 13.3 C 36 %
1353 03-09-2020 09:25:17 13.7 C 36 %
1354 03-09-2020 09:35:17 14 C 35 %
1355 03-09-2020 09:45:18 14.4 C 35 %
1356 03-09-2020 09:55:18 14.6 C 35 %
1357 03-09-2020 10:05:18 14.9 C 34 %
1358 03-09-2020 10:15:17 15.5 C 33 %
1359 03-09-2020 10:25:17 16.3 C 32 %
1360 03-09-2020 10:35:18 16.7 C 32 %
1361 03-09-2020 10:45:17 17 C 31 %
1362 03-09-2020 10:55:18 17.7 C 31 %
1363 03-09-2020 11:05:17 18.7 C 30 %
1364 03-09-2020 11:15:17 19.6 C 29 %
1365 03-09-2020 11:25:17 19.2 C 28 %
1366 03-09-2020 11:35:18 20 C 28 %
1367 03-09-2020 11:45:17 19.5 C 28 %
1368 03-09-2020 11:55:17 19.6 C 28 %
1369 03-09-2020 12:05:17 20.4 C 27 %
1370 03-09-2020 12:15:18 20.7 C 27 %
1371 03-09-2020 12:25:18 21.3 C 26 %
1372 03-09-2020 12:35:17 21.8 C 26 %
1373 03-09-2020 12:45:17 21.3 C 25 %
1374 03-09-2020 12:55:17 20.5 C 26 %
1375 03-09-2020 13:05:18 19.8 C 27 %
Sensor: Nr:Datum:Temp:Feuchte:
Aussen-T/F 1376 03-09-2020 13:15:17 20 C 26 %
1377 03-09-2020 13:25:17 18.8 C 28 %
1378 03-09-2020 13:35:17 17.6 C 31 %
1379 03-09-2020 13:45:17 17.1 C 33 %
1380 03-09-2020 13:55:17 17.1 C 34 %
1381 03-09-2020 14:05:17 17.5 C 32 %
1382 03-09-2020 14:15:18 17.5 C 32 %
1383 03-09-2020 14:25:18 17.4 C 32 %
1384 03-09-2020 14:35:17 17.9 C 32 %
1385 03-09-2020 14:45:18 18.2 C 31 %
1386 03-09-2020 14:55:18 18.1 C 31 %
1387 03-09-2020 15:05:17 17.8 C 32 %
1388 03-09-2020 15:15:17 17.2 C 34 %
1389 03-09-2020 15:25:17 17.3 C 34 %
1390 03-09-2020 15:35:18 18 C 32 %
1391 03-09-2020 15:45:17 18.3 C 31 %
1392 03-09-2020 15:55:17 16.3 C 35 %
1393 03-09-2020 16:05:18 15.6 C 37 %
1394 03-09-2020 16:15:17 15.7 C 40 %
1395 03-09-2020 16:25:17 15.8 C 40 %
1396 03-09-2020 16:35:18 15.8 C 40 %
1397 03-09-2020 16:45:18 15.5 C 41 %
1398 03-09-2020 16:55:18 15.6 C 40 %
1399 03-09-2020 17:05:18 15.8 C 41 %
1400 03-09-2020 17:15:17 15.5 C 39 %
Sensor: Nr:Datum:Temp:Feuchte:
Aussen-T/F 1401 03-09-2020 17:25:17 16 C 39 %
1402 03-09-2020 17:35:17 16.3 C 39 %
1403 03-09-2020 17:45:17 16.2 C 39 %
1404 03-09-2020 17:55:17 16.2 C 38 %
1405 03-09-2020 18:05:17 16.4 C 38 %
1406 03-09-2020 18:15:18 16.5 C 39 %
1407 03-09-2020 18:25:18 16.5 C 40 %
1408 03-09-2020 18:35:17 16.2 C 40 %
1409 03-09-2020 18:45:18 16.1 C 40 %
1410 03-09-2020 18:55:18 16.3 C 41 %
1411 03-09-2020 19:05:18 15.7 C 41 %
1412 03-09-2020 19:15:17 15.5 C 42 %
1413 03-09-2020 19:25:17 15.5 C 42 %
1414 03-09-2020 19:35:17 15.4 C 42 %
1415 03-09-2020 19:45:18 15.4 C 42 %
1416 03-09-2020 19:55:18 15.4 C 42 %
1417 03-09-2020 20:05:18 15.3 C 42 %
1418 03-09-2020 20:15:18 15.3 C 42 %
1419 03-09-2020 20:25:18 15.2 C 41 %
1420 03-09-2020 20:35:17 15.2 C 41 %
1421 03-09-2020 20:45:17 15.1 C 41 %
1422 03-09-2020 20:55:17 15.1 C 41 %
1423 03-09-2020 21:05:17 15.1 C 40 %
1424 03-09-2020 21:15:17 15.3 C 40 %
1425 03-09-2020 21:25:17 15.4 C 40 %
Sensor: Nr:Datum:Temp:Feuchte:
Aussen-T/F 1426 03-09-2020 21:35:18 15.5 C 40 %
1427 03-09-2020 21:45:17 15.6 C 39 %
1428 03-09-2020 21:55:17 15.6 C 40 %
1429 03-09-2020 22:05:17 15.8 C 39 %
1430 03-09-2020 22:15:18 16 C 38 %
1431 03-09-2020 22:25:18 15.8 C 40 %
1432 03-09-2020 22:35:18 15.8 C 40 %
1433 03-09-2020 22:45:18 15.9 C 40 %
1434 03-09-2020 22:55:18 15.7 C 40 %
1435 03-09-2020 23:05:17 15.6 C 40 %
1436 03-09-2020 23:15:17 15.7 C 40 %
1437 03-09-2020 23:25:17 15.7 C 40 %
1438 03-09-2020 23:35:17 15.7 C 40 %
1439 03-09-2020 23:45:17 15.9 C 40 %
1440 03-09-2020 23:55:17 15.7 C 40 %
1441 04-09-2020 00:05:17 15.7 C 40 %
1442 04-09-2020 00:15:17 15.6 C 41 %
1443 04-09-2020 00:25:18 15.6 C 41 %
1444 04-09-2020 00:35:17 15.8 C 40 %
1445 04-09-2020 00:45:17 15.9 C 41 %
1446 04-09-2020 00:55:17 15.8 C 40 %
1447 04-09-2020 01:05:18 15.7 C 41 %
1448 04-09-2020 01:15:18 15.5 C 41 %
1449 04-09-2020 01:25:18 15.6 C 40 %
1450 04-09-2020 01:35:17 15.9 C 40 %
Sensor: Nr:Datum:Temp:Feuchte:
Aussen-T/F 1451 04-09-2020 01:45:17 15.9 C 39 %
1452 04-09-2020 01:55:17 15.6 C 40 %
1453 04-09-2020 02:05:17 15.7 C 39 %
1454 04-09-2020 02:15:18 15.6 C 39 %
1455 04-09-2020 02:25:18 16 C 38 %
1456 04-09-2020 02:35:18 16.4 C 37 %
1457 04-09-2020 02:45:17 16.7 C 37 %
1458 04-09-2020 02:55:17 16.7 C 37 %
1459 04-09-2020 03:05:18 16.5 C 38 %
1460 04-09-2020 03:15:17 16.7 C 37 %
1461 04-09-2020 03:25:17 16.6 C 38 %
1462 04-09-2020 03:35:18 16.8 C 37 %
1463 04-09-2020 03:45:17 16.7 C 37 %
1464 04-09-2020 03:55:17 16.7 C 37 %
1465 04-09-2020 04:05:17 16.6 C 37 %
1466 04-09-2020 04:15:17 16.7 C 36 %
1467 04-09-2020 04:25:17 16.6 C 38 %
1468 04-09-2020 04:35:17 16.5 C 38 %
1469 04-09-2020 04:45:18 16.4 C 38 %
1470 04-09-2020 04:55:18 16.7 C 37 %
1471 04-09-2020 05:05:17 16.6 C 37 %
1472 04-09-2020 05:15:17 16.6 C 37 %
1473 04-09-2020 05:25:17 16.5 C 38 %
1474 04-09-2020 05:35:18 16.4 C 38 %
1475 04-09-2020 05:45:17 16.4 C 38 %
Sensor: Nr:Datum:Temp:Feuchte:
Aussen-T/F 1476 04-09-2020 05:55:18 16.3 C 39 %
1477 04-09-2020 06:05:18 16.5 C 37 %
1478 04-09-2020 06:15:18 16.9 C 36 %
1479 04-09-2020 06:25:18 16.8 C 37 %
1480 04-09-2020 06:35:17 16.8 C 36 %
1481 04-09-2020 06:45:17 16.7 C 37 %
1482 04-09-2020 06:55:17 16.6 C 37 %
1483 04-09-2020 07:05:17 16.8 C 36 %
1484 04-09-2020 07:15:18 16.8 C 37 %
1485 04-09-2020 07:25:18 16.7 C 37 %
1486 04-09-2020 07:35:18 16.7 C 37 %
1487 04-09-2020 07:45:18 16.8 C 37 %
1488 04-09-2020 07:55:18 16.8 C 37 %
1489 04-09-2020 08:05:18 17 C 37 %
1490 04-09-2020 08:15:17 17.2 C 36 %
1491 04-09-2020 08:25:17 17.4 C 36 %
1492 04-09-2020 08:35:17 17.7 C 35 %
1493 04-09-2020 08:45:18 17.9 C 35 %
1494 04-09-2020 08:55:18 18.2 C 34 %
1495 04-09-2020 09:05:17 18.7 C 34 %
1496 04-09-2020 09:15:17 19.2 C 32 %
1497 04-09-2020 09:25:17 19.3 C 32 %
1498 04-09-2020 09:35:18 19.2 C 33 %
1499 04-09-2020 09:45:17 19.2 C 33 %
1500 04-09-2020 09:55:17 19.2 C 32 %
Sensor: Nr:Datum:Temp:Feuchte:
Aussen-T/F 1501 04-09-2020 10:05:17 19.4 C 32 %
1502 04-09-2020 10:15:17 19.7 C 32 %
1503 04-09-2020 10:25:17 19.8 C 32 %
1504 04-09-2020 10:35:18 19.9 C 33 %
1505 04-09-2020 10:45:17 20.2 C 32 %
1506 04-09-2020 10:55:17 20.4 C 32 %
1507 04-09-2020 11:05:17 20.7 C 32 %
1508 04-09-2020 11:15:17 21.5 C 30 %
1509 04-09-2020 11:25:17 22.1 C 29 %
1510 04-09-2020 11:35:18 21.9 C 29 %
1511 04-09-2020 11:45:17 22.1 C 28 %
1512 04-09-2020 11:55:17 22.3 C 27 %
1513 04-09-2020 12:05:18 23 C 26 %
1514 04-09-2020 12:15:17 23.3 C 26 %
1515 04-09-2020 12:25:17 23.3 C 26 %
1516 04-09-2020 12:35:17 23.9 C 26 %
1517 04-09-2020 12:45:17 24.2 C 26 %
1518 04-09-2020 12:55:17 24.7 C 25 %
1519 04-09-2020 13:05:18 24.9 C 25 %
1520 04-09-2020 13:15:17 25.4 C 25 %
1521 04-09-2020 13:25:18 25.7 C 24 %
1522 04-09-2020 13:35:17 26.5 C 23 %
1523 04-09-2020 13:45:17 26.8 C 23 %
1524 04-09-2020 13:55:17 27 C 23 %
1525 04-09-2020 14:05:17 26.8 C 23 %
Sensor: Nr:Datum:Temp:Feuchte:
Aussen-T/F 1526 04-09-2020 14:15:17 26.8 C 23 %
1527 04-09-2020 14:25:17 26.9 C 23 %
1528 04-09-2020 14:35:17 27.6 C 22 %
1529 04-09-2020 14:45:18 28.4 C 21 %
1530 04-09-2020 14:55:18 27 C 22 %
1531 04-09-2020 15:05:18 26.4 C 22 %
1532 04-09-2020 15:15:17 26.4 C 22 %
1533 04-09-2020 15:25:17 26.8 C 22 %
1534 04-09-2020 15:35:17 27.4 C 22 %
1535 04-09-2020 15:45:17 27.2 C 22 %
1536 04-09-2020 15:55:17 27.4 C 22 %
1537 04-09-2020 16:05:17 27.9 C 21 %
1538 04-09-2020 16:15:17 28.2 C 21 %
1539 04-09-2020 16:25:17 27.4 C 21 %
1540 04-09-2020 16:35:17 28.4 C 21 %
1541 04-09-2020 16:45:17 29.6 C 21 %
1542 04-09-2020 16:55:17 29.6 C 20 %
1543 04-09-2020 17:05:17 33.2 C 20 %
1544 04-09-2020 17:15:17 31.4 C 20 %
1545 04-09-2020 17:25:17 32.4 C 20 %
1546 04-09-2020 17:35:17 28.4 C 20 %
1547 04-09-2020 17:45:17 27.2 C 22 %
1548 04-09-2020 17:55:17 26.3 C 24 %
1549 04-09-2020 18:05:18 25.7 C 24 %
1550 04-09-2020 18:15:17 25.5 C 24 %
Sensor: Nr:Datum:Temp:Feuchte:
Aussen-T/F 1551 04-09-2020 18:25:17 25.7 C 25 %
1552 04-09-2020 18:35:17 25.6 C 25 %
1553 04-09-2020 18:45:17 24.8 C 26 %
1554 04-09-2020 18:55:17 24.2 C 26 %
1555 04-09-2020 19:05:17 24 C 27 %
1556 04-09-2020 19:15:17 23.7 C 28 %
1557 04-09-2020 19:25:17 23.3 C 28 %
1558 04-09-2020 19:35:18 23.1 C 28 %
1559 04-09-2020 19:45:18 22.8 C 30 %
1560 04-09-2020 19:55:18 22.1 C 31 %
1561 04-09-2020 20:05:18 21.7 C 32 %
1562 04-09-2020 20:15:17 20.6 C 35 %
1563 04-09-2020 20:25:17 20.1 C 35 %
1564 04-09-2020 20:35:18 19.7 C 36 %
1565 04-09-2020 20:45:17 19.7 C 37 %
1566 04-09-2020 20:55:17 19.9 C 37 %
1567 04-09-2020 21:05:17 20 C 36 %
1568 04-09-2020 21:15:17 20.3 C 35 %
1569 04-09-2020 21:25:17 20.2 C 35 %
1570 04-09-2020 21:35:18 20 C 35 %
1571 04-09-2020 21:45:17 20 C 35 %
1572 04-09-2020 21:55:17 20 C 35 %
1573 04-09-2020 22:05:18 19.8 C 36 %
1574 04-09-2020 22:15:18 19.7 C 36 %
1575 04-09-2020 22:25:18 19.1 C 37 %
Sensor: Nr:Datum:Temp:Feuchte:
Aussen-T/F 1576 04-09-2020 22:35:18 18.5 C 38 %
1577 04-09-2020 22:45:18 18.6 C 38 %
1578 04-09-2020 22:55:18 18.7 C 38 %
1579 04-09-2020 23:05:17 19 C 37 %
1580 04-09-2020 23:15:18 18.9 C 38 %
1581 04-09-2020 23:25:18 18.8 C 38 %
1582 04-09-2020 23:35:18 18.7 C 38 %
1583 04-09-2020 23:45:17 18.5 C 38 %
1584 04-09-2020 23:55:18 18.2 C 39 %
1585 05-09-2020 00:05:18 17.7 C 40 %
1586 05-09-2020 00:15:17 17.3 C 40 %
1587 05-09-2020 00:25:17 17.4 C 40 %
1588 05-09-2020 00:35:17 17.2 C 40 %
1589 05-09-2020 00:45:17 16.9 C 41 %
1590 05-09-2020 00:55:17 16.8 C 41 %
1591 05-09-2020 01:05:17 16.5 C 41 %
1592 05-09-2020 01:15:17 16.4 C 42 %
1593 05-09-2020 01:25:17 15.8 C 42 %
1594 05-09-2020 01:35:17 15.6 C 42 %
1595 05-09-2020 01:45:17 15.4 C 42 %
1596 05-09-2020 01:55:17 15.6 C 42 %
1597 05-09-2020 02:05:17 15.3 C 42 %
1598 05-09-2020 02:15:17 15.3 C 42 %
1599 05-09-2020 02:25:17 15.4 C 42 %
1600 05-09-2020 02:35:18 15.6 C 42 %
Sensor: Nr:Datum:Temp:Feuchte:
Aussen-T/F 1601 05-09-2020 02:45:17 15.6 C 42 %
1602 05-09-2020 02:55:17 15.5 C 42 %
1603 05-09-2020 03:05:18 15.7 C 42 %
1604 05-09-2020 03:15:17 15.7 C 42 %
1605 05-09-2020 03:25:17 15.8 C 42 %
1606 05-09-2020 03:35:17 16.1 C 41 %
1607 05-09-2020 03:45:17 16.3 C 41 %
1608 05-09-2020 03:55:17 16.2 C 41 %
1609 05-09-2020 04:05:18 16.4 C 41 %
1610 05-09-2020 04:15:18 16.6 C 41 %
1611 05-09-2020 04:25:18 16.6 C 41 %
1612 05-09-2020 04:35:18 16.6 C 41 %
1613 05-09-2020 04:45:17 16.7 C 41 %
1614 05-09-2020 04:55:17 16.8 C 41 %
1615 05-09-2020 05:05:18 16.8 C 41 %
1616 05-09-2020 05:15:17 16.9 C 41 %
1617 05-09-2020 05:25:17 16.8 C 41 %
1618 05-09-2020 05:35:17 16.8 C 41 %
1619 05-09-2020 05:45:17 16.8 C 41 %
1620 05-09-2020 05:55:18 16.9 C 42 %
1621 05-09-2020 06:05:17 16.8 C 41 %
1622 05-09-2020 06:15:17 16.9 C 40 %
1623 05-09-2020 06:25:17 16.8 C 37 %
1624 05-09-2020 06:35:18 16.6 C 35 %
1625 05-09-2020 06:45:18 16.4 C 34 %
Sensor: Nr:Datum:Temp:Feuchte:
Aussen-T/F 1626 05-09-2020 06:55:18 16.2 C 34 %
1627 05-09-2020 07:05:17 16 C 34 %
1628 05-09-2020 07:15:17 15.9 C 35 %
1629 05-09-2020 07:25:18 15.8 C 35 %
1630 05-09-2020 07:35:18 15.7 C 35 %
1631 05-09-2020 07:45:17 15.6 C 35 %
1632 05-09-2020 07:55:17 15.5 C 35 %
1633 05-09-2020 08:05:17 15.6 C 35 %
1634 05-09-2020 08:15:17 15.5 C 35 %
1635 05-09-2020 08:25:17 15.5 C 35 %
1636 05-09-2020 08:35:18 15.4 C 35 %
1637 05-09-2020 08:45:18 15.5 C 35 %
1638 05-09-2020 08:55:18 16 C 35 %
1639 05-09-2020 09:05:18 16.7 C 34 %
1640 05-09-2020 09:15:17 17 C 33 %
1641 05-09-2020 09:25:17 16.5 C 33 %
1642 05-09-2020 09:35:18 16 C 34 %
1643 05-09-2020 09:45:17 16.8 C 34 %
1644 05-09-2020 09:55:17 16.4 C 33 %
1645 05-09-2020 10:05:17 16.3 C 34 %
1646 05-09-2020 10:15:17 16.5 C 34 %
1647 05-09-2020 10:25:17 17.5 C 32 %
1648 05-09-2020 10:35:17 18 C 31 %
1649 05-09-2020 10:45:17 17.2 C 33 %
1650 05-09-2020 10:55:17 17.4 C 32 %
Sensor: Nr:Datum:Temp:Feuchte:
Aussen-T/F 1651 05-09-2020 11:05:17 18.3 C 31 %
1652 05-09-2020 11:15:17 18.8 C 31 %
1653 05-09-2020 11:25:17 18.9 C 31 %
1654 05-09-2020 11:35:17 19.5 C 30 %
1655 05-09-2020 11:45:17 18.9 C 30 %
1656 05-09-2020 11:55:17 18.7 C 30 %
1657 05-09-2020 12:05:17 18.8 C 30 %
1658 05-09-2020 12:15:17 19.2 C 30 %
1659 05-09-2020 12:25:18 18.8 C 30 %
1660 05-09-2020 12:35:18 19.7 C 29 %
1661 05-09-2020 12:45:17 19 C 29 %
1662 05-09-2020 12:55:17 19.3 C 30 %
1663 05-09-2020 13:05:17 19.6 C 29 %
1664 05-09-2020 13:15:17 19.8 C 29 %
1665 05-09-2020 13:25:17 19.8 C 29 %
1666 05-09-2020 13:35:17 19.7 C 29 %
1667 05-09-2020 13:45:17 19.2 C 29 %
1668 05-09-2020 13:55:17 20 C 28 %
1669 05-09-2020 14:05:18 19.8 C 28 %
1670 05-09-2020 14:15:17 20 C 27 %
1671 05-09-2020 14:25:18 20.4 C 27 %
1672 05-09-2020 14:35:18 19.4 C 28 %
1673 05-09-2020 14:45:17 19.3 C 29 %
1674 05-09-2020 14:55:17 18.7 C 30 %
1675 05-09-2020 15:05:17 17.9 C 30 %
Sensor: Nr:Datum:Temp:Feuchte:
Aussen-T/F 1676 05-09-2020 15:15:17 18.1 C 30 %
1677 05-09-2020 15:25:17 18 C 30 %
1678 05-09-2020 15:35:17 19 C 29 %
1679 05-09-2020 15:45:17 21.6 C 26 %
1680 05-09-2020 15:55:17 19.3 C 27 %
1681 05-09-2020 16:05:17 19.1 C 27 %
1682 05-09-2020 16:15:18 19.4 C 27 %
1683 05-09-2020 16:25:18 20.5 C 26 %
1684 05-09-2020 16:35:18 21.1 C 25 %
1685 05-09-2020 16:45:17 20 C 26 %
1686 05-09-2020 16:55:17 20 C 26 %
1687 05-09-2020 17:05:17 20.4 C 26 %
1688 05-09-2020 17:15:17 20.8 C 25 %
1689 05-09-2020 17:25:17 21.1 C 25 %
1690 05-09-2020 17:35:17 20.5 C 25 %
1691 05-09-2020 17:45:17 21.3 C 23 %
1692 05-09-2020 17:55:17 20 C 25 %
1693 05-09-2020 18:05:18 19.8 C 25 %
1694 05-09-2020 18:15:17 20 C 25 %
1695 05-09-2020 18:25:17 20.2 C 24 %
1696 05-09-2020 18:35:17 19.8 C 24 %
1697 05-09-2020 18:45:17 19.5 C 23 %
1698 05-09-2020 18:55:17 18.6 C 25 %
1699 05-09-2020 19:05:17 18.7 C 24 %
1700 05-09-2020 19:15:17 18.9 C 26 %
Sensor: Nr:Datum:Temp:Feuchte:
Aussen-T/F 1701 05-09-2020 19:25:17 18.6 C 25 %
1702 05-09-2020 19:35:17 18 C 26 %
1703 05-09-2020 19:45:17 16.5 C 26 %
1704 05-09-2020 19:55:17 16.5 C 27 %
1705 05-09-2020 20:05:17 16.6 C 26 %
1706 05-09-2020 20:15:18 16.8 C 26 %
1707 05-09-2020 20:25:18 16.3 C 27 %
1708 05-09-2020 20:35:17 15.6 C 30 %
1709 05-09-2020 20:45:17 14.8 C 31 %
1710 05-09-2020 20:55:17 14.8 C 31 %
1711 05-09-2020 21:05:17 14.4 C 32 %
1712 05-09-2020 21:15:18 14.2 C 32 %
1713 05-09-2020 21:25:18 14 C 32 %
1714 05-09-2020 21:35:18 14 C 32 %
1715 05-09-2020 21:45:17 13.6 C 33 %
1716 05-09-2020 21:55:17 13.8 C 33 %
1717 05-09-2020 22:05:17 13.8 C 33 %
1718 05-09-2020 22:15:17 14.1 C 32 %
1719 05-09-2020 22:25:17 13.9 C 33 %
1720 05-09-2020 22:35:18 14.1 C 32 %
1721 05-09-2020 22:45:18 13.7 C 33 %
1722 05-09-2020 22:55:18 13.3 C 34 %
1723 05-09-2020 23:05:17 13.2 C 34 %
1724 05-09-2020 23:15:17 13.1 C 34 %
1725 05-09-2020 23:25:17 13 C 35 %
Sensor: Nr:Datum:Temp:Feuchte:
Aussen-T/F 1726 05-09-2020 23:35:18 13 C 35 %
1727 05-09-2020 23:45:17 12.9 C 35 %
1728 05-09-2020 23:55:17 13 C 35 %
1729 06-09-2020 00:05:17 12.9 C 35 %
1730 06-09-2020 00:15:18 12.7 C 35 %
1731 06-09-2020 00:25:18 12.2 C 36 %
1732 06-09-2020 00:35:18 11.9 C 38 %
1733 06-09-2020 00:45:17 11.8 C 38 %
1734 06-09-2020 00:55:17 11.7 C 39 %
1735 06-09-2020 01:05:17 11.5 C 39 %
1736 06-09-2020 01:15:18 11.6 C 39 %
1737 06-09-2020 01:25:18 11.5 C 39 %
1738 06-09-2020 01:35:18 11.1 C 40 %
1739 06-09-2020 01:45:17 10.8 C 41 %
1740 06-09-2020 01:55:17 10.6 C 40 %
1741 06-09-2020 02:05:18 10.4 C 40 %
1742 06-09-2020 02:15:18 10.2 C 41 %
1743 06-09-2020 02:25:18 10.1 C 41 %
1744 06-09-2020 02:35:17 10 C 41 %
1745 06-09-2020 02:45:18 9.9 C 41 %
1746 06-09-2020 02:55:18 9.6 C 42 %
1747 06-09-2020 03:05:18 9.3 C 43 %
1748 06-09-2020 03:15:17 9.3 C 43 %
1749 06-09-2020 03:25:17 9.2 C 44 %
1750 06-09-2020 03:35:17 8.7 C 44 %
Sensor: Nr:Datum:Temp:Feuchte:
Aussen-T/F 1751 06-09-2020 03:45:17 8.7 C 45 %
1752 06-09-2020 03:55:17 8.5 C 45 %
1753 06-09-2020 04:05:18 8.9 C 46 %
1754 06-09-2020 04:15:18 8.7 C 45 %
1755 06-09-2020 04:25:18 8.6 C 45 %
1756 06-09-2020 04:35:18 8.4 C 45 %
1757 06-09-2020 04:45:17 8.5 C 45 %
1758 06-09-2020 04:55:17 8.5 C 45 %
1759 06-09-2020 05:05:18 8.4 C 45 %
1760 06-09-2020 05:15:17 8.2 C 45 %
1761 06-09-2020 05:25:17 8.4 C 45 %
1762 06-09-2020 05:35:17 8.3 C 46 %
1763 06-09-2020 05:45:17 7.9 C 46 %
1764 06-09-2020 05:55:17 7.9 C 46 %
1765 06-09-2020 06:05:18 7.6 C 46 %
1766 06-09-2020 06:15:17 7.5 C 46 %
1767 06-09-2020 06:25:17 7.5 C 46 %
1768 06-09-2020 06:35:18 7.7 C 46 %
1769 06-09-2020 06:45:17 7.6 C 46 %
1770 06-09-2020 06:55:18 7.4 C 46 %
1771 06-09-2020 07:05:18 7.5 C 46 %
1772 06-09-2020 07:15:18 7.9 C 46 %
1773 06-09-2020 07:25:18 7.6 C 46 %
1774 06-09-2020 07:35:17 7.8 C 46 %
1775 06-09-2020 07:45:17 7.6 C 46 %
Sensor: Nr:Datum:Temp:Feuchte:
Aussen-T/F 1776 06-09-2020 07:55:18 7.5 C 46 %
1777 06-09-2020 08:05:18 7.6 C 46 %
1778 06-09-2020 08:15:17 7.6 C 46 %
1779 06-09-2020 08:25:17 7.8 C 46 %
1780 06-09-2020 08:35:17 8 C 46 %
1781 06-09-2020 08:45:17 8.3 C 46 %
1782 06-09-2020 08:55:17 8.4 C 45 %
1783 06-09-2020 09:05:17 8.7 C 45 %
1784 06-09-2020 09:15:17 8.8 C 45 %
1785 06-09-2020 09:25:17 9.1 C 44 %
1786 06-09-2020 09:35:17 9.3 C 44 %
1787 06-09-2020 09:45:17 9.5 C 44 %
1788 06-09-2020 09:55:17 10.1 C 42 %
1789 06-09-2020 10:05:17 10.2 C 42 %
1790 06-09-2020 10:15:17 10.7 C 41 %
1791 06-09-2020 10:25:18 11.5 C 39 %
1792 06-09-2020 10:35:18 12 C 38 %
1793 06-09-2020 10:45:17 12.7 C 38 %
1794 06-09-2020 10:55:17 13.2 C 36 %
1795 06-09-2020 11:05:17 14.1 C 36 %
1796 06-09-2020 11:15:17 15 C 33 %
1797 06-09-2020 11:25:17 15.4 C 32 %
1798 06-09-2020 11:35:18 16.2 C 30 %
1799 06-09-2020 11:45:18 16.5 C 29 %
1800 06-09-2020 11:55:18 16.7 C 29 %
Sensor: Nr:Datum:Temp:Feuchte:
Aussen-T/F 1801 06-09-2020 12:05:18 16.6 C 29 %
1802 06-09-2020 12:15:18 17.2 C 28 %
1803 06-09-2020 12:25:18 17.1 C 28 %
1804 06-09-2020 12:35:18 17.1 C 27 %
1805 06-09-2020 12:45:18 17.4 C 27 %
1806 06-09-2020 12:55:18 17.4 C 27 %
1807 06-09-2020 13:05:18 17.7 C 27 %
1808 06-09-2020 13:15:17 18.1 C 26 %
1809 06-09-2020 13:25:18 17.7 C 26 %
1810 06-09-2020 13:35:18 17.9 C 26 %
1811 06-09-2020 13:45:17 19 C 25 %
1812 06-09-2020 13:55:17 19.3 C 24 %
1813 06-09-2020 14:05:17 19.8 C 23 %
1814 06-09-2020 14:15:18 21.1 C 22 %
1815 06-09-2020 14:25:18 21.1 C 21 %
1816 06-09-2020 14:35:18 21.6 C 21 %
1817 06-09-2020 14:45:17 24.2 C 20 %
1818 06-09-2020 14:55:17 21.6 C 20 %
1819 06-09-2020 15:05:18 20.9 C 21 %
1820 06-09-2020 15:15:17 21 C 20 %
1821 06-09-2020 15:25:17 24.3 C 20 %
1822 06-09-2020 15:35:18 21.3 C 20 %
1823 06-09-2020 15:45:17 21 C 20 %
1824 06-09-2020 15:55:17 19.3 C 21 %
1825 06-09-2020 16:05:17 19 C 21 %
Sensor: Nr:Datum:Temp:Feuchte:
Aussen-T/F 1826 06-09-2020 16:15:17 18.9 C 22 %
1827 06-09-2020 16:25:17 18.8 C 22 %
1828 06-09-2020 16:35:18 19.1 C 21 %
1829 06-09-2020 16:45:17 19.3 C 21 %
1830 06-09-2020 16:55:17 19.6 C 21 %
1831 06-09-2020 17:05:18 19.6 C 21 %
1832 06-09-2020 17:15:17 19.8 C 21 %
1833 06-09-2020 17:25:18 19.4 C 21 %
1834 06-09-2020 17:35:17 18.9 C 23 %
1835 06-09-2020 17:45:17 18.7 C 23 %
1836 06-09-2020 17:55:17 18.6 C 23 %
1837 06-09-2020 18:05:18 18.7 C 23 %
1838 06-09-2020 18:15:17 19.3 C 22 %
1839 06-09-2020 18:25:17 19.5 C 21 %
1840 06-09-2020 18:35:17 19.1 C 21 %
1841 06-09-2020 18:45:18 18.7 C 22 %
1842 06-09-2020 18:55:18 18.5 C 22 %
1843 06-09-2020 19:05:18 18.2 C 22 %
1844 06-09-2020 19:15:17 17.9 C 23 %
1845 06-09-2020 19:25:18 17.4 C 25 %
1846 06-09-2020 19:35:17 16.7 C 26 %
1847 06-09-2020 19:45:17 15.4 C 28 %
1848 06-09-2020 19:55:17 15.1 C 28 %
1849 06-09-2020 20:05:17 14.5 C 30 %
1850 06-09-2020 20:15:17 14.6 C 29 %
Sensor: Nr:Datum:Temp:Feuchte:
Aussen-T/F 1851 06-09-2020 20:25:17 14.2 C 29 %
1852 06-09-2020 20:35:18 13.8 C 30 %
1853 06-09-2020 20:45:17 13.5 C 30 %
1854 06-09-2020 20:55:17 13.3 C 31 %
1855 06-09-2020 21:05:18 13 C 31 %
1856 06-09-2020 21:15:17 12.4 C 34 %
1857 06-09-2020 21:25:18 12.4 C 34 %
1858 06-09-2020 21:35:18 12.3 C 35 %
1859 06-09-2020 21:45:18 12.1 C 35 %
1860 06-09-2020 21:55:18 12 C 35 %
1861 06-09-2020 22:05:17 12.2 C 35 %
1862 06-09-2020 22:15:17 12.2 C 35 %
1863 06-09-2020 22:25:17 12.3 C 35 %
1864 06-09-2020 22:35:18 12.4 C 35 %
1865 06-09-2020 22:45:18 12.4 C 35 %
1866 06-09-2020 22:55:18 12.3 C 35 %
1867 06-09-2020 23:05:19 12.3 C 35 %
1868 06-09-2020 23:15:18 12.5 C 35 %
1869 06-09-2020 23:25:18 12.4 C 35 %
1870 06-09-2020 23:35:18 12.9 C 35 %
1871 06-09-2020 23:45:18 12.9 C 35 %
1872 06-09-2020 23:55:18 12.7 C 35 %
1873 07-09-2020 00:05:18 12.6 C 35 %
1874 07-09-2020 00:15:18 12.6 C 35 %
1875 07-09-2020 00:25:18 12.6 C 35 %
Sensor: Nr:Datum:Temp:Feuchte:
Aussen-T/F 1876 07-09-2020 00:35:18 12.5 C 35 %
1877 07-09-2020 00:45:18 12.5 C 35 %
1878 07-09-2020 00:55:18 12.4 C 35 %
1879 07-09-2020 01:05:18 12.2 C 36 %
1880 07-09-2020 01:15:18 12.2 C 36 %
1881 07-09-2020 01:25:18 11.9 C 37 %
1882 07-09-2020 01:35:18 11.5 C 37 %
1883 07-09-2020 01:45:17 11.2 C 37 %
1884 07-09-2020 01:55:18 11 C 37 %
1885 07-09-2020 02:05:18 10.3 C 39 %
1886 07-09-2020 02:15:18 10.1 C 40 %
1887 07-09-2020 02:25:18 9.7 C 41 %
1888 07-09-2020 02:35:18 9.6 C 41 %
1889 07-09-2020 02:45:17 9.3 C 41 %
1890 07-09-2020 02:55:18 8.9 C 42 %
1891 07-09-2020 03:05:17 8.9 C 42 %
1892 07-09-2020 03:15:17 9.2 C 42 %
1893 07-09-2020 03:25:18 8.7 C 43 %
1894 07-09-2020 03:35:18 8.8 C 43 %
1895 07-09-2020 03:45:18 8.4 C 43 %
1896 07-09-2020 03:55:18 8.3 C 44 %
1897 07-09-2020 04:05:18 8.5 C 45 %
1898 07-09-2020 04:15:18 8.3 C 44 %
1899 07-09-2020 04:25:18 8.3 C 44 %
1900 07-09-2020 04:35:17 8 C 44 %
Sensor: Nr:Datum:Temp:Feuchte:
Aussen-T/F 1901 07-09-2020 04:45:18 7.9 C 45 %
1902 07-09-2020 04:55:18 8 C 45 %
1903 07-09-2020 05:05:18 7.9 C 45 %
1904 07-09-2020 05:15:18 7.9 C 45 %
1905 07-09-2020 05:25:18 7.8 C 45 %
1906 07-09-2020 05:35:18 7.5 C 45 %
1907 07-09-2020 05:45:18 7.7 C 46 %
1908 07-09-2020 05:55:18 7.4 C 46 %
1909 07-09-2020 06:05:18 7.5 C 46 %
1910 07-09-2020 06:15:17 7.2 C 46 %
1911 07-09-2020 06:25:17 7.4 C 46 %
1912 07-09-2020 06:35:18 7.2 C 46 %
1913 07-09-2020 06:45:18 7.3 C 46 %
1914 07-09-2020 06:55:18 7.3 C 46 %
1915 07-09-2020 07:05:18 7.1 C 46 %
1916 07-09-2020 07:15:18 6.9 C 47 %
1917 07-09-2020 07:25:18 7.1 C 46 %
1918 07-09-2020 07:35:18 7.1 C 46 %
1919 07-09-2020 07:45:18 7.4 C 46 %
1920 07-09-2020 07:55:18 7.4 C 46 %
1921 07-09-2020 08:05:18 7.5 C 46 %
1922 07-09-2020 08:15:18 7.6 C 46 %
1923 07-09-2020 08:25:18 7.7 C 46 %
1924 07-09-2020 08:35:18 8.1 C 45 %
1925 07-09-2020 08:45:18 8.1 C 45 %
Sensor: Nr:Datum:Temp:Feuchte:
Aussen-T/F 1926 07-09-2020 08:55:18 8.3 C 45 %
1927 07-09-2020 09:05:18 8.5 C 45 %
1928 07-09-2020 09:15:18 8.7 C 45 %
1929 07-09-2020 09:25:18 9.1 C 44 %
1930 07-09-2020 09:35:18 9.5 C 43 %
1931 07-09-2020 09:45:18 9.7 C 42 %
1932 07-09-2020 09:55:18 10.3 C 41 %
1933 07-09-2020 10:05:18 10.4 C 41 %
1934 07-09-2020 10:15:17 10.8 C 41 %
1935 07-09-2020 10:25:17 11.1 C 40 %
1936 07-09-2020 10:35:18 11.6 C 40 %
1937 07-09-2020 10:45:17 12.3 C 39 %
1938 07-09-2020 10:55:17 13 C 37 %
1939 07-09-2020 11:05:17 14.2 C 35 %
1940 07-09-2020 11:15:17 14.3 C 35 %
1941 07-09-2020 11:25:17 14.9 C 35 %
1942 07-09-2020 11:35:17 16 C 32 %
1943 07-09-2020 11:45:17 15.5 C 33 %
1944 07-09-2020 11:55:17 16.5 C 31 %
1945 07-09-2020 12:05:17 16.5 C 31 %
1946 07-09-2020 12:15:17 17.2 C 30 %
1947 07-09-2020 12:25:17 16.8 C 30 %
1948 07-09-2020 12:35:18 16.9 C 30 %
1949 07-09-2020 12:45:17 16.9 C 30 %
1950 07-09-2020 12:55:17 17.3 C 29 %
Sensor: Nr:Datum:Temp:Feuchte:
Aussen-T/F 1951 07-09-2020 13:05:17 17.4 C 29 %
1952 07-09-2020 13:15:17 17.5 C 28 %
1953 07-09-2020 13:25:17 17.8 C 28 %
1954 07-09-2020 13:35:17 17.9 C 28 %
1955 07-09-2020 13:45:18 18 C 26 %
1956 07-09-2020 13:55:18 18.3 C 26 %
1957 07-09-2020 14:05:17 18.9 C 25 %
1958 07-09-2020 14:15:17 19.7 C 25 %
1959 07-09-2020 14:25:17 20.2 C 23 %
1960 07-09-2020 14:35:17 25.5 C 20 %
1961 07-09-2020 14:45:17 24.4 C 20 %
1962 07-09-2020 14:55:17 25.1 C 20 %
1963 07-09-2020 15:05:17 25.7 C 20 %
1964 07-09-2020 15:15:17 26 C 20 %
1965 07-09-2020 15:25:17 27.5 C 20 %
1966 07-09-2020 15:35:18 28.3 C 20 %
1967 07-09-2020 15:45:17 29.3 C 20 %
1968 07-09-2020 15:55:17 27.5 C 20 %
1969 07-09-2020 16:05:17 28.5 C 20 %
1970 07-09-2020 16:15:17 28.8 C 20 %
1971 07-09-2020 16:25:17 30.5 C 20 %
1972 07-09-2020 16:35:17 28.9 C 20 %
1973 07-09-2020 16:45:18 26.3 C 20 %
1974 07-09-2020 16:55:18 23.4 C 20 %
1975 07-09-2020 17:05:18 24.9 C 20 %
Sensor: Nr:Datum:Temp:Feuchte:
Aussen-T/F 1976 07-09-2020 17:15:18 26.9 C 20 %
1977 07-09-2020 17:25:18 27.3 C 20 %
1978 07-09-2020 17:35:17 27.5 C 20 %
1979 07-09-2020 17:45:17 26.2 C 20 %
1980 07-09-2020 17:55:17 23.7 C 20 %
1981 07-09-2020 18:05:17 22.3 C 20 %
1982 07-09-2020 18:15:18 20.6 C 22 %
1983 07-09-2020 18:25:18 20.7 C 23 %
1984 07-09-2020 18:35:18 21.5 C 21 %
1985 07-09-2020 18:45:17 21.5 C 20 %
1986 07-09-2020 18:55:17 21.3 C 20 %
1987 07-09-2020 19:05:17 20.7 C 22 %
1988 07-09-2020 19:15:17 19.5 C 25 %
1989 07-09-2020 19:25:17 18.8 C 25 %
1990 07-09-2020 19:35:17 18.3 C 25 %
1991 07-09-2020 19:45:18 17.9 C 26 %
1992 07-09-2020 19:55:18 17.7 C 25 %
1993 07-09-2020 20:05:18 17.3 C 26 %
1994 07-09-2020 20:15:17 16.6 C 26 %
1995 07-09-2020 20:25:17 16.1 C 27 %
1996 07-09-2020 20:35:17 15.5 C 28 %
1997 07-09-2020 20:45:17 14.9 C 30 %
1998 07-09-2020 20:55:17 14.9 C 30 %
1999 07-09-2020 21:05:18 14.5 C 31 %
2000 07-09-2020 21:15:17 13.8 C 32 %
Sensor: Nr:Datum:Temp:Feuchte:
Aussen-T/F 2001 07-09-2020 21:25:17 13.1 C 33 %
2002 07-09-2020 21:35:18 12.9 C 34 %
2003 07-09-2020 21:45:17 12.6 C 35 %
2004 07-09-2020 21:55:17 12.4 C 35 %
2005 07-09-2020 22:05:17 12.4 C 35 %
2006 07-09-2020 22:15:18 12.1 C 35 %
2007 07-09-2020 22:25:18 11.9 C 36 %
2008 07-09-2020 22:35:17 11.6 C 37 %
2009 07-09-2020 22:45:17 11.5 C 37 %
2010 07-09-2020 22:55:17 11.4 C 37 %
2011 07-09-2020 23:05:18 11.4 C 37 %
2012 07-09-2020 23:15:17 11.1 C 37 %
2013 07-09-2020 23:25:17 11.2 C 37 %
2014 07-09-2020 23:35:17 10.9 C 38 %
2015 07-09-2020 23:45:18 10.9 C 39 %
2016 07-09-2020 23:55:18 10.9 C 39 %
2017 08-09-2020 00:05:17 10.5 C 39 %
2018 08-09-2020 00:15:18 10.2 C 39 %
2019 08-09-2020 00:25:18 10.2 C 39 %
2020 08-09-2020 00:35:17 10.1 C 40 %
2021 08-09-2020 00:45:18 10.2 C 40 %
2022 08-09-2020 00:55:18 9.9 C 40 %
2023 08-09-2020 01:05:17 9.9 C 41 %
2024 08-09-2020 01:15:17 10.2 C 40 %
2025 08-09-2020 01:25:17 9.8 C 40 %
Sensor: Nr:Datum:Temp:Feuchte:
Aussen-T/F 2026 08-09-2020 01:35:18 9.4 C 41 %
2027 08-09-2020 01:45:17 9.5 C 41 %
2028 08-09-2020 01:55:17 9.5 C 41 %
2029 08-09-2020 02:05:18 9.3 C 42 %
2030 08-09-2020 02:15:17 9.2 C 42 %
2031 08-09-2020 02:25:17 9 C 42 %
2032 08-09-2020 02:35:18 9.2 C 42 %
2033 08-09-2020 02:45:17 9.1 C 41 %
2034 08-09-2020 02:55:17 9.1 C 42 %
2035 08-09-2020 03:05:17 9.1 C 42 %
2036 08-09-2020 03:15:17 9.2 C 42 %
2037 08-09-2020 03:25:17 8.7 C 42 %
2038 08-09-2020 03:35:18 8.5 C 43 %
2039 08-09-2020 03:45:17 8.8 C 43 %
2040 08-09-2020 03:55:17 8.5 C 42 %
2041 08-09-2020 04:05:18 8.6 C 43 %
2042 08-09-2020 04:15:17 8.4 C 43 %
2043 08-09-2020 04:25:18 8.4 C 44 %
2044 08-09-2020 04:35:17 8.2 C 44 %
2045 08-09-2020 04:45:17 8.1 C 45 %
2046 08-09-2020 04:55:17 8 C 44 %
2047 08-09-2020 05:05:17 8.1 C 45 %
2048 08-09-2020 05:15:17 8.2 C 45 %
2049 08-09-2020 05:25:17 8.1 C 44 %
2050 08-09-2020 05:35:17 8 C 44 %
Sensor: Nr:Datum:Temp:Feuchte:
Aussen-T/F 2051 08-09-2020 05:45:17 8 C 44 %
2052 08-09-2020 05:55:17 7.8 C 45 %
2053 08-09-2020 06:05:17 7.5 C 45 %
2054 08-09-2020 06:15:17 7.6 C 46 %
2055 08-09-2020 06:25:17 7.7 C 45 %
2056 08-09-2020 06:35:17 7.7 C 45 %
2057 08-09-2020 06:45:17 7.5 C 44 %
2058 08-09-2020 06:55:17 7.4 C 45 %
2059 08-09-2020 07:05:18 7.5 C 46 %
2060 08-09-2020 07:15:18 7.6 C 45 %
2061 08-09-2020 07:25:18 7.8 C 46 %
2062 08-09-2020 07:35:18 8.1 C 45 %
2063 08-09-2020 07:45:17 8.1 C 44 %
2064 08-09-2020 07:55:17 8.4 C 44 %
2065 08-09-2020 08:05:18 8.5 C 44 %
2066 08-09-2020 08:15:18 8.7 C 44 %
2067 08-09-2020 08:25:18 8.8 C 44 %
2068 08-09-2020 08:35:17 9 C 43 %
2069 08-09-2020 08:45:18 9.1 C 43 %
2070 08-09-2020 08:55:18 9.2 C 43 %
2071 08-09-2020 09:05:18 9.3 C 42 %
2072 08-09-2020 09:15:17 9.9 C 42 %
2073 08-09-2020 09:25:17 10.1 C 40 %
2074 08-09-2020 09:35:18 10.5 C 40 %
2075 08-09-2020 09:45:17 10.9 C 40 %
Sensor: Nr:Datum:Temp:Feuchte:
Aussen-T/F 2076 08-09-2020 09:55:17 11.3 C 39 %
2077 08-09-2020 10:05:18 11.6 C 39 %
2078 08-09-2020 10:15:17 12.2 C 37 %
2079 08-09-2020 10:25:17 13.1 C 36 %
2080 08-09-2020 10:35:18 14.1 C 35 %
2081 08-09-2020 10:45:17 14.6 C 34 %
2082 08-09-2020 10:55:17 15.8 C 32 %
2083 08-09-2020 11:05:17 17.1 C 30 %
2084 08-09-2020 11:15:17 17.3 C 30 %
2085 08-09-2020 11:25:18 18.7 C 28 %
2086 08-09-2020 11:35:18 19.4 C 27 %
2087 08-09-2020 11:45:17 19.6 C 27 %
2088 08-09-2020 11:55:17 20.4 C 26 %
2089 08-09-2020 12:05:17 21.2 C 25 %
2090 08-09-2020 12:15:17 21.6 C 25 %
2091 08-09-2020 12:25:17 21 C 25 %
2092 08-09-2020 12:35:17 21.4 C 25 %
2093 08-09-2020 12:45:17 21.3 C 24 %
2094 08-09-2020 12:55:17 21.6 C 24 %
2095 08-09-2020 13:05:18 21.6 C 24 %
2096 08-09-2020 13:15:17 21.7 C 24 %
2097 08-09-2020 13:25:17 22.1 C 23 %
2098 08-09-2020 13:35:18 22.4 C 23 %
2099 08-09-2020 13:45:17 22.3 C 22 %
2100 08-09-2020 13:55:17 22.8 C 22 %
Sensor: Nr:Datum:Temp:Feuchte:
Aussen-T/F 2101 08-09-2020 14:05:18 22.6 C 22 %
2102 08-09-2020 14:15:17 23.4 C 21 %
2103 08-09-2020 14:25:17 25.7 C 20 %
2104 08-09-2020 14:35:18 28.3 C 20 %
2105 08-09-2020 14:45:17 27.7 C 20 %
2106 08-09-2020 14:55:17 27.9 C 20 %
2107 08-09-2020 15:05:17 29.2 C 20 %
2108 08-09-2020 15:15:17 30.2 C 20 %
2109 08-09-2020 15:25:17 27.8 C 20 %
2110 08-09-2020 15:35:18 29 C 20 %
2111 08-09-2020 15:45:17 30.4 C 20 %
2112 08-09-2020 15:55:17 31.2 C 20 %
2113 08-09-2020 16:05:18 32 C 20 %
2114 08-09-2020 16:15:18 32.8 C 20 %
2115 08-09-2020 16:25:18 32.2 C 20 %
2116 08-09-2020 16:35:18 31.4 C 20 %
2117 08-09-2020 16:45:17 33.3 C 20 %
2118 08-09-2020 16:55:17 30.7 C 20 %
2119 08-09-2020 17:05:17 31.7 C 20 %
2120 08-09-2020 17:15:17 31.7 C 20 %
2121 08-09-2020 17:25:17 32.3 C 20 %
2122 08-09-2020 17:35:17 30.2 C 20 %
2123 08-09-2020 17:45:17 29.5 C 20 %
2124 08-09-2020 17:55:17 27.4 C 20 %
2125 08-09-2020 18:05:18 27.1 C 20 %
Sensor: Nr:Datum:Temp:Feuchte:
Aussen-T/F 2126 08-09-2020 18:15:17 26.8 C 20 %
2127 08-09-2020 18:25:17 26.6 C 20 %
2128 08-09-2020 18:35:18 26.4 C 20 %
2129 08-09-2020 18:45:17 25.9 C 20 %
2130 08-09-2020 18:55:17 25.6 C 20 %
2131 08-09-2020 19:05:18 25.1 C 20 %
2132 08-09-2020 19:15:18 24.5 C 21 %
2133 08-09-2020 19:25:18 24.2 C 21 %
2134 08-09-2020 19:35:18 23.6 C 22 %
2135 08-09-2020 19:45:17 22 C 25 %
2136 08-09-2020 19:55:17 21.4 C 26 %
2137 08-09-2020 20:05:17 20.6 C 28 %
2138 08-09-2020 20:15:17 20.1 C 28 %
2139 08-09-2020 20:25:17 19.9 C 29 %
2140 08-09-2020 20:35:17 19.3 C 30 %
2141 08-09-2020 20:45:17 19.3 C 30 %
2142 08-09-2020 20:55:17 19.1 C 30 %
2143 08-09-2020 21:05:17 19.1 C 30 %
2144 08-09-2020 21:15:17 18.9 C 31 %
2145 08-09-2020 21:25:17 19.1 C 30 %
2146 08-09-2020 21:35:18 19 C 30 %
2147 08-09-2020 21:45:17 18.4 C 31 %
2148 08-09-2020 21:55:17 18.1 C 32 %
2149 08-09-2020 22:05:18 18.3 C 31 %
2150 08-09-2020 22:15:18 17.8 C 33 %
Sensor: Nr:Datum:Temp:Feuchte:
Aussen-T/F 2151 08-09-2020 22:25:18 17.6 C 33 %
2152 08-09-2020 22:35:17 17.2 C 33 %
2153 08-09-2020 22:45:17 17.1 C 33 %
2154 08-09-2020 22:55:17 16.6 C 35 %
2155 08-09-2020 23:05:17 16 C 36 %
2156 08-09-2020 23:15:17 15.7 C 36 %
2157 08-09-2020 23:25:17 15.5 C 37 %
2158 08-09-2020 23:35:18 15.2 C 37 %
2159 08-09-2020 23:45:17 15.2 C 38 %
2160 08-09-2020 23:55:17 15 C 38 %
2161 09-09-2020 00:05:18 14.8 C 39 %
2162 09-09-2020 00:15:17 14.6 C 40 %
2163 09-09-2020 00:25:17 14.5 C 40 %
2164 09-09-2020 00:35:18 14.4 C 40 %
2165 09-09-2020 00:45:17 14.3 C 40 %
2166 09-09-2020 00:55:17 14.1 C 40 %
2167 09-09-2020 01:05:18 14 C 40 %
2168 09-09-2020 01:15:17 14 C 41 %
2169 09-09-2020 01:25:17 13.8 C 42 %
2170 09-09-2020 01:35:17 14 C 41 %
2171 09-09-2020 01:45:17 13.9 C 41 %
2172 09-09-2020 01:55:17 13.7 C 41 %
2173 09-09-2020 02:05:18 13.6 C 42 %
2174 09-09-2020 02:15:17 13.5 C 42 %
2175 09-09-2020 02:25:17 13.3 C 42 %
Sensor: Nr:Datum:Temp:Feuchte:
Aussen-T/F 2176 09-09-2020 02:35:18 13.3 C 42 %
2177 09-09-2020 02:45:17 13.1 C 42 %
2178 09-09-2020 02:55:17 13.2 C 43 %
2179 09-09-2020 03:05:18 13.1 C 42 %
2180 09-09-2020 03:15:17 12.8 C 43 %
2181 09-09-2020 03:25:17 12.7 C 44 %
2182 09-09-2020 03:35:17 12.7 C 44 %
2183 09-09-2020 03:45:17 12.5 C 44 %
2184 09-09-2020 03:55:17 12.4 C 44 %
2185 09-09-2020 04:05:18 12.3 C 44 %
2186 09-09-2020 04:15:17 12.4 C 44 %
2187 09-09-2020 04:25:17 12.4 C 44 %
2188 09-09-2020 04:35:17 12.3 C 44 %
2189 09-09-2020 04:45:17 12.3 C 44 %
2190 09-09-2020 04:55:17 12.3 C 44 %
2191 09-09-2020 05:05:17 12.2 C 44 %
2192 09-09-2020 05:15:17 12.3 C 44 %
2193 09-09-2020 05:25:17 12 C 44 %
2194 09-09-2020 05:35:17 12.2 C 44 %
2195 09-09-2020 05:45:17 12.1 C 44 %
2196 09-09-2020 05:55:18 12 C 43 %
2197 09-09-2020 06:05:18 12.1 C 44 %
2198 09-09-2020 06:15:17 11.7 C 45 %
2199 09-09-2020 06:25:17 11.7 C 45 %
2200 09-09-2020 06:35:17 11.8 C 45 %
Sensor: Nr:Datum:Temp:Feuchte:
Aussen-T/F 2201 09-09-2020 06:45:17 11.7 C 45 %
2202 09-09-2020 06:55:17 11.6 C 45 %
2203 09-09-2020 07:05:18 11.7 C 45 %
2204 09-09-2020 07:15:18 11.8 C 45 %
2205 09-09-2020 07:25:18 11.8 C 45 %
2206 09-09-2020 07:35:18 12.1 C 44 %
2207 09-09-2020 07:45:17 12 C 43 %
2208 09-09-2020 07:55:18 11.9 C 44 %
2209 09-09-2020 08:05:17 12.1 C 43 %
2210 09-09-2020 08:15:17 12.3 C 44 %
2211 09-09-2020 08:25:17 12.5 C 44 %
2212 09-09-2020 08:35:18 12.6 C 44 %
2213 09-09-2020 08:45:17 12.8 C 43 %
2214 09-09-2020 08:55:17 13 C 42 %
2215 09-09-2020 09:05:17 13.1 C 42 %
2216 09-09-2020 09:15:17 13.4 C 42 %
2217 09-09-2020 09:25:17 13.7 C 42 %
2218 09-09-2020 09:35:18 14.2 C 41 %
2219 09-09-2020 09:45:18 15.6 C 38 %
2220 09-09-2020 09:55:18 16.3 C 37 %
2221 09-09-2020 10:05:17 16.8 C 38 %
2222 09-09-2020 10:15:17 18 C 35 %
2223 09-09-2020 10:25:18 19.1 C 32 %
2224 09-09-2020 10:35:17 20.6 C 31 %
2225 09-09-2020 10:45:18 21.1 C 29 %
Sensor: Nr:Datum:Temp:Feuchte:
Aussen-T/F 2226 09-09-2020 10:55:18 21.6 C 29 %
2227 09-09-2020 11:05:18 22 C 27 %
2228 09-09-2020 11:15:17 22.3 C 27 %
2229 09-09-2020 11:25:17 22.9 C 27 %
2230 09-09-2020 11:35:18 23.8 C 26 %
2231 09-09-2020 11:45:18 24.3 C 25 %
2232 09-09-2020 11:55:18 24 C 25 %
2233 09-09-2020 12:05:18 23.7 C 26 %
2234 09-09-2020 12:15:17 23.4 C 26 %
2235 09-09-2020 12:25:17 23.4 C 26 %
2236 09-09-2020 12:35:18 23.3 C 25 %
2237 09-09-2020 12:45:17 23.7 C 26 %
2238 09-09-2020 12:55:17 23.4 C 26 %
2239 09-09-2020 13:05:18 23.5 C 26 %
2240 09-09-2020 13:15:17 23.6 C 26 %
2241 09-09-2020 13:25:17 23.2 C 26 %
2242 09-09-2020 13:35:17 23.4 C 26 %
2243 09-09-2020 13:45:17 23.3 C 26 %
2244 09-09-2020 13:55:17 23.6 C 26 %
2245 09-09-2020 14:05:18 23.5 C 26 %
2246 09-09-2020 14:15:17 24.2 C 25 %
2247 09-09-2020 14:25:17 25.5 C 24 %
2248 09-09-2020 14:35:18 26.1 C 23 %
2249 09-09-2020 14:45:17 25.4 C 23 %
2250 09-09-2020 14:55:17 26.7 C 23 %
Sensor: Nr:Datum:Temp:Feuchte:
Aussen-T/F 2251 09-09-2020 15:05:17 29.8 C 20 %
2252 09-09-2020 15:15:17 29.8 C 20 %
2253 09-09-2020 15:25:17 26.2 C 21 %
2254 09-09-2020 15:35:18 25.6 C 22 %
2255 09-09-2020 15:45:18 24.7 C 23 %
2256 09-09-2020 15:55:18 24.6 C 23 %
2257 09-09-2020 16:05:17 24.6 C 24 %
2258 09-09-2020 16:15:17 24.8 C 23 %
2259 09-09-2020 16:25:17 24.7 C 23 %
2260 09-09-2020 16:35:18 25.1 C 23 %
2261 09-09-2020 16:45:18 24.9 C 24 %
2262 09-09-2020 16:55:18 24.8 C 23 %
2263 09-09-2020 17:05:18 25.2 C 22 %
2264 09-09-2020 17:15:17 25.6 C 22 %
2265 09-09-2020 17:25:17 25.3 C 22 %
2266 09-09-2020 17:35:18 26 C 21 %
2267 09-09-2020 17:45:18 25.1 C 23 %
2268 09-09-2020 17:55:18 25.6 C 23 %
2269 09-09-2020 18:05:18 24.5 C 24 %
2270 09-09-2020 18:15:17 24.3 C 24 %
2271 09-09-2020 18:25:17 23.9 C 25 %
2272 09-09-2020 18:35:18 23.7 C 26 %
2273 09-09-2020 18:45:17 23.9 C 26 %
2274 09-09-2020 18:55:18 23.6 C 25 %
2275 09-09-2020 19:05:18 22.9 C 28 %
Sensor: Nr:Datum:Temp:Feuchte:
Aussen-T/F 2276 09-09-2020 19:15:18 22.4 C 28 %
2277 09-09-2020 19:25:18 21.8 C 30 %
2278 09-09-2020 19:35:17 21.9 C 30 %
2279 09-09-2020 19:45:17 21.7 C 30 %
2280 09-09-2020 19:55:17 21.6 C 30 %
2281 09-09-2020 20:05:18 21.4 C 30 %
2282 09-09-2020 20:15:17 21.1 C 30 %
2283 09-09-2020 20:25:17 20.4 C 31 %
2284 09-09-2020 20:35:18 20.2 C 32 %
2285 09-09-2020 20:45:18 19.9 C 32 %
2286 09-09-2020 20:55:18 19.8 C 32 %
2287 09-09-2020 21:05:17 19.7 C 32 %
2288 09-09-2020 21:15:18 19.6 C 32 %
2289 09-09-2020 21:25:18 19.7 C 32 %
2290 09-09-2020 21:35:18 19.7 C 32 %
2291 09-09-2020 21:45:17 19.7 C 32 %
2292 09-09-2020 21:55:17 19.8 C 32 %
2293 09-09-2020 22:05:17 19.8 C 32 %
2294 09-09-2020 22:15:17 20 C 32 %
2295 09-09-2020 22:25:17 19.9 C 32 %
2296 09-09-2020 22:35:17 19.7 C 33 %
2297 09-09-2020 22:45:18 19.7 C 33 %
2298 09-09-2020 22:55:18 19.8 C 33 %
2299 09-09-2020 23:05:18 19.9 C 32 %
2300 09-09-2020 23:15:17 19.9 C 32 %
Sensor: Nr:Datum:Temp:Feuchte:
Aussen-T/F 2301 09-09-2020 23:25:17 20.4 C 31 %
2302 09-09-2020 23:35:17 20.7 C 31 %
2303 09-09-2020 23:45:17 20.8 C 31 %
2304 09-09-2020 23:55:17 20.9 C 31 %
2305 10-09-2020 00:05:18 20.6 C 32 %
2306 10-09-2020 00:15:17 20.1 C 34 %
2307 10-09-2020 00:25:17 19.9 C 35 %
2308 10-09-2020 00:35:18 19.8 C 35 %
2309 10-09-2020 00:45:17 19.6 C 35 %
2310 10-09-2020 00:55:17 18.8 C 38 %
2311 10-09-2020 01:05:17 18.3 C 40 %
2312 10-09-2020 01:15:17 18.1 C 40 %
2313 10-09-2020 01:25:17 18 C 40 %
2314 10-09-2020 01:35:17 18 C 40 %
2315 10-09-2020 01:45:17 17.8 C 41 %
2316 10-09-2020 01:55:17 17.6 C 41 %
2317 10-09-2020 02:05:17 17.5 C 41 %
2318 10-09-2020 02:15:18 17.4 C 40 %
2319 10-09-2020 02:25:18 17.3 C 38 %
2320 10-09-2020 02:35:18 17.3 C 37 %
2321 10-09-2020 02:45:17 17.2 C 37 %
2322 10-09-2020 02:55:17 17.2 C 37 %
2323 10-09-2020 03:05:17 17.2 C 37 %
2324 10-09-2020 03:15:17 17 C 37 %
2325 10-09-2020 03:25:17 17 C 37 %
Sensor: Nr:Datum:Temp:Feuchte:
Aussen-T/F 2326 10-09-2020 03:35:18 17 C 37 %
2327 10-09-2020 03:45:17 17 C 37 %
2328 10-09-2020 03:55:17 16.9 C 37 %
2329 10-09-2020 04:05:17 16.8 C 38 %
2330 10-09-2020 04:15:17 16.6 C 38 %
2331 10-09-2020 04:25:17 16.6 C 37 %
2332 10-09-2020 04:35:17 16.6 C 36 %
2333 10-09-2020 04:45:17 16.6 C 36 %
2334 10-09-2020 04:55:17 16.6 C 35 %
2335 10-09-2020 05:05:17 16.6 C 35 %
2336 10-09-2020 05:15:17 16.5 C 35 %
2337 10-09-2020 05:25:17 16.3 C 35 %
2338 10-09-2020 05:35:17 16.3 C 35 %
2339 10-09-2020 05:45:17 16.1 C 36 %
2340 10-09-2020 05:55:17 16.2 C 36 %
2341 10-09-2020 06:05:17 16.2 C 36 %
2342 10-09-2020 06:15:17 16.1 C 35 %
2343 10-09-2020 06:25:17 16.2 C 35 %
2344 10-09-2020 06:35:17 15.8 C 36 %
2345 10-09-2020 06:45:18 15.7 C 36 %
2346 10-09-2020 06:55:18 15.5 C 36 %
2347 10-09-2020 07:05:17 15.2 C 37 %
2348 10-09-2020 07:15:18 15.2 C 37 %
2349 10-09-2020 07:25:18 15.3 C 36 %
2350 10-09-2020 07:35:18 15.4 C 36 %
Sensor: Nr:Datum:Temp:Feuchte:
Aussen-T/F 2351 10-09-2020 07:45:17 15.4 C 36 %
2352 10-09-2020 07:55:17 15.4 C 36 %
2353 10-09-2020 08:05:17 15.4 C 36 %
2354 10-09-2020 08:15:17 15.5 C 36 %
2355 10-09-2020 08:25:17 15.7 C 36 %
2356 10-09-2020 08:35:17 15.7 C 36 %
2357 10-09-2020 08:45:17 15.6 C 36 %
2358 10-09-2020 08:55:17 15.8 C 36 %
2359 10-09-2020 09:05:17 15.8 C 36 %
2360 10-09-2020 09:15:17 16.2 C 35 %
2361 10-09-2020 09:25:17 16.1 C 35 %
2362 10-09-2020 09:35:17 16.6 C 35 %
2363 10-09-2020 09:45:17 17 C 34 %
2364 10-09-2020 09:55:17 16.7 C 34 %
2365 10-09-2020 10:05:17 16.3 C 33 %
2366 10-09-2020 10:15:17 16.4 C 33 %
2367 10-09-2020 10:25:17 16.3 C 32 %
2368 10-09-2020 10:35:17 16.6 C 32 %
2369 10-09-2020 10:45:17 17 C 32 %
2370 10-09-2020 10:55:17 18.1 C 30 %
2371 10-09-2020 11:05:18 18.2 C 30 %
2372 10-09-2020 11:15:17 17.9 C 31 %
2373 10-09-2020 11:25:17 18.1 C 30 %
2374 10-09-2020 11:35:17 17.8 C 30 %
2375 10-09-2020 11:45:17 17.7 C 30 %
Sensor: Nr:Datum:Temp:Feuchte:
Aussen-T/F 2376 10-09-2020 11:55:17 17.8 C 30 %
2377 10-09-2020 12:05:17 18.7 C 29 %
2378 10-09-2020 12:15:17 18.9 C 29 %
2379 10-09-2020 12:25:17 19.2 C 28 %
2380 10-09-2020 12:35:17 18.8 C 27 %
2381 10-09-2020 12:45:17 18.3 C 28 %
2382 10-09-2020 12:55:18 18.1 C 27 %
2383 10-09-2020 13:05:18 18.5 C 27 %
2384 10-09-2020 13:15:17 18.3 C 27 %
2385 10-09-2020 13:25:17 18.5 C 27 %
2386 10-09-2020 13:35:18 18.5 C 27 %
2387 10-09-2020 13:45:17 19 C 26 %
2388 10-09-2020 13:55:17 19.3 C 26 %
2389 10-09-2020 14:05:18 19.6 C 26 %
2390 10-09-2020 14:15:17 20.3 C 26 %
2391 10-09-2020 14:25:17 21.8 C 25 %
2392 10-09-2020 14:35:17 24.2 C 21 %
2393 10-09-2020 14:45:17 24.7 C 20 %
2394 10-09-2020 14:55:17 24.1 C 20 %
2395 10-09-2020 15:05:17 26.2 C 20 %
2396 10-09-2020 15:15:18 27.1 C 20 %
2397 10-09-2020 15:25:18 27.9 C 20 %
2398 10-09-2020 15:35:18 27.6 C 20 %
2399 10-09-2020 15:45:17 27 C 20 %
2400 10-09-2020 15:55:17 26.7 C 20 %
Sensor: Nr:Datum:Temp:Feuchte:
Aussen-T/F 2401 10-09-2020 16:05:17 26.2 C 20 %
2402 10-09-2020 16:15:17 28.6 C 20 %
2403 10-09-2020 16:25:17 29.3 C 20 %
2404 10-09-2020 16:35:17 29 C 20 %
2405 10-09-2020 16:45:17 26.8 C 20 %
2406 10-09-2020 16:55:17 26.3 C 20 %
2407 10-09-2020 17:05:17 23.9 C 20 %
2408 10-09-2020 17:15:17 24.3 C 20 %
2409 10-09-2020 17:25:17 25.9 C 20 %
2410 10-09-2020 17:35:18 25.8 C 20 %
2411 10-09-2020 17:45:17 24.4 C 20 %
2412 10-09-2020 17:55:17 23 C 20 %
2413 10-09-2020 18:05:17 22.5 C 20 %
2414 10-09-2020 18:15:17 22.1 C 20 %
2415 10-09-2020 18:25:17 22.1 C 20 %
2416 10-09-2020 18:35:18 21.6 C 21 %
2417 10-09-2020 18:45:18 21.5 C 21 %
2418 10-09-2020 18:55:18 21.2 C 22 %
2419 10-09-2020 19:05:18 21.2 C 21 %
2420 10-09-2020 19:15:17 21 C 21 %
2421 10-09-2020 19:25:17 20.9 C 22 %
2422 10-09-2020 19:35:17 20.7 C 21 %
2423 10-09-2020 19:45:17 20.1 C 23 %
2424 10-09-2020 19:55:17 19 C 24 %
2425 10-09-2020 20:05:17 17.8 C 26 %
Sensor: Nr:Datum:Temp:Feuchte:
Aussen-T/F 2426 10-09-2020 20:15:17 17.3 C 26 %
2427 10-09-2020 20:25:17 17 C 26 %
2428 10-09-2020 20:35:18 16.9 C 26 %
2429 10-09-2020 20:45:17 16.9 C 26 %
2430 10-09-2020 20:55:17 16.7 C 26 %
2431 10-09-2020 21:05:17 16.5 C 27 %
2432 10-09-2020 21:15:17 16.4 C 27 %
2433 10-09-2020 21:25:17 15.9 C 27 %
2434 10-09-2020 21:35:17 15.7 C 28 %
2435 10-09-2020 21:45:17 15.1 C 29 %
2436 10-09-2020 21:55:17 15.2 C 29 %
2437 10-09-2020 22:05:17 14.7 C 30 %
2438 10-09-2020 22:15:17 14.3 C 31 %
2439 10-09-2020 22:25:17 14 C 31 %
2440 10-09-2020 22:35:17 13.5 C 32 %
2441 10-09-2020 22:45:18 13 C 33 %
2442 10-09-2020 22:55:18 12.8 C 34 %
2443 10-09-2020 23:05:17 12.5 C 34 %
2444 10-09-2020 23:15:18 12.4 C 35 %
2445 10-09-2020 23:25:18 12.1 C 35 %
2446 10-09-2020 23:35:17 11.8 C 36 %
2447 10-09-2020 23:45:17 11.8 C 36 %
2448 10-09-2020 23:55:17 11.8 C 36 %
2449 11-09-2020 00:05:18 11.8 C 36 %
2450 11-09-2020 00:15:17 11.8 C 36 %
Sensor: Nr:Datum:Temp:Feuchte:
Aussen-T/F 2451 11-09-2020 00:25:17 12.1 C 35 %
2452 11-09-2020 00:35:18 12.2 C 35 %
2453 11-09-2020 00:45:17 12.1 C 35 %
2454 11-09-2020 00:55:17 12.1 C 36 %
2455 11-09-2020 01:05:18 12.1 C 35 %
2456 11-09-2020 01:15:17 12 C 36 %
2457 11-09-2020 01:25:17 12.1 C 35 %
2458 11-09-2020 01:35:18 11.7 C 36 %
2459 11-09-2020 01:45:17 11.2 C 37 %
2460 11-09-2020 01:55:17 11.2 C 37 %
2461 11-09-2020 02:05:18 10.9 C 38 %
2462 11-09-2020 02:15:18 10.9 C 39 %
2463 11-09-2020 02:25:18 10.7 C 39 %
2464 11-09-2020 02:35:18 10.9 C 39 %
2465 11-09-2020 02:45:17 10.2 C 39 %
2466 11-09-2020 02:55:17 9.9 C 40 %
2467 11-09-2020 03:05:17 10.3 C 40 %
2468 11-09-2020 03:15:17 9.8 C 40 %
2469 11-09-2020 03:25:17 9.7 C 41 %
2470 11-09-2020 03:35:18 9.6 C 41 %
2471 11-09-2020 03:45:17 9.5 C 41 %
2472 11-09-2020 03:55:17 9.3 C 41 %
2473 11-09-2020 04:05:18 9.4 C 42 %
2474 11-09-2020 04:15:17 9 C 42 %
2475 11-09-2020 04:25:17 9 C 43 %
Sensor: Nr:Datum:Temp:Feuchte:
Aussen-T/F 2476 11-09-2020 04:35:17 8.7 C 43 %
2477 11-09-2020 04:45:17 8.7 C 44 %
2478 11-09-2020 04:55:17 8.8 C 43 %
2479 11-09-2020 05:05:18 8.7 C 44 %
2480 11-09-2020 05:15:17 8.4 C 44 %
2481 11-09-2020 05:25:17 8.2 C 44 %
2482 11-09-2020 05:35:18 8.2 C 45 %
2483 11-09-2020 05:45:18 8 C 45 %
2484 11-09-2020 05:55:18 8 C 45 %
2485 11-09-2020 06:05:17 8 C 45 %
2486 11-09-2020 06:15:18 7.9 C 45 %
2487 11-09-2020 06:25:18 7.9 C 45 %
2488 11-09-2020 06:35:17 7.9 C 46 %
2489 11-09-2020 06:45:17 7.7 C 46 %
2490 11-09-2020 06:55:17 7.8 C 46 %
2491 11-09-2020 07:05:17 7.9 C 46 %
2492 11-09-2020 07:15:18 7.9 C 46 %
2493 11-09-2020 07:25:18 8.1 C 45 %
2494 11-09-2020 07:35:18 8 C 45 %
2495 11-09-2020 07:45:17 8 C 45 %
2496 11-09-2020 07:55:17 8.2 C 45 %
2497 11-09-2020 08:05:17 8.1 C 45 %
2498 11-09-2020 08:15:18 8.3 C 45 %
2499 11-09-2020 08:25:18 8.4 C 45 %
2500 11-09-2020 08:35:17 8.5 C 45 %
Sensor: Nr:Datum:Temp:Feuchte:
Aussen-T/F 2501 11-09-2020 08:45:18 8.7 C 45 %
2502 11-09-2020 08:55:18 9 C 45 %
2503 11-09-2020 09:05:17 9.3 C 43 %
2504 11-09-2020 09:15:17 9.6 C 43 %
2505 11-09-2020 09:25:17 9.8 C 43 %
2506 11-09-2020 09:35:18 10.1 C 42 %
2507 11-09-2020 09:45:17 10.4 C 42 %
2508 11-09-2020 09:55:18 10.7 C 42 %
2509 11-09-2020 10:05:18 11.2 C 40 %
2510 11-09-2020 10:15:17 11.6 C 40 %
2511 11-09-2020 10:25:17 12 C 39 %
2512 11-09-2020 10:35:17 12.5 C 38 %
2513 11-09-2020 10:45:17 13.1 C 37 %
2514 11-09-2020 10:55:17 13.7 C 37 %
2515 11-09-2020 11:05:18 14.3 C 35 %
2516 11-09-2020 11:15:17 14.8 C 34 %
2517 11-09-2020 11:25:17 15.5 C 32 %
2518 11-09-2020 11:35:17 16.3 C 31 %
2519 11-09-2020 11:45:17 16.8 C 31 %
2520 11-09-2020 11:55:17 17.4 C 30 %
2521 11-09-2020 12:05:17 17.9 C 30 %
2522 11-09-2020 12:15:17 18.4 C 29 %
2523 11-09-2020 12:25:17 19.3 C 26 %
2524 11-09-2020 12:35:17 18.7 C 27 %
2525 11-09-2020 12:45:17 18.7 C 27 %
Sensor: Nr:Datum:Temp:Feuchte:
Aussen-T/F 2526 11-09-2020 12:55:18 19 C 26 %
2527 11-09-2020 13:05:17 19.6 C 26 %
2528 11-09-2020 13:15:17 19.7 C 25 %
2529 11-09-2020 13:25:17 20 C 25 %
2530 11-09-2020 13:35:18 20.1 C 25 %
2531 11-09-2020 13:45:17 20.3 C 25 %
2532 11-09-2020 13:55:17 20.8 C 25 %
2533 11-09-2020 14:05:18 21 C 24 %
2534 11-09-2020 14:15:18 21.6 C 24 %
2535 11-09-2020 14:25:18 23.6 C 21 %
2536 11-09-2020 14:35:17 24.6 C 20 %
2537 11-09-2020 14:45:17 25.5 C 20 %
2538 11-09-2020 14:55:17 24.9 C 20 %
2539 11-09-2020 15:05:18 27.3 C 20 %
2540 11-09-2020 15:15:17 27.7 C 20 %
2541 11-09-2020 15:25:17 26.9 C 20 %
2542 11-09-2020 15:35:18 28 C 20 %
2543 11-09-2020 15:45:17 28.2 C 20 %
2544 11-09-2020 15:55:18 27.3 C 20 %
2545 11-09-2020 16:05:17 28.6 C 20 %
2546 11-09-2020 16:15:18 27.6 C 20 %
2547 11-09-2020 16:25:18 27.3 C 20 %
2548 11-09-2020 16:35:17 28.2 C 20 %
2549 11-09-2020 16:45:17 27.5 C 20 %
2550 11-09-2020 16:55:17 26.5 C 20 %
Sensor: Nr:Datum:Temp:Feuchte:
Aussen-T/F 2551 11-09-2020 17:05:17 27.5 C 20 %
2552 11-09-2020 17:15:17 26.8 C 20 %
2553 11-09-2020 17:25:17 26.7 C 20 %
2554 11-09-2020 17:35:17 27.1 C 20 %
2555 11-09-2020 17:45:18 25.6 C 20 %
2556 11-09-2020 17:55:18 24.8 C 20 %
2557 11-09-2020 18:05:18 24.1 C 20 %
2558 11-09-2020 18:15:17 24 C 20 %
2559 11-09-2020 18:25:17 23.9 C 20 %
2560 11-09-2020 18:35:17 23 C 21 %
2561 11-09-2020 18:45:17 22.5 C 23 %
2562 11-09-2020 18:55:17 21.9 C 25 %
2563 11-09-2020 19:05:18 21.2 C 25 %
2564 11-09-2020 19:15:17 20.7 C 25 %
2565 11-09-2020 19:25:17 20 C 26 %
2566 11-09-2020 19:35:17 19.8 C 26 %
2567 11-09-2020 19:45:17 19.4 C 26 %
2568 11-09-2020 19:55:17 19.2 C 26 %
2569 11-09-2020 20:05:17 18.7 C 27 %
2570 11-09-2020 20:15:17 18.3 C 27 %
2571 11-09-2020 20:25:17 17.6 C 29 %
2572 11-09-2020 20:35:17 17.4 C 30 %
2573 11-09-2020 20:45:17 16.9 C 30 %
2574 11-09-2020 20:55:17 17.1 C 30 %
2575 11-09-2020 21:05:18 16.6 C 30 %
Sensor: Nr:Datum:Temp:Feuchte:
Aussen-T/F 2576 11-09-2020 21:15:17 16 C 31 %
2577 11-09-2020 21:25:17 15.8 C 32 %
2578 11-09-2020 21:35:17 15.4 C 32 %
2579 11-09-2020 21:45:17 15 C 33 %
2580 11-09-2020 21:55:17 14.8 C 34 %
2581 11-09-2020 22:05:17 14.7 C 34 %
2582 11-09-2020 22:15:18 14.5 C 35 %
2583 11-09-2020 22:25:18 14.8 C 35 %
2584 11-09-2020 22:35:17 14.3 C 35 %
2585 11-09-2020 22:45:18 14 C 35 %
2586 11-09-2020 22:55:18 13.7 C 36 %
2587 11-09-2020 23:05:17 13.7 C 37 %
2588 11-09-2020 23:15:17 13.4 C 37 %
2589 11-09-2020 23:25:17 13.2 C 37 %
2590 11-09-2020 23:35:18 13.1 C 37 %
2591 11-09-2020 23:45:18 12.9 C 38 %
2592 11-09-2020 23:55:18 13 C 37 %
2593 12-09-2020 00:05:18 12.7 C 39 %
2594 12-09-2020 00:15:17 12.4 C 39 %
2595 12-09-2020 00:25:17 12.2 C 39 %
2596 12-09-2020 00:35:18 12.3 C 39 %
2597 12-09-2020 00:45:17 12.3 C 39 %
2598 12-09-2020 00:55:17 12.4 C 40 %
2599 12-09-2020 01:05:17 12.3 C 40 %
2600 12-09-2020 01:15:17 12.1 C 40 %
Sensor: Nr:Datum:Temp:Feuchte:
Aussen-T/F 2601 12-09-2020 01:25:17 12.1 C 40 %
2602 12-09-2020 01:35:17 12.1 C 39 %
2603 12-09-2020 01:45:17 12 C 40 %
2604 12-09-2020 01:55:17 11.7 C 40 %
2605 12-09-2020 02:05:18 11.3 C 41 %
2606 12-09-2020 02:15:17 11.3 C 42 %
2607 12-09-2020 02:25:17 11.1 C 41 %
2608 12-09-2020 02:35:18 11.1 C 42 %
2609 12-09-2020 02:45:18 11.2 C 43 %
2610 12-09-2020 02:55:18 11.2 C 42 %
2611 12-09-2020 03:05:17 11 C 42 %
2612 12-09-2020 03:15:17 10.7 C 43 %
2613 12-09-2020 03:25:18 10.7 C 44 %
2614 12-09-2020 03:35:17 10.8 C 44 %
2615 12-09-2020 03:45:17 10.7 C 43 %
2616 12-09-2020 03:55:18 10.5 C 44 %
2617 12-09-2020 04:05:18 10.7 C 44 %
2618 12-09-2020 04:15:17 10.4 C 44 %
2619 12-09-2020 04:25:17 10.2 C 44 %
2620 12-09-2020 04:35:18 10.3 C 45 %
2621 12-09-2020 04:45:17 10.3 C 45 %
2622 12-09-2020 04:55:17 10.2 C 45 %
2623 12-09-2020 05:05:17 10 C 45 %
2624 12-09-2020 05:15:18 9.8 C 45 %
2625 12-09-2020 05:25:18 9.8 C 45 %
Sensor: Nr:Datum:Temp:Feuchte:
Aussen-T/F 2626 12-09-2020 05:35:17 9.7 C 45 %
2627 12-09-2020 05:45:17 9.6 C 45 %
2628 12-09-2020 05:55:17 9.6 C 46 %
2629 12-09-2020 06:05:17 9.8 C 46 %
2630 12-09-2020 06:15:17 9.6 C 45 %
2631 12-09-2020 06:25:17 9.6 C 46 %
2632 12-09-2020 06:35:17 9.5 C 45 %
2633 12-09-2020 06:45:18 9.9 C 46 %
2634 12-09-2020 06:55:18 9.7 C 45 %
2635 12-09-2020 07:05:17 9.4 C 45 %
2636 12-09-2020 07:15:18 9.6 C 46 %
2637 12-09-2020 07:25:18 9.7 C 46 %
2638 12-09-2020 07:35:17 9.8 C 45 %
2639 12-09-2020 07:45:17 9.9 C 46 %
2640 12-09-2020 07:55:17 10 C 45 %
2641 12-09-2020 08:05:17 10.1 C 45 %
2642 12-09-2020 08:15:17 10.5 C 45 %
2643 12-09-2020 08:25:17 10.9 C 45 %
2644 12-09-2020 08:35:17 11.3 C 43 %
2645 12-09-2020 08:45:17 12 C 41 %
2646 12-09-2020 08:55:17 12.4 C 40 %
2647 12-09-2020 09:05:18 13.1 C 38 %
2648 12-09-2020 09:15:17 13.5 C 37 %
2649 12-09-2020 09:25:17 13.6 C 37 %
2650 12-09-2020 09:35:18 13.8 C 37 %
Sensor: Nr:Datum:Temp:Feuchte:
Aussen-T/F 2651 12-09-2020 09:45:17 14.3 C 36 %
2652 12-09-2020 09:55:17 14.7 C 36 %
2653 12-09-2020 10:05:18 14.8 C 35 %
2654 12-09-2020 10:15:17 14.9 C 35 %
2655 12-09-2020 10:25:18 15.3 C 35 %
2656 12-09-2020 10:35:18 15.9 C 34 %
2657 12-09-2020 10:45:17 17 C 32 %
2658 12-09-2020 10:55:17 17.5 C 32 %
2659 12-09-2020 11:05:18 17.7 C 32 %
2660 12-09-2020 11:15:17 18.1 C 32 %
2661 12-09-2020 11:25:17 18.3 C 31 %
2662 12-09-2020 11:35:17 18.9 C 31 %
2663 12-09-2020 11:45:17 19.6 C 30 %
2664 12-09-2020 11:55:17 20.5 C 30 %
2665 12-09-2020 12:05:18 20.7 C 30 %
2666 12-09-2020 12:15:17 20.7 C 29 %
2667 12-09-2020 12:25:17 21.8 C 27 %
2668 12-09-2020 12:35:18 22.2 C 26 %
2669 12-09-2020 12:45:17 22.1 C 26 %
2670 12-09-2020 12:55:18 23.6 C 24 %
2671 12-09-2020 13:05:17 24.2 C 23 %
2672 12-09-2020 13:15:18 24.9 C 21 %
2673 12-09-2020 13:25:18 25.3 C 21 %
2674 12-09-2020 13:35:18 25.6 C 21 %
2675 12-09-2020 13:45:17 25.8 C 21 %
Sensor: Nr:Datum:Temp:Feuchte:
Aussen-T/F 2676 12-09-2020 13:55:18 25.7 C 21 %
2677 12-09-2020 14:05:18 25.1 C 22 %
2678 12-09-2020 14:15:17 25.1 C 21 %
2679 12-09-2020 14:25:17 26.6 C 21 %
2680 12-09-2020 14:35:18 26.3 C 21 %
2681 12-09-2020 14:45:17 27.8 C 20 %
2682 12-09-2020 14:55:17 28.2 C 20 %
2683 12-09-2020 15:05:18 30.4 C 20 %
2684 12-09-2020 15:15:18 28.9 C 20 %
2685 12-09-2020 15:25:18 29.5 C 20 %
2686 12-09-2020 15:35:17 29.8 C 20 %
2687 12-09-2020 15:45:17 31.5 C 20 %
2688 12-09-2020 15:55:17 29.4 C 20 %
2689 12-09-2020 16:05:18 31.4 C 20 %
2690 12-09-2020 16:15:17 32.6 C 20 %
2691 12-09-2020 16:25:18 28.4 C 20 %
2692 12-09-2020 16:35:17 29.2 C 20 %
2693 12-09-2020 16:45:17 28.8 C 20 %
2694 12-09-2020 16:55:17 30.2 C 20 %
2695 12-09-2020 17:05:18 29.7 C 20 %
2696 12-09-2020 17:15:18 29.8 C 20 %
2697 12-09-2020 17:25:18 28.7 C 20 %
2698 12-09-2020 17:35:18 29 C 20 %
2699 12-09-2020 17:45:17 26.6 C 20 %
2700 12-09-2020 17:55:17 25.3 C 20 %
Sensor: Nr:Datum:Temp:Feuchte:
Aussen-T/F 2701 12-09-2020 18:05:18 25.2 C 21 %
2702 12-09-2020 18:15:17 24.9 C 21 %
2703 12-09-2020 18:25:17 24.9 C 21 %
2704 12-09-2020 18:35:18 24.4 C 21 %
2705 12-09-2020 18:45:17 24.1 C 21 %
2706 12-09-2020 18:55:17 23.8 C 22 %
2707 12-09-2020 19:05:18 23.5 C 23 %
2708 12-09-2020 19:15:17 23.1 C 23 %
2709 12-09-2020 19:25:17 22 C 25 %
2710 12-09-2020 19:35:17 20.5 C 28 %
2711 12-09-2020 19:45:17 19.9 C 30 %
2712 12-09-2020 19:55:17 19.7 C 29 %
2713 12-09-2020 20:05:18 19.3 C 30 %
2714 12-09-2020 20:15:18 19.2 C 30 %
2715 12-09-2020 20:25:18 19.5 C 29 %
2716 12-09-2020 20:35:17 19.3 C 29 %
2717 12-09-2020 20:45:18 18.2 C 30 %
2718 12-09-2020 20:55:18 18.9 C 29 %
2719 12-09-2020 21:05:18 18.7 C 29 %
2720 12-09-2020 21:15:17 17.9 C 30 %
2721 12-09-2020 21:25:17 18 C 29 %
2722 12-09-2020 21:35:17 17.6 C 30 %
2723 12-09-2020 21:45:18 17.3 C 30 %
2724 12-09-2020 21:55:18 17.1 C 30 %
2725 12-09-2020 22:05:17 17.2 C 30 %
Sensor: Nr:Datum:Temp:Feuchte:
Aussen-T/F 2726 12-09-2020 22:15:17 17.5 C 30 %
2727 12-09-2020 22:25:17 16.8 C 30 %
2728 12-09-2020 22:35:17 16.3 C 31 %
2729 12-09-2020 22:45:18 16.3 C 30 %
2730 12-09-2020 22:55:18 16.4 C 30 %
2731 12-09-2020 23:05:18 16.3 C 30 %
2732 12-09-2020 23:15:18 15.7 C 32 %
2733 12-09-2020 23:25:18 15.7 C 32 %
2734 12-09-2020 23:35:17 15.6 C 32 %
2735 12-09-2020 23:45:17 15.1 C 32 %
2736 12-09-2020 23:55:17 14.6 C 34 %
2737 13-09-2020 00:05:18 14.5 C 34 %
2738 13-09-2020 00:15:17 14 C 35 %
2739 13-09-2020 00:25:17 13.5 C 35 %
2740 13-09-2020 00:35:18 13 C 36 %
2741 13-09-2020 00:45:17 12.9 C 38 %
2742 13-09-2020 00:55:17 12.8 C 38 %
2743 13-09-2020 01:05:18 12.6 C 38 %
2744 13-09-2020 01:15:17 12.5 C 38 %
2745 13-09-2020 01:25:17 12.3 C 38 %
2746 13-09-2020 01:35:18 12.4 C 38 %
2747 13-09-2020 01:45:17 12.5 C 39 %
2748 13-09-2020 01:55:17 12.4 C 39 %
2749 13-09-2020 02:05:17 12.4 C 39 %
2750 13-09-2020 02:15:18 12 C 39 %
Sensor: Nr:Datum:Temp:Feuchte:
Aussen-T/F 2751 13-09-2020 02:25:18 11.7 C 40 %
2752 13-09-2020 02:35:17 11.4 C 41 %
2753 13-09-2020 02:45:17 11.5 C 42 %
2754 13-09-2020 02:55:17 11.4 C 42 %
2755 13-09-2020 03:05:17 11.3 C 41 %
2756 13-09-2020 03:15:17 11.3 C 42 %
2757 13-09-2020 03:25:17 11.1 C 42 %
2758 13-09-2020 03:35:17 11.2 C 42 %
2759 13-09-2020 03:45:17 11.1 C 41 %
2760 13-09-2020 03:55:17 11.2 C 42 %
2761 13-09-2020 04:05:17 11.2 C 42 %
2762 13-09-2020 04:15:17 11.1 C 42 %
2763 13-09-2020 04:25:17 11 C 42 %
2764 13-09-2020 04:35:18 11.2 C 42 %
2765 13-09-2020 04:45:17 10.7 C 43 %
2766 13-09-2020 04:55:17 10.8 C 44 %
2767 13-09-2020 05:05:18 10.7 C 44 %
2768 13-09-2020 05:15:17 10.5 C 43 %
2769 13-09-2020 05:25:17 10.4 C 45 %
2770 13-09-2020 05:35:17 10.1 C 44 %
2771 13-09-2020 05:45:17 10 C 45 %
2772 13-09-2020 05:55:17 9.9 C 45 %
2773 13-09-2020 06:05:17 9.9 C 46 %
2774 13-09-2020 06:15:17 10 C 44 %
2775 13-09-2020 06:25:17 9.7 C 45 %
Sensor: Nr:Datum:Temp:Feuchte:
Aussen-T/F 2776 13-09-2020 06:35:18 10.2 C 45 %
2777 13-09-2020 06:45:18 9.9 C 45 %
2778 13-09-2020 06:55:18 9.7 C 46 %
2779 13-09-2020 07:05:17 9.6 C 46 %
2780 13-09-2020 07:15:18 9.5 C 46 %
2781 13-09-2020 07:25:18 9.8 C 46 %
2782 13-09-2020 07:35:17 10 C 45 %
2783 13-09-2020 07:45:17 10 C 45 %
2784 13-09-2020 07:55:17 10.1 C 45 %
2785 13-09-2020 08:05:18 10.1 C 45 %
2786 13-09-2020 08:15:17 10.4 C 45 %
2787 13-09-2020 08:25:17 10.6 C 45 %
2788 13-09-2020 08:35:18 10.6 C 45 %
2789 13-09-2020 08:45:17 10.9 C 45 %
2790 13-09-2020 08:55:17 11.1 C 43 %
2791 13-09-2020 09:05:18 11.3 C 43 %
2792 13-09-2020 09:15:17 11.5 C 43 %
2793 13-09-2020 09:25:17 11.8 C 43 %
2794 13-09-2020 09:35:17 12.1 C 41 %
2795 13-09-2020 09:45:18 12.4 C 40 %
2796 13-09-2020 09:55:18 12.9 C 40 %
2797 13-09-2020 10:05:18 13 C 40 %
2798 13-09-2020 10:15:17 13.3 C 40 %
2799 13-09-2020 10:25:17 13.7 C 39 %
2800 13-09-2020 10:35:17 14.1 C 37 %
Sensor: Nr:Datum:Temp:Feuchte:
Aussen-T/F 2801 13-09-2020 10:45:18 14.7 C 37 %
2802 13-09-2020 10:55:18 15.2 C 36 %
2803 13-09-2020 11:05:18 15.6 C 35 %
2804 13-09-2020 11:15:18 16.1 C 34 %
2805 13-09-2020 11:25:18 16.7 C 33 %
2806 13-09-2020 11:35:17 17.4 C 32 %
2807 13-09-2020 11:45:17 17.9 C 32 %
2808 13-09-2020 11:55:17 19.5 C 31 %
2809 13-09-2020 12:05:17 18.9 C 31 %
2810 13-09-2020 12:15:17 19 C 31 %
2811 13-09-2020 12:25:17 20.9 C 30 %
2812 13-09-2020 12:35:18 19.9 C 30 %
2813 13-09-2020 12:45:17 20.1 C 29 %
2814 13-09-2020 12:55:17 20.7 C 29 %
2815 13-09-2020 13:05:18 20.9 C 28 %
2816 13-09-2020 13:15:17 21.3 C 27 %
2817 13-09-2020 13:25:17 21.7 C 27 %
2818 13-09-2020 13:35:18 22.1 C 25 %
2819 13-09-2020 13:45:17 22.3 C 26 %
2820 13-09-2020 13:55:18 22.7 C 25 %
2821 13-09-2020 14:05:18 22.9 C 25 %
2822 13-09-2020 14:15:17 23.8 C 24 %
2823 13-09-2020 14:25:17 25 C 22 %
2824 13-09-2020 14:35:17 26 C 20 %
2825 13-09-2020 14:45:17 27 C 20 %
Sensor: Nr:Datum:Temp:Feuchte:
Aussen-T/F 2826 13-09-2020 14:55:17 27.8 C 20 %
2827 13-09-2020 15:05:17 28.7 C 20 %
2828 13-09-2020 15:15:18 29.1 C 20 %
2829 13-09-2020 15:25:18 31.8 C 20 %
2830 13-09-2020 15:35:17 34.4 C 20 %
2831 13-09-2020 15:45:17 32.6 C 20 %
2832 13-09-2020 15:55:17 32.5 C 20 %
2833 13-09-2020 16:05:17 31.3 C 20 %
2834 13-09-2020 16:15:17 30.8 C 20 %
2835 13-09-2020 16:25:17 33 C 20 %
2836 13-09-2020 16:35:17 32.5 C 20 %
2837 13-09-2020 16:45:18 32.5 C 20 %
2838 13-09-2020 16:55:18 33 C 20 %
2839 13-09-2020 17:05:17 32.6 C 20 %
2840 13-09-2020 17:15:17 32.2 C 20 %
2841 13-09-2020 17:25:17 32.1 C 20 %
2842 13-09-2020 17:35:18 32.4 C 20 %
2843 13-09-2020 17:45:17 30.9 C 20 %
2844 13-09-2020 17:55:17 28.8 C 20 %
2845 13-09-2020 18:05:17 27 C 20 %
2846 13-09-2020 18:15:18 26.1 C 20 %
2847 13-09-2020 18:25:18 25.1 C 20 %
2848 13-09-2020 18:35:18 24.6 C 21 %
2849 13-09-2020 18:45:17 24.5 C 21 %
2850 13-09-2020 18:55:17 24.3 C 21 %
Sensor: Nr:Datum:Temp:Feuchte:
Aussen-T/F 2851 13-09-2020 19:05:17 23.8 C 21 %
2852 13-09-2020 19:15:17 23.6 C 21 %
2853 13-09-2020 19:25:17 23.4 C 21 %
2854 13-09-2020 19:35:17 23 C 21 %
2855 13-09-2020 19:45:17 22.4 C 22 %
2856 13-09-2020 19:55:17 21.7 C 24 %
2857 13-09-2020 20:05:18 20.7 C 25 %
2858 13-09-2020 20:15:17 20.2 C 26 %
2859 13-09-2020 20:25:17 20.3 C 26 %
2860 13-09-2020 20:35:17 19.5 C 27 %
2861 13-09-2020 20:45:17 18.9 C 28 %
2862 13-09-2020 20:55:17 19.1 C 27 %
2863 13-09-2020 21:05:17 18.5 C 28 %
2864 13-09-2020 21:15:17 18.2 C 28 %
2865 13-09-2020 21:25:17 17.9 C 30 %
2866 13-09-2020 21:35:18 17.2 C 30 %
2867 13-09-2020 21:45:17 16.8 C 31 %
2868 13-09-2020 21:55:17 16.8 C 31 %
2869 13-09-2020 22:05:18 16.6 C 31 %
2870 13-09-2020 22:15:17 16.1 C 31 %
2871 13-09-2020 22:25:17 15.9 C 32 %
2872 13-09-2020 22:35:18 15.8 C 32 %
2873 13-09-2020 22:45:18 15.4 C 33 %
2874 13-09-2020 22:55:18 15.1 C 33 %
2875 13-09-2020 23:05:17 15 C 34 %
Sensor: Nr:Datum:Temp:Feuchte:
Aussen-T/F 2876 13-09-2020 23:15:17 14.7 C 35 %
2877 13-09-2020 23:25:18 14.4 C 35 %
2878 13-09-2020 23:35:18 14.4 C 35 %
2879 13-09-2020 23:45:17 14.4 C 35 %
2880 13-09-2020 23:55:17 14.4 C 36 %
2881 14-09-2020 00:05:18 14.1 C 36 %
2882 14-09-2020 00:15:17 14 C 36 %
2883 14-09-2020 00:25:17 14 C 36 %
2884 14-09-2020 00:35:18 13.8 C 36 %
2885 14-09-2020 00:45:17 13.8 C 37 %
2886 14-09-2020 00:55:17 13.5 C 36 %
2887 14-09-2020 01:05:17 13.4 C 37 %
2888 14-09-2020 01:15:18 13.4 C 37 %
2889 14-09-2020 01:25:18 13.1 C 37 %
2890 14-09-2020 01:35:18 13 C 38 %
2891 14-09-2020 01:45:17 12.7 C 39 %
2892 14-09-2020 01:55:17 12.5 C 39 %
2893 14-09-2020 02:05:17 12.4 C 40 %
2894 14-09-2020 02:15:17 12.3 C 40 %
2895 14-09-2020 02:25:17 12.2 C 40 %
2896 14-09-2020 02:35:17 12.1 C 40 %
2897 14-09-2020 02:45:17 12.2 C 40 %
2898 14-09-2020 02:55:17 12 C 40 %
2899 14-09-2020 03:05:18 12 C 40 %
2900 14-09-2020 03:15:17 12 C 41 %
Sensor: Nr:Datum:Temp:Feuchte:
Aussen-T/F 2901 14-09-2020 03:25:17 11.7 C 42 %
2902 14-09-2020 03:35:17 11.5 C 42 %
2903 14-09-2020 03:45:17 11.5 C 42 %
2904 14-09-2020 03:55:17 11.2 C 42 %
2905 14-09-2020 04:05:17 11.1 C 43 %
2906 14-09-2020 04:15:18 11.2 C 43 %
2907 14-09-2020 04:25:18 11 C 42 %
2908 14-09-2020 04:35:18 10.8 C 44 %
2909 14-09-2020 04:45:17 10.9 C 44 %
2910 14-09-2020 04:55:17 10.8 C 44 %
2911 14-09-2020 05:05:17 10.7 C 44 %
2912 14-09-2020 05:15:17 10.7 C 45 %
2913 14-09-2020 05:25:17 10.8 C 44 %
2914 14-09-2020 05:35:18 10.5 C 44 %
2915 14-09-2020 05:45:17 10.5 C 45 %
2916 14-09-2020 05:55:17 10.3 C 45 %
2917 14-09-2020 06:05:17 10.3 C 45 %
2918 14-09-2020 06:15:17 10.2 C 45 %
2919 14-09-2020 06:25:17 10.2 C 45 %
2920 14-09-2020 06:35:18 10.1 C 45 %
2921 14-09-2020 06:45:17 9.9 C 45 %
2922 14-09-2020 06:55:17 10.1 C 45 %
2923 14-09-2020 07:05:17 10.3 C 45 %
2924 14-09-2020 07:15:17 10.1 C 45 %
2925 14-09-2020 07:25:17 10 C 45 %
Sensor: Nr:Datum:Temp:Feuchte:
Aussen-T/F 2926 14-09-2020 07:35:18 10.2 C 45 %
2927 14-09-2020 07:45:17 10.4 C 45 %
2928 14-09-2020 07:55:17 10.6 C 45 %
2929 14-09-2020 08:05:17 10.7 C 45 %
2930 14-09-2020 08:15:17 10.7 C 45 %
2931 14-09-2020 08:25:17 10.8 C 45 %
2932 14-09-2020 08:35:17 11 C 44 %
2933 14-09-2020 08:45:17 11.1 C 44 %
2934 14-09-2020 08:55:18 11.4 C 45 %
2935 14-09-2020 09:05:18 11.8 C 44 %
2936 14-09-2020 09:15:17 11.9 C 44 %
2937 14-09-2020 09:25:17 12.2 C 43 %
2938 14-09-2020 09:35:17 12.4 C 43 %
2939 14-09-2020 09:45:17 12.7 C 43 %
2940 14-09-2020 09:55:17 13.1 C 40 %
2941 14-09-2020 10:05:17 13.5 C 40 %
2942 14-09-2020 10:15:17 14.2 C 38 %
2943 14-09-2020 10:25:17 14.7 C 38 %
2944 14-09-2020 10:35:18 15 C 37 %
2945 14-09-2020 10:45:17 15.7 C 36 %
2946 14-09-2020 10:55:17 16.3 C 36 %
2947 14-09-2020 11:05:17 17.1 C 35 %
2948 14-09-2020 11:15:17 17.8 C 34 %
2949 14-09-2020 11:25:17 18.4 C 33 %
2950 14-09-2020 11:35:17 19.1 C 32 %
Sensor: Nr:Datum:Temp:Feuchte:
Aussen-T/F 2951 14-09-2020 11:45:18 20.2 C 31 %
2952 14-09-2020 11:55:18 21.8 C 29 %
2953 14-09-2020 12:05:18 21.4 C 29 %
2954 14-09-2020 12:15:18 22.1 C 28 %
2955 14-09-2020 12:25:18 22.9 C 28 %
2956 14-09-2020 12:35:17 23.3 C 27 %
2957 14-09-2020 12:45:17 23.8 C 26 %
2958 14-09-2020 12:55:18 25 C 25 %
2959 14-09-2020 13:05:18 25.4 C 24 %
2960 14-09-2020 13:15:18 25.8 C 24 %
2961 14-09-2020 13:25:18 26.2 C 23 %
2962 14-09-2020 13:35:18 26.3 C 23 %
2963 14-09-2020 13:45:17 26.9 C 22 %
2964 14-09-2020 13:55:17 27.2 C 22 %
2965 14-09-2020 14:05:17 28 C 21 %
2966 14-09-2020 14:15:17 28.9 C 20 %
2967 14-09-2020 14:25:17 29.3 C 20 %
2968 14-09-2020 14:35:18 31 C 20 %
2969 14-09-2020 14:45:18 31.5 C 20 %
2970 14-09-2020 14:55:18 31.1 C 20 %
2971 14-09-2020 15:05:17 31.8 C 20 %
2972 14-09-2020 15:15:17 32.3 C 20 %
2973 14-09-2020 15:25:17 34.8 C 20 %
2974 14-09-2020 15:35:18 34.8 C 20 %
2975 14-09-2020 15:45:18 33.3 C 20 %
Sensor: Nr:Datum:Temp:Feuchte:
Aussen-T/F 2976 14-09-2020 15:55:18 33.3 C 20 %
2977 14-09-2020 16:05:17 32.6 C 20 %
2978 14-09-2020 16:15:17 32.8 C 20 %
2979 14-09-2020 16:25:17 32.5 C 20 %
2980 14-09-2020 16:35:18 32.9 C 20 %
2981 14-09-2020 16:45:17 30.2 C 20 %
2982 14-09-2020 16:55:17 30.5 C 20 %
2983 14-09-2020 17:05:18 28.3 C 20 %
2984 14-09-2020 17:16:17 28.5 C 20 %
2985 14-09-2020 17:25:17 30.5 C 20 %
2986 14-09-2020 17:35:18 32.1 C 20 %
2987 14-09-2020 17:46:17 31.3 C 20 %
2988 14-09-2020 17:56:17 30 C 20 %
2989 14-09-2020 18:05:17 29.6 C 20 %
2990 14-09-2020 18:15:17 28.9 C 20 %
2991 14-09-2020 18:25:17 28.2 C 20 %
2992 14-09-2020 18:35:17 27.5 C 20 %
2993 14-09-2020 18:45:17 27 C 20 %
2994 14-09-2020 18:55:17 26.2 C 20 %
2995 14-09-2020 19:06:17 25.5 C 20 %
2996 14-09-2020 19:16:17 24.9 C 20 %
2997 14-09-2020 19:26:17 24.5 C 20 %
2998 14-09-2020 19:35:18 24.1 C 20 %
2999 14-09-2020 19:45:18 23.8 C 20 %
3000 14-09-2020 19:55:18 23.8 C 20 %
Sensor: Nr:Datum:Temp:Feuchte:
Aussen-T/F 3001 14-09-2020 20:05:18 22.8 C 22 %
3002 14-09-2020 20:16:17 22 C 23 %
3003 14-09-2020 20:26:17 21.2 C 25 %
3004 14-09-2020 20:36:17 20.7 C 26 %
3005 14-09-2020 20:46:17 20.4 C 27 %
3006 14-09-2020 20:56:17 20.3 C 27 %
3007 14-09-2020 21:05:18 20 C 28 %
3008 14-09-2020 21:15:18 19.5 C 29 %
3009 14-09-2020 21:25:18 19.4 C 30 %
3010 14-09-2020 21:35:18 19.1 C 30 %
3011 14-09-2020 21:45:18 19 C 30 %
3012 14-09-2020 21:55:18 18.4 C 30 %
3013 14-09-2020 22:06:17 18.3 C 31 %
3014 14-09-2020 22:15:17 18.1 C 31 %
3015 14-09-2020 22:25:18 17.9 C 32 %
3016 14-09-2020 22:35:18 17.7 C 32 %
3017 14-09-2020 22:45:18 17.4 C 33 %
3018 14-09-2020 22:55:18 17.1 C 33 %
3019 14-09-2020 23:06:17 16.8 C 34 %
3020 14-09-2020 23:16:17 16.5 C 35 %
3021 14-09-2020 23:26:17 16.6 C 35 %
3022 14-09-2020 23:35:18 16.6 C 35 %
3023 14-09-2020 23:45:18 16.5 C 35 %
3024 14-09-2020 23:55:18 16.2 C 35 %
3025 15-09-2020 00:06:17 15.9 C 35 %
Sensor: Nr:Datum:Temp:Feuchte:
Aussen-T/F 3026 15-09-2020 00:16:17 15.9 C 36 %
3027 15-09-2020 00:26:17 15.7 C 36 %
3028 15-09-2020 00:35:18 15.4 C 36 %
3029 15-09-2020 00:46:17 15.3 C 36 %
3030 15-09-2020 00:56:17 15.4 C 36 %
3031 15-09-2020 01:06:18 15.2 C 36 %
3032 15-09-2020 01:16:17 14.9 C 37 %
3033 15-09-2020 01:26:17 14.8 C 38 %
3034 15-09-2020 01:36:18 14.8 C 38 %
3035 15-09-2020 01:46:18 14.8 C 38 %
3036 15-09-2020 01:56:18 14.7 C 38 %
3037 15-09-2020 02:06:18 14.4 C 38 %
3038 15-09-2020 02:16:18 14.3 C 38 %
3039 15-09-2020 02:26:18 14.1 C 39 %
3040 15-09-2020 02:36:18 14.1 C 39 %
3041 15-09-2020 02:46:17 13.9 C 40 %
3042 15-09-2020 02:56:17 13.7 C 40 %
3043 15-09-2020 03:06:18 13.8 C 41 %
3044 15-09-2020 03:16:17 13.7 C 40 %
3045 15-09-2020 03:26:17 13.6 C 41 %
3046 15-09-2020 03:36:17 13.3 C 41 %
3047 15-09-2020 03:46:17 13.3 C 42 %
3048 15-09-2020 03:56:17 13.3 C 41 %
3049 15-09-2020 04:06:17 13 C 41 %
3050 15-09-2020 04:16:18 12.8 C 42 %
Sensor: Nr:Datum:Temp:Feuchte:
Aussen-T/F 3051 15-09-2020 04:26:18 12.8 C 42 %
3052 15-09-2020 04:36:17 12.8 C 43 %
3053 15-09-2020 04:46:17 12.4 C 43 %
3054 15-09-2020 04:56:17 12.5 C 43 %
3055 15-09-2020 05:06:17 12.5 C 44 %
3056 15-09-2020 05:16:17 12.5 C 43 %
3057 15-09-2020 05:26:17 12.4 C 44 %
3058 15-09-2020 05:36:18 12.4 C 44 %
3059 15-09-2020 05:46:17 12.2 C 43 %
3060 15-09-2020 05:56:18 12 C 43 %
3061 15-09-2020 06:06:18 11.9 C 45 %
3062 15-09-2020 06:16:17 11.9 C 45 %
3063 15-09-2020 06:26:17 11.8 C 45 %
3064 15-09-2020 06:36:17 11.7 C 45 %
3065 15-09-2020 06:46:17 11.7 C 45 %
3066 15-09-2020 06:56:17 11.5 C 45 %
3067 15-09-2020 07:06:17 11.4 C 45 %
3068 15-09-2020 07:16:17 11.5 C 45 %
3069 15-09-2020 07:26:17 11.6 C 45 %
3070 15-09-2020 07:36:17 11.7 C 45 %
3071 15-09-2020 07:46:17 12 C 44 %
3072 15-09-2020 07:56:17 11.9 C 45 %
3073 15-09-2020 08:06:17 12 C 44 %
3074 15-09-2020 08:16:17 12.1 C 44 %
3075 15-09-2020 08:26:18 12.2 C 44 %
Sensor: Nr:Datum:Temp:Feuchte:
Aussen-T/F 3076 15-09-2020 08:36:18 12.4 C 44 %
3077 15-09-2020 08:46:18 12.5 C 44 %
3078 15-09-2020 08:56:18 13 C 43 %
3079 15-09-2020 09:06:18 13.2 C 43 %
3080 15-09-2020 09:16:17 13.5 C 43 %
3081 15-09-2020 09:26:17 13.7 C 43 %
3082 15-09-2020 09:36:18 14 C 42 %
3083 15-09-2020 09:46:18 14.3 C 42 %
3084 15-09-2020 09:56:18 14.7 C 42 %
3085 15-09-2020 10:06:18 15.2 C 40 %
3086 15-09-2020 10:16:17 15.6 C 40 %
3087 15-09-2020 10:26:17 16 C 39 %
3088 15-09-2020 10:36:17 16.6 C 38 %
3089 15-09-2020 10:46:18 17 C 36 %
3090 15-09-2020 10:56:18 17.5 C 36 %
3091 15-09-2020 11:06:18 18.1 C 35 %
3092 15-09-2020 11:16:17 18.5 C 35 %
3093 15-09-2020 11:26:17 19.2 C 34 %
3094 15-09-2020 11:36:18 19.6 C 34 %
3095 15-09-2020 11:46:17 20.8 C 32 %
3096 15-09-2020 11:56:17 21.7 C 30 %
3097 15-09-2020 12:06:18 21.3 C 30 %
3098 15-09-2020 12:16:17 22.6 C 29 %
3099 15-09-2020 12:26:17 22.9 C 29 %
3100 15-09-2020 12:36:17 22.9 C 29 %
Sensor: Nr:Datum:Temp:Feuchte:
Aussen-T/F 3101 15-09-2020 12:46:17 23.1 C 28 %
3102 15-09-2020 12:56:17 23.8 C 28 %
3103 15-09-2020 13:06:17 24.5 C 27 %
3104 15-09-2020 13:16:18 25.3 C 26 %
3105 15-09-2020 13:26:18 26 C 25 %
3106 15-09-2020 13:36:17 26.8 C 22 %
3107 15-09-2020 13:46:18 27.4 C 21 %
3108 15-09-2020 13:56:18 27.9 C 20 %
3109 15-09-2020 14:06:17 28.8 C 20 %
3110 15-09-2020 14:16:18 29.2 C 20 %
3111 15-09-2020 14:26:18 29.9 C 20 %
3112 15-09-2020 14:36:17 31.1 C 20 %
3113 15-09-2020 14:46:17 32.2 C 20 %
3114 15-09-2020 14:56:17 31.5 C 20 %
3115 15-09-2020 15:06:17 32.2 C 20 %
3116 15-09-2020 15:16:18 33.6 C 20 %
3117 15-09-2020 15:26:18 36.1 C 20 %
3118 15-09-2020 15:36:17 36.4 C 20 %
3119 15-09-2020 15:46:17 36.6 C 20 %
3120 15-09-2020 15:56:17 37.6 C 20 %
3121 15-09-2020 16:06:18 37.6 C 20 %
3122 15-09-2020 16:16:17 38 C 20 %
3123 15-09-2020 16:26:17 39 C 20 %
3124 15-09-2020 16:36:17 37.5 C 20 %
3125 15-09-2020 16:46:17 39.2 C 20 %
Sensor: Nr:Datum:Temp:Feuchte:
Aussen-T/F 3126 15-09-2020 16:56:17 38.2 C 20 %
3127 15-09-2020 17:06:17 37.2 C 20 %
3128 15-09-2020 17:16:18 37.7 C 20 %
3129 15-09-2020 17:26:18 36.8 C 20 %
3130 15-09-2020 17:36:17 34.9 C 20 %
3131 15-09-2020 17:46:17 33.3 C 20 %
3132 15-09-2020 17:56:17 32.5 C 20 %
3133 15-09-2020 18:06:18 31.1 C 20 %
3134 15-09-2020 18:16:17 30.1 C 20 %
3135 15-09-2020 18:26:18 29.6 C 20 %
3136 15-09-2020 18:36:18 29 C 20 %
3137 15-09-2020 18:46:17 28.5 C 20 %
3138 15-09-2020 18:56:17 28.1 C 20 %
3139 15-09-2020 19:06:17 27.5 C 20 %
3140 15-09-2020 19:16:17 26.9 C 20 %
3141 15-09-2020 19:26:17 26.8 C 20 %
3142 15-09-2020 19:36:17 26.1 C 20 %
3143 15-09-2020 19:46:17 26 C 20 %
3144 15-09-2020 19:56:17 25.3 C 20 %
3145 15-09-2020 20:06:17 24.6 C 20 %
3146 15-09-2020 20:16:17 24.1 C 20 %
3147 15-09-2020 20:26:17 23.3 C 21 %
3148 15-09-2020 20:36:18 23.4 C 21 %
3149 15-09-2020 20:46:17 23.2 C 21 %
3150 15-09-2020 20:56:17 22.4 C 23 %
Sensor: Nr:Datum:Temp:Feuchte:
Aussen-T/F 3151 15-09-2020 21:06:17 22 C 24 %
3152 15-09-2020 21:16:17 21.6 C 25 %
3153 15-09-2020 21:26:17 21.3 C 25 %
3154 15-09-2020 21:36:18 21.3 C 26 %
3155 15-09-2020 21:46:17 20.8 C 28 %
3156 15-09-2020 21:56:18 20.7 C 28 %
3157 15-09-2020 22:06:17 20.6 C 28 %
3158 15-09-2020 22:16:17 20.6 C 28 %
3159 15-09-2020 22:26:17 20.1 C 28 %
3160 15-09-2020 22:36:17 19.5 C 30 %
3161 15-09-2020 22:46:18 19.3 C 30 %
3162 15-09-2020 22:56:18 18.8 C 31 %
3163 15-09-2020 23:06:18 18.8 C 31 %
3164 15-09-2020 23:16:18 19 C 31 %
3165 15-09-2020 23:26:18 18.5 C 31 %
3166 15-09-2020 23:36:17 18.2 C 32 %
3167 15-09-2020 23:46:18 18.1 C 32 %
3168 15-09-2020 23:56:18 18.2 C 32 %
3169 16-09-2020 00:06:18 18.1 C 32 %
3170 16-09-2020 00:16:17 17.9 C 32 %
3171 16-09-2020 00:26:17 17.7 C 32 %
3172 16-09-2020 00:36:18 17.6 C 33 %
3173 16-09-2020 00:46:17 17.8 C 33 %
3174 16-09-2020 00:56:17 17.7 C 32 %
3175 16-09-2020 01:06:18 17 C 34 %
Sensor: Nr:Datum:Temp:Feuchte:
Aussen-T/F 3176 16-09-2020 01:16:17 16.7 C 34 %
3177 16-09-2020 01:26:17 16.6 C 35 %
3178 16-09-2020 01:36:18 16.2 C 35 %
3179 16-09-2020 01:46:17 16.3 C 35 %
3180 16-09-2020 01:56:17 15.7 C 36 %
3181 16-09-2020 02:06:18 15.6 C 36 %
3182 16-09-2020 02:16:17 15.6 C 37 %
3183 16-09-2020 02:26:17 16.1 C 36 %
3184 16-09-2020 02:36:17 15.6 C 36 %
3185 16-09-2020 02:46:17 15.4 C 37 %
3186 16-09-2020 02:56:17 15.4 C 37 %
3187 16-09-2020 03:06:17 15.1 C 37 %
3188 16-09-2020 03:16:17 15.1 C 37 %
3189 16-09-2020 03:26:17 15.1 C 37 %
3190 16-09-2020 03:36:18 14.9 C 38 %
3191 16-09-2020 03:46:17 14.7 C 39 %
3192 16-09-2020 03:56:17 14.5 C 39 %
3193 16-09-2020 04:06:17 14.8 C 39 %
3194 16-09-2020 04:16:17 14.7 C 39 %
3195 16-09-2020 04:26:17 14.4 C 39 %
3196 16-09-2020 04:36:17 14.5 C 39 %
3197 16-09-2020 04:46:17 14.2 C 40 %
3198 16-09-2020 04:56:17 14.1 C 40 %
3199 16-09-2020 05:06:17 14.1 C 40 %
3200 16-09-2020 05:16:17 13.8 C 41 %
Sensor: Nr:Datum:Temp:Feuchte:
Aussen-T/F 3201 16-09-2020 05:26:17 14 C 41 %
3202 16-09-2020 05:36:18 14.1 C 40 %
3203 16-09-2020 05:46:18 14.2 C 40 %
3204 16-09-2020 05:56:18 14 C 41 %
3205 16-09-2020 06:06:17 13.9 C 41 %
3206 16-09-2020 06:16:17 14 C 40 %
3207 16-09-2020 06:26:17 14 C 40 %
3208 16-09-2020 06:36:18 13.7 C 41 %
3209 16-09-2020 06:46:17 13.7 C 42 %
3210 16-09-2020 06:56:17 13.8 C 42 %
3211 16-09-2020 07:06:17 13.5 C 42 %
3212 16-09-2020 07:16:17 13.8 C 42 %
3213 16-09-2020 07:26:17 13.8 C 41 %
3214 16-09-2020 07:36:17 14.2 C 41 %
3215 16-09-2020 07:46:18 14.3 C 40 %
3216 16-09-2020 07:56:18 14.2 C 40 %
3217 16-09-2020 08:06:17 14.1 C 40 %
3218 16-09-2020 08:16:17 14.1 C 40 %
3219 16-09-2020 08:26:17 14.2 C 41 %
3220 16-09-2020 08:36:17 14.4 C 41 %
3221 16-09-2020 08:46:17 14.8 C 40 %
3222 16-09-2020 08:56:17 15 C 39 %
3223 16-09-2020 09:06:18 15.3 C 38 %
3224 16-09-2020 09:16:17 15.8 C 37 %
3225 16-09-2020 09:26:17 16.2 C 36 %
Sensor: Nr:Datum:Temp:Feuchte:
Aussen-T/F 3226 16-09-2020 09:36:18 16.8 C 36 %
3227 16-09-2020 09:46:17 17.4 C 35 %
3228 16-09-2020 09:56:17 18.2 C 34 %
3229 16-09-2020 10:06:18 19.1 C 33 %
3230 16-09-2020 10:16:17 19.5 C 32 %
3231 16-09-2020 10:26:17 20 C 32 %
3232 16-09-2020 10:36:17 20.5 C 31 %
3233 16-09-2020 10:46:17 20.5 C 31 %
3234 16-09-2020 10:56:17 20.7 C 31 %
3235 16-09-2020 11:06:17 21.2 C 30 %
3236 16-09-2020 11:16:17 21.6 C 30 %
3237 16-09-2020 11:26:17 22.2 C 28 %
3238 16-09-2020 11:36:17 22.9 C 28 %
3239 16-09-2020 11:46:17 23.8 C 26 %
3240 16-09-2020 11:56:17 23.7 C 26 %
3241 16-09-2020 12:06:18 24.1 C 26 %
3242 16-09-2020 12:16:17 25.3 C 25 %
3243 16-09-2020 12:26:17 25.3 C 25 %
3244 16-09-2020 12:36:18 24.9 C 25 %
3245 16-09-2020 12:46:18 25.3 C 25 %
3246 16-09-2020 12:56:18 25.6 C 25 %
3247 16-09-2020 13:06:18 24.9 C 25 %
3248 16-09-2020 13:16:18 25 C 25 %
3249 16-09-2020 13:26:18 24.8 C 25 %
3250 16-09-2020 13:36:17 24.4 C 26 %
Sensor: Nr:Datum:Temp:Feuchte:
Aussen-T/F 3251 16-09-2020 13:46:17 24.1 C 26 %
3252 16-09-2020 13:56:17 24.9 C 26 %
3253 16-09-2020 14:06:18 26.6 C 24 %
3254 16-09-2020 14:16:17 27.8 C 22 %
3255 16-09-2020 14:26:17 29.4 C 20 %
3256 16-09-2020 14:36:18 30 C 20 %
3257 16-09-2020 14:46:17 30.6 C 20 %
3258 16-09-2020 14:56:17 30 C 20 %
3259 16-09-2020 15:06:17 29.9 C 20 %
3260 16-09-2020 15:16:17 29.8 C 20 %
3261 16-09-2020 15:26:17 30 C 20 %
3262 16-09-2020 15:36:17 31.2 C 20 %
3263 16-09-2020 15:46:17 31.5 C 20 %
3264 16-09-2020 15:56:17 32.1 C 20 %
3265 16-09-2020 16:06:18 34.4 C 20 %
3266 16-09-2020 16:16:17 34 C 20 %
3267 16-09-2020 16:26:17 34.3 C 20 %
3268 16-09-2020 16:36:17 34.2 C 20 %
3269 16-09-2020 16:46:17 33.9 C 20 %
3270 16-09-2020 16:56:17 31.5 C 20 %
3271 16-09-2020 17:06:18 31.2 C 20 %
3272 16-09-2020 17:16:18 29.3 C 20 %
3273 16-09-2020 17:26:18 28.1 C 20 %
3274 16-09-2020 17:36:17 27.6 C 21 %
3275 16-09-2020 17:46:17 27.3 C 21 %
Sensor: Nr:Datum:Temp:Feuchte:
Aussen-T/F 3276 16-09-2020 17:56:17 27 C 21 %
3277 16-09-2020 18:06:18 27.3 C 21 %
3278 16-09-2020 18:16:17 27.4 C 21 %
3279 16-09-2020 18:26:17 26.7 C 22 %
3280 16-09-2020 18:36:17 26.4 C 22 %
3281 16-09-2020 18:46:17 26.1 C 22 %
3282 16-09-2020 18:56:17 25.9 C 23 %
3283 16-09-2020 19:06:17 25.4 C 23 %
3284 16-09-2020 19:16:17 25.3 C 24 %
3285 16-09-2020 19:26:17 24.9 C 25 %
3286 16-09-2020 19:36:17 24.4 C 25 %
3287 16-09-2020 19:46:17 23.9 C 26 %
3288 16-09-2020 19:56:17 23.4 C 26 %
3289 16-09-2020 20:06:17 22.8 C 28 %
3290 16-09-2020 20:16:17 22.5 C 28 %
3291 16-09-2020 20:26:17 22 C 28 %
3292 16-09-2020 20:36:17 22.2 C 28 %
3293 16-09-2020 20:46:18 22 C 28 %
3294 16-09-2020 20:56:18 21.6 C 30 %
3295 16-09-2020 21:06:17 21.8 C 30 %
3296 16-09-2020 21:16:17 22.1 C 28 %
3297 16-09-2020 21:26:17 22.4 C 28 %
3298 16-09-2020 21:36:18 21.4 C 30 %
3299 16-09-2020 21:46:17 22.1 C 28 %
3300 16-09-2020 21:56:17 22.3 C 28 %
Sensor: Nr:Datum:Temp:Feuchte:
Aussen-T/F 3301 16-09-2020 22:06:17 22.3 C 28 %
3302 16-09-2020 22:16:17 21.7 C 29 %
3303 16-09-2020 22:26:17 21.5 C 29 %
3304 16-09-2020 22:36:17 21.8 C 29 %
3305 16-09-2020 22:46:18 21.8 C 29 %
3306 16-09-2020 22:56:18 21.4 C 29 %
3307 16-09-2020 23:06:17 20.6 C 30 %
3308 16-09-2020 23:16:17 20.6 C 30 %
3309 16-09-2020 23:26:17 20.1 C 30 %
3310 16-09-2020 23:36:17 20.3 C 30 %
3311 16-09-2020 23:46:18 20.6 C 30 %
3312 16-09-2020 23:56:18 20.2 C 30 %
3313 17-09-2020 00:06:18 20.6 C 30 %
3314 17-09-2020 00:16:18 20.6 C 30 %
3315 17-09-2020 00:26:18 20.6 C 30 %
3316 17-09-2020 00:36:18 20.6 C 30 %
3317 17-09-2020 00:46:17 20.6 C 30 %
3318 17-09-2020 00:56:17 20.4 C 30 %
3319 17-09-2020 01:06:18 20.2 C 30 %
3320 17-09-2020 01:16:17 20 C 30 %
3321 17-09-2020 01:26:17 19.6 C 30 %
3322 17-09-2020 01:36:17 19.6 C 30 %
3323 17-09-2020 01:46:18 19.4 C 30 %
3324 17-09-2020 01:56:18 18.5 C 31 %
3325 17-09-2020 02:06:17 18.1 C 31 %
Sensor: Nr:Datum:Temp:Feuchte:
Aussen-T/F 3326 17-09-2020 02:16:18 18.4 C 31 %
3327 17-09-2020 02:26:18 18.3 C 31 %
3328 17-09-2020 02:36:17 18 C 31 %
3329 17-09-2020 02:46:17 17.6 C 32 %
3330 17-09-2020 02:56:17 17.2 C 33 %
3331 17-09-2020 03:06:17 16.9 C 33 %
3332 17-09-2020 03:16:17 16.6 C 35 %
3333 17-09-2020 03:26:17 16.2 C 35 %
3334 17-09-2020 03:36:18 16.4 C 35 %
3335 17-09-2020 03:46:17 16.6 C 35 %
3336 17-09-2020 03:56:17 16.7 C 35 %
3337 17-09-2020 04:06:18 17.3 C 34 %
3338 17-09-2020 04:16:17 17.4 C 34 %
3339 17-09-2020 04:26:17 17.5 C 34 %
3340 17-09-2020 04:36:17 17.5 C 33 %
3341 17-09-2020 04:46:17 17.5 C 33 %
3342 17-09-2020 04:56:17 17.3 C 33 %
3343 17-09-2020 05:06:18 17 C 33 %
3344 17-09-2020 05:16:18 16.8 C 34 %
3345 17-09-2020 05:26:18 16.9 C 34 %
3346 17-09-2020 05:36:18 17 C 33 %
3347 17-09-2020 05:46:17 17 C 33 %
3348 17-09-2020 05:56:17 17 C 33 %
3349 17-09-2020 06:06:17 17 C 33 %
3350 17-09-2020 06:16:17 16.9 C 34 %
Sensor: Nr:Datum:Temp:Feuchte:
Aussen-T/F 3351 17-09-2020 06:26:17 16.8 C 33 %
3352 17-09-2020 06:36:18 16.8 C 33 %
3353 17-09-2020 06:46:18 16.8 C 33 %
3354 17-09-2020 06:56:18 16.8 C 33 %
3355 17-09-2020 07:06:17 16.8 C 33 %
3356 17-09-2020 07:16:17 16.7 C 33 %
3357 17-09-2020 07:26:17 16.3 C 34 %
3358 17-09-2020 07:36:17 16.3 C 34 %
3359 17-09-2020 07:46:17 16.3 C 34 %
3360 17-09-2020 07:56:17 16.2 C 34 %
3361 17-09-2020 08:06:18 16.3 C 33 %
3362 17-09-2020 08:16:17 16.2 C 33 %
3363 17-09-2020 08:26:17 16.2 C 33 %
3364 17-09-2020 08:36:18 16.2 C 33 %
3365 17-09-2020 08:46:18 15.8 C 33 %
3366 17-09-2020 08:56:18 15.8 C 33 %
3367 17-09-2020 09:06:18 15.7 C 33 %
3368 17-09-2020 09:16:17 15.9 C 33 %
3369 17-09-2020 09:26:17 15.8 C 33 %
3370 17-09-2020 09:36:17 15.9 C 32 %
3371 17-09-2020 09:46:17 16.2 C 32 %
3372 17-09-2020 09:56:17 16.5 C 32 %
3373 17-09-2020 10:06:17 17.2 C 31 %
3374 17-09-2020 10:16:17 16.3 C 30 %
3375 17-09-2020 10:26:17 16 C 29 %
Sensor: Nr:Datum:Temp:Feuchte:
Aussen-T/F 3376 17-09-2020 10:36:18 16.1 C 30 %
3377 17-09-2020 10:46:18 16.1 C 29 %
3378 17-09-2020 10:56:18 16.2 C 29 %
3379 17-09-2020 11:06:17 16.4 C 29 %
3380 17-09-2020 11:16:17 16.6 C 28 %
3381 17-09-2020 11:26:17 16.5 C 28 %
3382 17-09-2020 11:36:18 16.6 C 28 %
3383 17-09-2020 11:46:17 17.5 C 28 %
3384 17-09-2020 11:56:17 17.2 C 28 %
3385 17-09-2020 12:06:18 17.4 C 28 %
3386 17-09-2020 12:16:17 18 C 26 %
3387 17-09-2020 12:26:18 17.5 C 27 %
3388 17-09-2020 12:36:18 17.7 C 27 %
3389 17-09-2020 12:46:17 18.1 C 27 %
3390 17-09-2020 12:56:17 18.3 C 26 %
3391 17-09-2020 13:06:18 18.3 C 26 %
3392 17-09-2020 13:16:17 18.6 C 25 %
3393 17-09-2020 13:26:17 18.8 C 25 %
3394 17-09-2020 13:36:18 19.1 C 24 %
3395 17-09-2020 13:46:17 19.3 C 24 %
3396 17-09-2020 13:56:17 19.8 C 23 %
3397 17-09-2020 14:06:17 20.4 C 21 %
3398 17-09-2020 14:16:17 20.6 C 21 %
3399 17-09-2020 14:26:18 21 C 20 %
3400 17-09-2020 14:36:18 21.3 C 20 %
Sensor: Nr:Datum:Temp:Feuchte:
Aussen-T/F 3401 17-09-2020 14:46:17 21.6 C 20 %
3402 17-09-2020 14:56:17 21.5 C 20 %
3403 17-09-2020 15:06:18 23.3 C 20 %
3404 17-09-2020 15:16:17 22.6 C 20 %
3405 17-09-2020 15:26:17 24.1 C 20 %
3406 17-09-2020 15:36:18 25 C 20 %
3407 17-09-2020 15:46:18 25.8 C 20 %
3408 17-09-2020 15:56:18 26 C 20 %
3409 17-09-2020 16:06:17 25.1 C 20 %
3410 17-09-2020 16:16:18 24.8 C 20 %
3411 17-09-2020 16:26:18 25.5 C 20 %
3412 17-09-2020 16:36:18 24.5 C 20 %
3413 17-09-2020 16:46:18 25.4 C 20 %
3414 17-09-2020 16:56:18 24.7 C 20 %
3415 17-09-2020 17:06:17 24.1 C 20 %
3416 17-09-2020 17:16:17 23.9 C 20 %
3417 17-09-2020 17:26:17 24.1 C 20 %
3418 17-09-2020 17:36:17 23 C 20 %
3419 17-09-2020 17:46:17 21.9 C 20 %
3420 17-09-2020 17:56:17 21.8 C 20 %
3421 17-09-2020 18:06:18 21.6 C 20 %
3422 17-09-2020 18:16:18 21.5 C 20 %
3423 17-09-2020 18:26:18 21.4 C 20 %
3424 17-09-2020 18:36:18 21 C 20 %
3425 17-09-2020 18:46:17 20.8 C 20 %
Sensor: Nr:Datum:Temp:Feuchte:
Aussen-T/F 3426 17-09-2020 18:56:17 20.4 C 20 %
3427 17-09-2020 19:06:18 20 C 20 %
3428 17-09-2020 19:16:18 19.3 C 20 %
3429 17-09-2020 19:26:18 18.3 C 21 %
3430 17-09-2020 19:36:18 17.5 C 22 %
3431 17-09-2020 19:46:17 16.7 C 23 %
3432 17-09-2020 19:56:17 16.4 C 24 %
3433 17-09-2020 20:06:18 16.4 C 24 %
3434 17-09-2020 20:16:17 16.1 C 25 %
3435 17-09-2020 20:26:17 16 C 25 %
3436 17-09-2020 20:36:17 16 C 25 %
3437 17-09-2020 20:46:18 15.7 C 25 %
3438 17-09-2020 20:56:18 15.5 C 25 %
3439 17-09-2020 21:06:17 15.2 C 25 %
3440 17-09-2020 21:16:18 14.8 C 27 %
3441 17-09-2020 21:26:18 14.9 C 27 %
3442 17-09-2020 21:36:18 14.7 C 27 %
3443 17-09-2020 21:46:17 14.7 C 27 %
3444 17-09-2020 21:56:17 15.1 C 27 %
3445 17-09-2020 22:06:17 15.2 C 26 %
3446 17-09-2020 22:16:18 14.7 C 27 %
3447 17-09-2020 22:26:18 13.9 C 29 %
3448 17-09-2020 22:36:18 13.8 C 29 %
3449 17-09-2020 22:46:18 14 C 28 %
3450 17-09-2020 22:56:18 13.7 C 30 %
Sensor: Nr:Datum:Temp:Feuchte:
Aussen-T/F 3451 17-09-2020 23:06:17 13.6 C 30 %
3452 17-09-2020 23:16:17 13.7 C 30 %
3453 17-09-2020 23:26:17 13.2 C 30 %
3454 17-09-2020 23:36:18 13 C 30 %
3455 17-09-2020 23:46:18 12.9 C 31 %
3456 17-09-2020 23:56:18 13 C 30 %
3457 18-09-2020 00:06:17 12.8 C 31 %
3458 18-09-2020 00:16:17 12.5 C 31 %
3459 18-09-2020 00:26:17 12.3 C 31 %
3460 18-09-2020 00:36:18 12.4 C 32 %
3461 18-09-2020 00:46:17 12.5 C 31 %
3462 18-09-2020 00:56:17 12.3 C 32 %
3463 18-09-2020 01:06:18 12.4 C 32 %
3464 18-09-2020 01:16:18 12.1 C 32 %
3465 18-09-2020 01:26:18 11.8 C 33 %
3466 18-09-2020 01:36:17 11.8 C 33 %
3467 18-09-2020 01:46:17 13 C 31 %
3468 18-09-2020 01:56:17 13 C 30 %
3469 18-09-2020 02:06:17 13 C 30 %
3470 18-09-2020 02:16:17 12.2 C 31 %
3471 18-09-2020 02:26:18 11.6 C 33 %
3472 18-09-2020 02:36:18 11.4 C 33 %
3473 18-09-2020 02:46:17 11.5 C 33 %
3474 18-09-2020 02:56:17 11.2 C 33 %
3475 18-09-2020 03:06:17 11.4 C 33 %
Sensor: Nr:Datum:Temp:Feuchte:
Aussen-T/F 3476 18-09-2020 03:16:17 11.2 C 33 %
3477 18-09-2020 03:26:17 10.7 C 35 %
3478 18-09-2020 03:36:18 10.6 C 35 %
3479 18-09-2020 03:46:17 10.5 C 35 %
3480 18-09-2020 03:56:17 10.5 C 35 %
3481 18-09-2020 04:06:17 10.2 C 35 %
3482 18-09-2020 04:16:17 10.2 C 35 %
3483 18-09-2020 04:26:17 10.1 C 35 %
3484 18-09-2020 04:36:18 10.2 C 35 %
3485 18-09-2020 04:46:17 10 C 35 %
3486 18-09-2020 04:56:17 9.8 C 36 %
3487 18-09-2020 05:06:18 9.6 C 36 %
3488 18-09-2020 05:16:17 9.3 C 37 %
3489 18-09-2020 05:26:17 9.3 C 37 %
3490 18-09-2020 05:36:17 9.4 C 36 %
3491 18-09-2020 05:46:17 9.1 C 37 %
3492 18-09-2020 05:56:17 8.8 C 38 %
3493 18-09-2020 06:06:17 8.9 C 38 %
3494 18-09-2020 06:16:17 9 C 37 %
3495 18-09-2020 06:26:17 8.9 C 38 %
3496 18-09-2020 06:36:18 8.7 C 38 %
3497 18-09-2020 06:46:18 8.9 C 38 %
3498 18-09-2020 06:56:18 9 C 37 %
3499 18-09-2020 07:06:17 9.1 C 37 %
3500 18-09-2020 07:16:17 9.2 C 37 %
Sensor: Nr:Datum:Temp:Feuchte:
Aussen-T/F 3501 18-09-2020 07:26:17 9.3 C 37 %
3502 18-09-2020 07:36:17 9.8 C 37 %
3503 18-09-2020 07:46:18 9.9 C 37 %
3504 18-09-2020 07:56:18 10.2 C 36 %
3505 18-09-2020 08:06:17 10.2 C 36 %
3506 18-09-2020 08:16:17 10.4 C 36 %
3507 18-09-2020 08:26:17 10.5 C 36 %
3508 18-09-2020 08:36:18 10.5 C 36 %
3509 18-09-2020 08:46:17 10.6 C 36 %
3510 18-09-2020 08:56:17 10.8 C 36 %
3511 18-09-2020 09:06:18 11 C 35 %
3512 18-09-2020 09:16:17 11.2 C 35 %
3513 18-09-2020 09:26:17 11.4 C 35 %
3514 18-09-2020 09:36:18 11.6 C 35 %
3515 18-09-2020 09:46:17 12.2 C 33 %
3516 18-09-2020 09:56:17 12.4 C 33 %
3517 18-09-2020 10:06:18 12.6 C 33 %
3518 18-09-2020 10:16:17 13.2 C 31 %
3519 18-09-2020 10:26:18 13.8 C 31 %
3520 18-09-2020 10:36:17 14.2 C 30 %
3521 18-09-2020 10:46:17 14.6 C 30 %
3522 18-09-2020 10:56:17 15.2 C 29 %
3523 18-09-2020 11:06:17 15.7 C 28 %
3524 18-09-2020 11:16:17 16.1 C 28 %
3525 18-09-2020 11:26:17 16.6 C 28 %
Sensor: Nr:Datum:Temp:Feuchte:
Aussen-T/F 3526 18-09-2020 11:36:17 16.8 C 27 %
3527 18-09-2020 11:46:18 17.5 C 27 %
3528 18-09-2020 11:56:18 17.7 C 27 %
3529 18-09-2020 12:06:17 18.1 C 27 %
3530 18-09-2020 12:16:17 18.9 C 26 %
3531 18-09-2020 12:26:17 18.7 C 26 %
3532 18-09-2020 12:36:17 18.9 C 26 %
3533 18-09-2020 12:46:17 19.5 C 26 %
3534 18-09-2020 12:56:17 20 C 25 %
3535 18-09-2020 13:06:18 20.3 C 25 %
3536 18-09-2020 13:16:17 20.7 C 25 %
3537 18-09-2020 13:26:17 21.2 C 25 %
3538 18-09-2020 13:36:17 21.4 C 25 %
3539 18-09-2020 13:46:17 22 C 23 %
3540 18-09-2020 13:56:17 22.4 C 23 %
3541 18-09-2020 14:06:17 23 C 22 %
3542 18-09-2020 14:16:17 24.2 C 21 %
3543 18-09-2020 14:26:17 23.5 C 21 %
3544 18-09-2020 14:36:18 23.7 C 21 %
3545 18-09-2020 14:46:17 23.6 C 21 %
3546 18-09-2020 14:56:17 24.4 C 20 %
3547 18-09-2020 15:06:18 25.4 C 20 %
3548 18-09-2020 15:16:17 24.8 C 20 %
3549 18-09-2020 15:26:17 25.3 C 20 %
3550 18-09-2020 15:36:17 27.4 C 20 %
Sensor: Nr:Datum:Temp:Feuchte:
Aussen-T/F 3551 18-09-2020 15:46:17 27.5 C 20 %
3552 18-09-2020 15:56:17 27.9 C 20 %
3553 18-09-2020 16:06:18 27.8 C 20 %
3554 18-09-2020 16:16:17 28 C 20 %
3555 18-09-2020 16:26:17 26.7 C 20 %
3556 18-09-2020 16:36:18 27.2 C 20 %
3557 18-09-2020 16:46:18 28.8 C 20 %
3558 18-09-2020 16:56:18 27.6 C 20 %
3559 18-09-2020 17:06:17 28.8 C 20 %
3560 18-09-2020 17:16:17 28 C 20 %
3561 18-09-2020 17:26:18 27.5 C 20 %
3562 18-09-2020 17:36:18 26.5 C 20 %
3563 18-09-2020 17:46:17 24.5 C 20 %
3564 18-09-2020 17:56:17 24.2 C 20 %
3565 18-09-2020 18:06:18 23.9 C 20 %
3566 18-09-2020 18:16:17 23.7 C 20 %
3567 18-09-2020 18:26:17 23.4 C 20 %
3568 18-09-2020 18:36:18 22.9 C 20 %
3569 18-09-2020 18:46:17 22.8 C 20 %
3570 18-09-2020 18:56:17 22.1 C 20 %
3571 18-09-2020 19:06:18 21.5 C 20 %
3572 18-09-2020 19:16:17 20 C 23 %
3573 18-09-2020 19:26:17 19 C 24 %
3574 18-09-2020 19:36:18 18.7 C 25 %
3575 18-09-2020 19:46:18 17.7 C 25 %
Sensor: Nr:Datum:Temp:Feuchte:
Aussen-T/F 3576 18-09-2020 19:56:18 17.5 C 26 %
3577 18-09-2020 20:06:17 17 C 26 %
3578 18-09-2020 20:16:18 16.6 C 26 %
3579 18-09-2020 20:26:18 16.6 C 26 %
3580 18-09-2020 20:36:17 16.4 C 26 %
3581 18-09-2020 20:46:18 16 C 27 %
3582 18-09-2020 20:56:18 15.8 C 27 %
3583 18-09-2020 21:06:17 15.8 C 27 %
3584 18-09-2020 21:16:17 15.6 C 27 %
3585 18-09-2020 21:26:17 15.6 C 27 %
3586 18-09-2020 21:36:17 15.4 C 27 %
3587 18-09-2020 21:46:17 15.3 C 27 %
3588 18-09-2020 21:56:17 15.1 C 26 %
3589 18-09-2020 22:06:17 15.2 C 26 %
3590 18-09-2020 22:16:18 14.9 C 27 %
3591 18-09-2020 22:26:18 14.7 C 27 %
3592 18-09-2020 22:36:18 14.7 C 27 %
3593 18-09-2020 22:46:18 14.4 C 27 %
3594 18-09-2020 22:56:18 14.1 C 27 %
3595 18-09-2020 23:06:18 14.1 C 27 %
3596 18-09-2020 23:16:18 13.9 C 28 %
3597 18-09-2020 23:26:18 14.2 C 27 %
3598 18-09-2020 23:36:17 13.8 C 28 %
3599 18-09-2020 23:46:17 13.4 C 28 %
3600 18-09-2020 23:56:17 13.6 C 28 %
Sensor: Nr:Datum:Temp:Feuchte:
Aussen-T/F 3601 19-09-2020 00:06:17 13.7 C 28 %
3602 19-09-2020 00:16:17 13.6 C 28 %
3603 19-09-2020 00:26:17 13.6 C 28 %
3604 19-09-2020 00:36:18 13.5 C 28 %
3605 19-09-2020 00:46:17 13.5 C 27 %
3606 19-09-2020 00:56:18 13 C 28 %
3607 19-09-2020 01:06:17 12.3 C 30 %
3608 19-09-2020 01:16:17 12.1 C 30 %
3609 19-09-2020 01:26:17 12.5 C 30 %
3610 19-09-2020 01:36:18 12.3 C 30 %
3611 19-09-2020 01:46:17 12 C 30 %
3612 19-09-2020 01:56:17 12 C 30 %
3613 19-09-2020 02:06:18 11.9 C 31 %
3614 19-09-2020 02:16:17 11.1 C 32 %
3615 19-09-2020 02:26:17 11.2 C 32 %
3616 19-09-2020 02:36:17 11 C 32 %
3617 19-09-2020 02:46:17 10.1 C 33 %
3618 19-09-2020 02:56:17 10.1 C 34 %
3619 19-09-2020 03:06:18 9.7 C 35 %
3620 19-09-2020 03:16:17 9.7 C 35 %
3621 19-09-2020 03:26:17 9.7 C 35 %
3622 19-09-2020 03:36:18 9.8 C 35 %
3623 19-09-2020 03:46:17 9.5 C 35 %
3624 19-09-2020 03:56:17 9.4 C 35 %
3625 19-09-2020 04:06:18 9.2 C 35 %
Sensor: Nr:Datum:Temp:Feuchte:
Aussen-T/F 3626 19-09-2020 04:16:17 9.2 C 36 %
3627 19-09-2020 04:26:17 8.8 C 36 %
3628 19-09-2020 04:36:17 8.7 C 37 %
3629 19-09-2020 04:46:17 8.4 C 37 %
3630 19-09-2020 04:56:17 8.4 C 37 %
3631 19-09-2020 05:06:17 8.6 C 37 %
3632 19-09-2020 05:16:17 8.2 C 37 %
3633 19-09-2020 05:26:17 8 C 37 %
3634 19-09-2020 05:36:17 7.8 C 38 %
3635 19-09-2020 05:46:17 7.8 C 38 %
3636 19-09-2020 05:56:17 7.7 C 39 %
3637 19-09-2020 06:06:18 7.6 C 40 %
3638 19-09-2020 06:16:18 7.4 C 40 %
3639 19-09-2020 06:26:18 7.4 C 40 %
3640 19-09-2020 06:36:17 7.3 C 40 %
3641 19-09-2020 06:46:17 7.1 C 40 %
3642 19-09-2020 06:56:17 7 C 41 %
3643 19-09-2020 07:06:17 7.1 C 41 %
3644 19-09-2020 07:16:18 7 C 41 %
3645 19-09-2020 07:26:18 6.8 C 42 %
3646 19-09-2020 07:36:17 7 C 42 %
3647 19-09-2020 07:46:17 6.9 C 42 %
3648 19-09-2020 07:56:17 7 C 41 %
3649 19-09-2020 08:06:17 7.3 C 42 %
3650 19-09-2020 08:16:17 7.6 C 41 %
Sensor: Nr:Datum:Temp:Feuchte:
Aussen-T/F 3651 19-09-2020 08:26:17 7.6 C 41 %
3652 19-09-2020 08:36:18 7.8 C 41 %
3653 19-09-2020 08:46:17 8.1 C 41 %
3654 19-09-2020 08:56:17 8.1 C 41 %
3655 19-09-2020 09:06:17 8.3 C 41 %
3656 19-09-2020 09:16:17 8.8 C 40 %
3657 19-09-2020 09:26:17 9 C 40 %
3658 19-09-2020 09:36:17 9.5 C 39 %
3659 19-09-2020 09:46:18 9.8 C 38 %
3660 19-09-2020 09:56:18 10.5 C 37 %
3661 19-09-2020 10:06:18 11.1 C 35 %
3662 19-09-2020 10:16:18 11.5 C 35 %
3663 19-09-2020 10:26:18 12.3 C 33 %
3664 19-09-2020 10:36:17 12.6 C 33 %
3665 19-09-2020 10:46:17 13.6 C 31 %
3666 19-09-2020 10:56:17 14 C 31 %
3667 19-09-2020 11:06:18 14.3 C 31 %
3668 19-09-2020 11:16:17 14.7 C 30 %
3669 19-09-2020 11:26:17 15.6 C 29 %
3670 19-09-2020 11:36:17 16.8 C 27 %
3671 19-09-2020 11:46:17 17.7 C 26 %
3672 19-09-2020 11:56:17 17.6 C 26 %
3673 19-09-2020 12:06:18 18.1 C 25 %
3674 19-09-2020 12:16:17 19.3 C 24 %
3675 19-09-2020 12:26:17 19 C 24 %
Sensor: Nr:Datum:Temp:Feuchte:
Aussen-T/F 3676 19-09-2020 12:36:18 19.3 C 24 %
3677 19-09-2020 12:46:17 19.9 C 23 %
3678 19-09-2020 12:56:17 20.1 C 23 %
3679 19-09-2020 13:06:18 20.2 C 23 %
3680 19-09-2020 13:16:17 20.5 C 22 %
3681 19-09-2020 13:26:17 20.8 C 22 %
3682 19-09-2020 13:36:17 21.2 C 21 %
3683 19-09-2020 13:46:17 21.8 C 20 %
3684 19-09-2020 13:56:17 22.7 C 20 %
3685 19-09-2020 14:06:17 23.9 C 20 %
3686 19-09-2020 14:16:18 24.7 C 20 %
3687 19-09-2020 14:26:18 24.1 C 20 %
3688 19-09-2020 14:36:18 24.7 C 20 %
3689 19-09-2020 14:46:17 24.3 C 20 %
3690 19-09-2020 14:56:17 24.4 C 20 %
3691 19-09-2020 15:06:18 25.5 C 20 %
3692 19-09-2020 15:16:17 26.3 C 20 %
3693 19-09-2020 15:26:17 28.8 C 20 %
3694 19-09-2020 15:36:17 28.9 C 20 %
3695 19-09-2020 15:46:17 29.9 C 20 %
3696 19-09-2020 15:56:17 29.6 C 20 %
3697 19-09-2020 16:06:17 29.5 C 20 %
3698 19-09-2020 16:16:17 28.4 C 20 %
3699 19-09-2020 16:26:17 28.9 C 20 %
3700 19-09-2020 16:36:17 29.5 C 20 %
Sensor: Nr:Datum:Temp:Feuchte:
Aussen-T/F 3701 19-09-2020 16:46:17 29.9 C 20 %
3702 19-09-2020 16:56:17 30.5 C 20 %
3703 19-09-2020 17:06:17 29.2 C 20 %
3704 19-09-2020 17:16:18 29.4 C 20 %
3705 19-09-2020 17:26:18 28.6 C 20 %
3706 19-09-2020 17:36:18 26.9 C 20 %
3707 19-09-2020 17:46:17 26.1 C 20 %
3708 19-09-2020 17:56:18 25.8 C 20 %
3709 19-09-2020 18:06:17 25.7 C 20 %
3710 19-09-2020 18:16:17 25.3 C 20 %
3711 19-09-2020 18:26:17 24.9 C 20 %
3712 19-09-2020 18:36:17 24.5 C 20 %
3713 19-09-2020 18:46:17 23.3 C 20 %
3714 19-09-2020 18:56:17 22.1 C 20 %
3715 19-09-2020 19:06:18 21.3 C 20 %
3716 19-09-2020 19:16:18 20.2 C 20 %
3717 19-09-2020 19:26:18 20 C 20 %
3718 19-09-2020 19:36:17 19.8 C 20 %
3719 19-09-2020 19:46:17 19.5 C 20 %
3720 19-09-2020 19:56:17 19.4 C 20 %
3721 19-09-2020 20:06:18 18.9 C 20 %
3722 19-09-2020 20:16:17 18.3 C 20 %
3723 19-09-2020 20:26:18 17.5 C 21 %
3724 19-09-2020 20:36:18 17.1 C 22 %
3725 19-09-2020 20:46:18 16.6 C 23 %
Sensor: Nr:Datum:Temp:Feuchte:
Aussen-T/F 3726 19-09-2020 20:56:18 16.4 C 23 %
3727 19-09-2020 21:06:17 16.3 C 23 %
3728 19-09-2020 21:16:17 16.4 C 23 %
3729 19-09-2020 21:26:17 16.4 C 24 %
3730 19-09-2020 21:36:18 15.9 C 25 %
3731 19-09-2020 21:46:17 15.7 C 25 %
3732 19-09-2020 21:56:17 15.7 C 25 %
3733 19-09-2020 22:06:17 15.8 C 25 %
3734 19-09-2020 22:16:18 15.6 C 25 %
3735 19-09-2020 22:26:18 15.4 C 25 %
3736 19-09-2020 22:36:17 15 C 26 %
3737 19-09-2020 22:46:18 14.7 C 27 %
3738 19-09-2020 22:56:18 14.4 C 27 %
3739 19-09-2020 23:06:18 14.1 C 27 %
3740 19-09-2020 23:16:18 14.2 C 27 %
3741 19-09-2020 23:26:18 13.8 C 29 %
3742 19-09-2020 23:36:17 13.7 C 29 %
3743 19-09-2020 23:46:18 13.7 C 29 %
3744 19-09-2020 23:56:18 13.8 C 29 %
3745 20-09-2020 00:06:17 13.6 C 30 %
3746 20-09-2020 00:16:17 13.4 C 29 %
3747 20-09-2020 00:26:17 13.3 C 30 %
3748 20-09-2020 00:36:17 13 C 30 %
3749 20-09-2020 00:46:17 12.8 C 31 %
3750 20-09-2020 00:56:17 12.3 C 31 %
Sensor: Nr:Datum:Temp:Feuchte:
Aussen-T/F 3751 20-09-2020 01:06:18 12.3 C 32 %
3752 20-09-2020 01:16:17 12 C 34 %
3753 20-09-2020 01:26:17 11.8 C 35 %
3754 20-09-2020 01:36:18 11.7 C 34 %
3755 20-09-2020 01:46:17 11.8 C 34 %
3756 20-09-2020 01:56:17 11.7 C 34 %
3757 20-09-2020 02:06:17 11.3 C 35 %
3758 20-09-2020 02:16:18 11.2 C 34 %
3759 20-09-2020 02:26:18 11.2 C 34 %
3760 20-09-2020 02:36:18 10.8 C 35 %
3761 20-09-2020 02:46:17 10.6 C 36 %
3762 20-09-2020 02:56:17 10.5 C 35 %
3763 20-09-2020 03:06:17 10 C 36 %
3764 20-09-2020 03:16:17 9.9 C 37 %
3765 20-09-2020 03:26:17 10 C 36 %
3766 20-09-2020 03:36:17 9.8 C 37 %
3767 20-09-2020 03:46:17 9.5 C 37 %
3768 20-09-2020 03:56:17 9.4 C 37 %
3769 20-09-2020 04:06:17 9.4 C 37 %
3770 20-09-2020 04:16:17 9.2 C 37 %
3771 20-09-2020 04:26:17 9.2 C 37 %
3772 20-09-2020 04:36:17 9.1 C 37 %
3773 20-09-2020 04:46:17 9.1 C 37 %
3774 20-09-2020 04:56:17 9 C 37 %
3775 20-09-2020 05:06:18 9 C 38 %
Sensor: Nr:Datum:Temp:Feuchte:
Aussen-T/F 3776 20-09-2020 05:16:17 9 C 38 %
3777 20-09-2020 05:26:17 9.1 C 39 %
3778 20-09-2020 05:36:17 8.8 C 39 %
3779 20-09-2020 05:46:17 8.7 C 39 %
3780 20-09-2020 05:56:17 8.6 C 40 %
3781 20-09-2020 06:06:18 8.4 C 40 %
3782 20-09-2020 06:16:18 8.3 C 40 %
3783 20-09-2020 06:26:18 8.2 C 40 %
3784 20-09-2020 06:36:17 7.9 C 41 %
3785 20-09-2020 06:46:17 7.8 C 41 %
3786 20-09-2020 06:56:17 7.6 C 41 %
3787 20-09-2020 07:06:18 7.5 C 41 %
3788 20-09-2020 07:16:17 7.4 C 41 %
3789 20-09-2020 07:26:18 7.4 C 42 %
3790 20-09-2020 07:36:18 7.5 C 42 %
3791 20-09-2020 07:46:17 7.7 C 42 %
3792 20-09-2020 07:56:17 7.7 C 42 %
3793 20-09-2020 08:06:17 8 C 42 %
3794 20-09-2020 08:16:17 8.1 C 42 %
3795 20-09-2020 08:26:17 8.4 C 42 %
3796 20-09-2020 08:36:18 8.9 C 41 %
3797 20-09-2020 08:46:17 8.9 C 41 %
3798 20-09-2020 08:56:18 8.9 C 41 %
3799 20-09-2020 09:06:17 8.9 C 41 %
3800 20-09-2020 09:16:17 9 C 41 %
Sensor: Nr:Datum:Temp:Feuchte:
Aussen-T/F 3801 20-09-2020 09:26:17 9.6 C 41 %
3802 20-09-2020 09:36:18 10.1 C 40 %
3803 20-09-2020 09:46:17 10.7 C 39 %
3804 20-09-2020 09:56:17 11.2 C 38 %
3805 20-09-2020 10:06:18 11.4 C 38 %
3806 20-09-2020 10:16:17 11.9 C 37 %
3807 20-09-2020 10:26:17 12.1 C 36 %
3808 20-09-2020 10:36:18 12.4 C 36 %
3809 20-09-2020 10:46:17 13 C 35 %
3810 20-09-2020 10:56:17 13.5 C 35 %
3811 20-09-2020 11:06:18 13.8 C 35 %
3812 20-09-2020 11:16:17 14.2 C 34 %
3813 20-09-2020 11:26:17 14.8 C 32 %
3814 20-09-2020 11:36:18 16 C 31 %
3815 20-09-2020 11:46:17 16.3 C 30 %
3816 20-09-2020 11:56:17 16.7 C 30 %
3817 20-09-2020 12:06:18 17.6 C 30 %
3818 20-09-2020 12:16:17 18.2 C 28 %
3819 20-09-2020 12:26:17 18.5 C 28 %
3820 20-09-2020 12:36:18 19.1 C 27 %
3821 20-09-2020 12:46:17 20.5 C 25 %
3822 20-09-2020 12:56:17 20.5 C 25 %
3823 20-09-2020 13:06:17 20.8 C 24 %
3824 20-09-2020 13:16:17 21.1 C 22 %
3825 20-09-2020 13:26:17 20.9 C 23 %
Sensor: Nr:Datum:Temp:Feuchte:
Aussen-T/F 3826 20-09-2020 13:36:18 21.1 C 22 %
3827 20-09-2020 13:46:17 21.7 C 22 %
3828 20-09-2020 13:56:17 22.8 C 20 %
3829 20-09-2020 14:06:18 24.7 C 20 %
3830 20-09-2020 14:16:17 25.4 C 20 %
3831 20-09-2020 14:26:17 24.8 C 20 %
3832 20-09-2020 14:36:17 24.3 C 20 %
3833 20-09-2020 14:46:18 23.9 C 20 %
3834 20-09-2020 14:56:18 23.9 C 20 %
3835 20-09-2020 15:06:18 24.1 C 20 %
3836 20-09-2020 15:16:17 23.7 C 20 %
3837 20-09-2020 15:26:18 23.2 C 20 %
3838 20-09-2020 15:36:18 22.4 C 20 %
3839 20-09-2020 15:46:18 22.1 C 21 %
3840 20-09-2020 15:56:18 22.5 C 20 %
3841 20-09-2020 16:06:18 22.7 C 21 %
3842 20-09-2020 16:16:17 24.3 C 20 %
3843 20-09-2020 16:26:17 26.5 C 20 %
3844 20-09-2020 16:36:17 27.6 C 20 %
3845 20-09-2020 16:46:17 28.9 C 20 %
3846 20-09-2020 16:56:17 29.3 C 20 %
3847 20-09-2020 17:06:18 28.3 C 20 %
3848 20-09-2020 17:16:17 28.2 C 20 %
3849 20-09-2020 17:26:17 24.5 C 20 %
3850 20-09-2020 17:36:18 23 C 20 %
Sensor: Nr:Datum:Temp:Feuchte:
Aussen-T/F 3851 20-09-2020 17:46:18 22.2 C 20 %
3852 20-09-2020 17:56:18 21.5 C 21 %
3853 20-09-2020 18:06:17 21 C 21 %
3854 20-09-2020 18:16:18 20.6 C 22 %
3855 20-09-2020 18:26:18 20.2 C 22 %
3856 20-09-2020 18:36:17 19.9 C 22 %
3857 20-09-2020 18:46:18 19.2 C 23 %
3858 20-09-2020 18:56:18 19.2 C 23 %
3859 20-09-2020 19:06:18 18.7 C 24 %
3860 20-09-2020 19:16:17 18.1 C 24 %
3861 20-09-2020 19:26:17 18.2 C 24 %
3862 20-09-2020 19:36:17 17.3 C 25 %
3863 20-09-2020 19:46:17 16.6 C 25 %
3864 20-09-2020 19:56:17 15.9 C 25 %
3865 20-09-2020 20:06:18 15.8 C 26 %
3866 20-09-2020 20:16:17 15.4 C 26 %
3867 20-09-2020 20:26:17 15.2 C 26 %
3868 20-09-2020 20:36:18 14.8 C 27 %
3869 20-09-2020 20:46:18 14.5 C 27 %
3870 20-09-2020 20:56:18 14.2 C 28 %
3871 20-09-2020 21:06:17 14.1 C 28 %
3872 20-09-2020 21:16:17 13.7 C 29 %
3873 20-09-2020 21:26:17 13.4 C 30 %
3874 20-09-2020 21:36:18 13.2 C 30 %
3875 20-09-2020 21:46:18 13.1 C 30 %
Sensor: Nr:Datum:Temp:Feuchte:
Aussen-T/F 3876 20-09-2020 21:56:18 13 C 30 %
3877 20-09-2020 22:06:17 12.9 C 31 %
3878 20-09-2020 22:16:17 12.4 C 32 %
3879 20-09-2020 22:26:17 12 C 33 %
3880 20-09-2020 22:36:17 11.7 C 35 %
3881 20-09-2020 22:46:18 11.4 C 35 %
3882 20-09-2020 22:56:18 11.4 C 35 %
3883 20-09-2020 23:06:18 11.1 C 36 %
3884 20-09-2020 23:16:18 10.8 C 36 %
3885 20-09-2020 23:26:18 10.7 C 36 %
3886 20-09-2020 23:36:18 10.8 C 36 %
3887 20-09-2020 23:46:18 10.7 C 36 %
3888 20-09-2020 23:56:18 10.7 C 36 %
3889 21-09-2020 00:06:18 10.6 C 36 %
3890 21-09-2020 00:16:17 10.5 C 36 %
3891 21-09-2020 00:26:17 9.9 C 37 %
3892 21-09-2020 00:36:17 9.7 C 37 %
3893 21-09-2020 00:46:18 9.7 C 38 %
3894 21-09-2020 00:56:18 9.7 C 38 %
3895 21-09-2020 01:06:18 9.8 C 37 %
3896 21-09-2020 01:16:17 9.6 C 38 %
3897 21-09-2020 01:26:17 9.6 C 38 %
3898 21-09-2020 01:36:17 9.4 C 38 %
3899 21-09-2020 01:46:17 9.6 C 38 %
3900 21-09-2020 01:56:17 9.3 C 39 %
Sensor: Nr:Datum:Temp:Feuchte:
Aussen-T/F 3901 21-09-2020 02:06:18 9 C 39 %
3902 21-09-2020 02:16:17 8.7 C 40 %
3903 21-09-2020 02:26:17 8.6 C 40 %
3904 21-09-2020 02:36:17 8.4 C 40 %
3905 21-09-2020 02:46:18 8.4 C 40 %
3906 21-09-2020 02:56:18 8.4 C 40 %
3907 21-09-2020 03:06:18 8.3 C 40 %
3908 21-09-2020 03:16:17 8.5 C 41 %
3909 21-09-2020 03:26:17 8.4 C 41 %
3910 21-09-2020 03:36:18 8.2 C 41 %
3911 21-09-2020 03:46:17 8 C 41 %
3912 21-09-2020 03:56:17 8.1 C 42 %
3913 21-09-2020 04:06:17 7.9 C 42 %
3914 21-09-2020 04:16:18 7.9 C 42 %
3915 21-09-2020 04:26:18 7.8 C 42 %
3916 21-09-2020 04:36:17 7.7 C 42 %
3917 21-09-2020 04:46:17 7.7 C 43 %
3918 21-09-2020 04:56:17 7.9 C 43 %
3919 21-09-2020 05:06:18 7.8 C 42 %
3920 21-09-2020 05:16:18 7.6 C 42 %
3921 21-09-2020 05:26:18 7.3 C 42 %
3922 21-09-2020 05:36:17 7 C 43 %
3923 21-09-2020 05:46:18 7.3 C 45 %
3924 21-09-2020 05:56:18 7.5 C 45 %
3925 21-09-2020 06:06:18 7.2 C 43 %
Sensor: Nr:Datum:Temp:Feuchte:
Aussen-T/F 3926 21-09-2020 06:16:17 7.2 C 44 %
3927 21-09-2020 06:26:17 6.8 C 44 %
3928 21-09-2020 06:36:17 7 C 45 %
3929 21-09-2020 06:46:18 6.8 C 45 %
3930 21-09-2020 06:56:18 6.8 C 45 %
3931 21-09-2020 07:06:17 6.8 C 45 %
3932 21-09-2020 07:16:17 6.7 C 45 %
3933 21-09-2020 07:26:17 6.8 C 46 %
3934 21-09-2020 07:36:17 6.8 C 45 %
3935 21-09-2020 07:46:18 6.5 C 45 %
3936 21-09-2020 07:56:18 6.6 C 45 %
3937 21-09-2020 08:06:18 6.7 C 45 %
3938 21-09-2020 08:16:17 7 C 45 %
3939 21-09-2020 08:26:17 7.2 C 45 %
3940 21-09-2020 08:36:18 7.2 C 44 %
3941 21-09-2020 08:46:17 7.6 C 45 %
3942 21-09-2020 08:56:18 7.9 C 43 %
3943 21-09-2020 09:06:18 8.1 C 42 %
3944 21-09-2020 09:16:17 8.2 C 42 %
3945 21-09-2020 09:26:17 8.5 C 42 %
3946 21-09-2020 09:36:17 8.9 C 41 %
3947 21-09-2020 09:46:17 9 C 41 %
3948 21-09-2020 09:56:17 9.3 C 41 %
3949 21-09-2020 10:06:17 9.6 C 40 %
3950 21-09-2020 10:16:18 10 C 40 %
Sensor: Nr:Datum:Temp:Feuchte:
Aussen-T/F 3951 21-09-2020 10:26:18 10.6 C 39 %
3952 21-09-2020 10:36:18 11.1 C 37 %
3953 21-09-2020 10:46:18 11.6 C 37 %
3954 21-09-2020 10:56:18 12 C 35 %
3955 21-09-2020 11:06:17 12.8 C 35 %
3956 21-09-2020 11:16:17 13.5 C 34 %
3957 21-09-2020 11:26:18 13.7 C 35 %
3958 21-09-2020 11:36:17 14.7 C 33 %
3959 21-09-2020 11:46:18 14.9 C 33 %
3960 21-09-2020 11:56:18 15.7 C 32 %
3961 21-09-2020 12:06:18 16.9 C 30 %
3962 21-09-2020 12:16:17 17.3 C 30 %
3963 21-09-2020 12:26:17 17.5 C 30 %
3964 21-09-2020 12:36:17 17.9 C 30 %
3965 21-09-2020 12:46:17 19 C 27 %
3966 21-09-2020 12:56:17 19.4 C 27 %
3967 21-09-2020 13:06:17 19.5 C 27 %
3968 21-09-2020 13:16:17 20 C 25 %
3969 21-09-2020 13:26:17 20.2 C 26 %
3970 21-09-2020 13:36:17 20.8 C 25 %
3971 21-09-2020 13:46:18 21.4 C 24 %
3972 21-09-2020 13:56:18 22.5 C 22 %
3973 21-09-2020 14:06:18 26.1 C 20 %
3974 21-09-2020 14:16:17 28.1 C 20 %
3975 21-09-2020 14:26:17 25.1 C 20 %
Sensor: Nr:Datum:Temp:Feuchte:
Aussen-T/F 3976 21-09-2020 14:36:17 24.3 C 20 %
3977 21-09-2020 14:46:17 24 C 20 %
3978 21-09-2020 14:56:17 25.7 C 20 %
3979 21-09-2020 15:06:18 27.3 C 20 %
3980 21-09-2020 15:16:17 25.7 C 20 %
3981 21-09-2020 15:26:17 24.8 C 20 %
3982 21-09-2020 15:36:18 27.3 C 20 %
3983 21-09-2020 15:46:17 31.6 C 20 %
3984 21-09-2020 15:56:17 31.7 C 20 %
3985 21-09-2020 16:06:17 32.2 C 20 %
3986 21-09-2020 16:16:18 31.5 C 20 %
3987 21-09-2020 16:26:18 32.9 C 20 %
3988 21-09-2020 16:36:17 30.2 C 20 %
3989 21-09-2020 16:46:18 30.4 C 20 %
3990 21-09-2020 16:56:18 30.1 C 20 %
3991 21-09-2020 17:06:18 31.3 C 20 %
3992 21-09-2020 17:16:17 31.2 C 20 %
3993 21-09-2020 17:26:17 31.1 C 20 %
3994 21-09-2020 17:36:18 29.4 C 20 %
3995 21-09-2020 17:46:18 27.1 C 20 %
3996 21-09-2020 17:56:18 25.8 C 20 %
3997 21-09-2020 18:06:17 24.8 C 20 %
3998 21-09-2020 18:16:17 24 C 20 %
3999 21-09-2020 18:26:17 23 C 20 %
4000 21-09-2020 18:36:17 22.4 C 20 %
Sensor: Nr:Datum:Temp:Feuchte:
Aussen-T/F 4001 21-09-2020 18:46:17 21.7 C 20 %
4002 21-09-2020 18:56:17 21.2 C 20 %
4003 21-09-2020 19:06:18 20.7 C 20 %
4004 21-09-2020 19:16:17 19.9 C 20 %
4005 21-09-2020 19:26:17 19.6 C 20 %
4006 21-09-2020 19:36:18 19.1 C 21 %
4007 21-09-2020 19:46:18 18.8 C 21 %
4008 21-09-2020 19:56:18 18.2 C 22 %
4009 21-09-2020 20:06:18 17.7 C 23 %
4010 21-09-2020 20:16:18 16.9 C 24 %
4011 21-09-2020 20:26:18 16.6 C 25 %
4012 21-09-2020 20:36:17 16.1 C 25 %
4013 21-09-2020 20:46:17 15.7 C 26 %
4014 21-09-2020 20:56:17 15.4 C 27 %
4015 21-09-2020 21:06:18 15.6 C 26 %
4016 21-09-2020 21:16:18 15.3 C 27 %
4017 21-09-2020 21:26:18 15 C 27 %
4018 21-09-2020 21:36:18 14.5 C 28 %
4019 21-09-2020 21:46:17 14.2 C 29 %
4020 21-09-2020 21:56:17 14 C 29 %
4021 21-09-2020 22:06:17 13.7 C 30 %
4022 21-09-2020 22:16:17 13.5 C 30 %
4023 21-09-2020 22:26:17 13.4 C 30 %
4024 21-09-2020 22:36:17 13.2 C 31 %
4025 21-09-2020 22:46:17 13 C 31 %
Sensor: Nr:Datum:Temp:Feuchte:
Aussen-T/F 4026 21-09-2020 22:56:18 12.9 C 32 %
4027 21-09-2020 23:06:18 12.5 C 33 %
4028 21-09-2020 23:16:17 12.3 C 33 %
4029 21-09-2020 23:26:17 12 C 33 %
4030 21-09-2020 23:36:18 12 C 34 %
4031 21-09-2020 23:46:17 12 C 34 %
4032 21-09-2020 23:56:17 11.9 C 35 %
4033 22-09-2020 00:06:18 11.4 C 35 %
4034 22-09-2020 00:16:17 11.3 C 36 %
4035 22-09-2020 00:26:17 11.2 C 36 %
4036 22-09-2020 00:36:18 11 C 36 %
4037 22-09-2020 00:46:17 10.9 C 37 %
4038 22-09-2020 00:56:17 10.8 C 37 %
4039 22-09-2020 01:06:17 10.7 C 37 %
4040 22-09-2020 01:16:17 11.2 C 36 %
4041 22-09-2020 01:26:17 11.4 C 36 %
4042 22-09-2020 01:36:17 11.3 C 36 %
4043 22-09-2020 01:46:17 10.7 C 37 %
4044 22-09-2020 01:56:17 10.7 C 37 %
4045 22-09-2020 02:06:18 10.1 C 37 %
4046 22-09-2020 02:16:17 10 C 38 %
4047 22-09-2020 02:26:17 10 C 38 %
4048 22-09-2020 02:36:18 9.7 C 40 %
4049 22-09-2020 02:46:17 9.7 C 40 %
4050 22-09-2020 02:56:17 9.5 C 40 %
Sensor: Nr:Datum:Temp:Feuchte:
Aussen-T/F 4051 22-09-2020 03:06:18 9.2 C 40 %
4052 22-09-2020 03:16:18 9.1 C 40 %
4053 22-09-2020 03:26:18 9.1 C 40 %
4054 22-09-2020 03:36:18 9.1 C 41 %
4055 22-09-2020 03:46:18 8.9 C 41 %
4056 22-09-2020 03:56:18 8.8 C 41 %
4057 22-09-2020 04:06:18 8.8 C 42 %
4058 22-09-2020 04:16:18 8.6 C 42 %
4059 22-09-2020 04:26:18 8.5 C 42 %
4060 22-09-2020 04:36:17 8.6 C 43 %
4061 22-09-2020 04:46:18 8.6 C 42 %
4062 22-09-2020 04:56:18 8.6 C 42 %
4063 22-09-2020 05:06:17 8.4 C 43 %
4064 22-09-2020 05:16:17 8.4 C 42 %
4065 22-09-2020 05:26:17 8.4 C 43 %
4066 22-09-2020 05:36:17 8.2 C 43 %
4067 22-09-2020 05:46:17 8.1 C 43 %
4068 22-09-2020 05:56:17 7.9 C 44 %
4069 22-09-2020 06:06:17 7.8 C 45 %
4070 22-09-2020 06:16:18 7.8 C 45 %
4071 22-09-2020 06:26:18 7.6 C 45 %
4072 22-09-2020 06:36:17 7.6 C 45 %
4073 22-09-2020 06:46:18 7.7 C 45 %
4074 22-09-2020 06:56:18 7.7 C 45 %
4075 22-09-2020 07:06:18 7.5 C 45 %
Sensor: Nr:Datum:Temp:Feuchte:
Aussen-T/F 4076 22-09-2020 07:16:18 7.4 C 45 %
4077 22-09-2020 07:26:18 7.3 C 45 %
4078 22-09-2020 07:36:18 7.6 C 46 %
4079 22-09-2020 07:46:18 8 C 45 %
4080 22-09-2020 07:56:18 7.9 C 45 %
4081 22-09-2020 08:06:17 7.8 C 45 %
4082 22-09-2020 08:16:17 7.9 C 45 %
4083 22-09-2020 08:26:17 8.2 C 45 %
4084 22-09-2020 08:36:18 8.4 C 45 %
4085 22-09-2020 08:46:18 8.8 C 45 %
4086 22-09-2020 08:56:18 8.9 C 44 %
4087 22-09-2020 09:06:17 9.1 C 43 %
4088 22-09-2020 09:16:18 9.3 C 43 %
4089 22-09-2020 09:26:18 9.6 C 42 %
4090 22-09-2020 09:36:17 9.7 C 42 %
4091 22-09-2020 09:46:18 10 C 42 %
4092 22-09-2020 09:56:18 10.3 C 41 %
4093 22-09-2020 10:06:17 10.6 C 41 %
4094 22-09-2020 10:16:17 11.2 C 39 %
4095 22-09-2020 10:26:17 11.8 C 39 %
4096 22-09-2020 10:36:17 12.1 C 38 %
4097 22-09-2020 10:46:17 12.5 C 37 %
4098 22-09-2020 10:56:17 13 C 36 %
4099 22-09-2020 11:06:18 13.7 C 35 %
4100 22-09-2020 11:16:17 14.4 C 35 %
Sensor: Nr:Datum:Temp:Feuchte:
Aussen-T/F 4101 22-09-2020 11:26:17 15.2 C 33 %
4102 22-09-2020 11:36:18 15.8 C 33 %
4103 22-09-2020 11:46:17 16.2 C 32 %
4104 22-09-2020 11:56:17 16.9 C 32 %
4105 22-09-2020 12:06:18 17.3 C 31 %
4106 22-09-2020 12:16:17 18.5 C 30 %
4107 22-09-2020 12:26:17 19 C 30 %
4108 22-09-2020 12:36:17 19.5 C 29 %
4109 22-09-2020 12:46:17 19.8 C 28 %
4110 22-09-2020 12:56:17 20.4 C 28 %
4111 22-09-2020 13:06:17 20.5 C 28 %
4112 22-09-2020 13:16:17 21 C 26 %
4113 22-09-2020 13:26:17 21.1 C 26 %
4114 22-09-2020 13:36:18 23.3 C 20 %
4115 22-09-2020 13:46:17 23.4 C 20 %
4116 22-09-2020 13:56:17 25.1 C 20 %
4117 22-09-2020 14:06:17 27.2 C 20 %
4118 22-09-2020 14:16:18 28.4 C 20 %
4119 22-09-2020 14:26:18 27.7 C 20 %
4120 22-09-2020 14:36:17 26.3 C 20 %
4121 22-09-2020 14:46:17 26.7 C 20 %
4122 22-09-2020 14:56:18 26.2 C 20 %
4123 22-09-2020 15:06:17 26.9 C 20 %
4124 22-09-2020 15:16:17 26.6 C 20 %
4125 22-09-2020 15:26:17 26.6 C 20 %
Sensor: Nr:Datum:Temp:Feuchte:
Aussen-T/F 4126 22-09-2020 15:36:18 28.5 C 20 %
4127 22-09-2020 15:46:17 31.4 C 20 %
4128 22-09-2020 15:56:17 30.2 C 20 %
4129 22-09-2020 16:06:17 29.7 C 20 %
4130 22-09-2020 16:16:18 31.6 C 20 %
4131 22-09-2020 16:26:18 30.7 C 20 %
4132 22-09-2020 16:36:17 30.8 C 20 %
4133 22-09-2020 16:46:17 31.3 C 20 %
4134 22-09-2020 16:56:17 30 C 20 %
4135 22-09-2020 17:06:18 30.6 C 20 %
4136 22-09-2020 17:16:17 30.1 C 20 %
4137 22-09-2020 17:26:17 31.1 C 20 %
4138 22-09-2020 17:36:17 29.6 C 20 %
4139 22-09-2020 17:46:17 28.1 C 20 %
4140 22-09-2020 17:56:17 27.2 C 20 %
4141 22-09-2020 18:06:18 26.5 C 20 %
4142 22-09-2020 18:16:17 26.3 C 20 %
4143 22-09-2020 18:26:17 25.3 C 20 %
4144 22-09-2020 18:36:17 24.5 C 20 %
4145 22-09-2020 18:46:17 23.6 C 20 %
4146 22-09-2020 18:56:18 23.1 C 20 %
4147 22-09-2020 19:06:18 22.2 C 20 %
4148 22-09-2020 19:16:17 21.6 C 20 %
4149 22-09-2020 19:26:17 21.1 C 21 %
4150 22-09-2020 19:36:17 20.4 C 23 %
Sensor: Nr:Datum:Temp:Feuchte:
Aussen-T/F 4151 22-09-2020 19:46:18 19.9 C 25 %
4152 22-09-2020 19:56:18 19.5 C 25 %
4153 22-09-2020 20:06:18 19.1 C 25 %
4154 22-09-2020 20:16:17 19.1 C 25 %
4155 22-09-2020 20:26:17 18.6 C 25 %
4156 22-09-2020 20:36:17 18.3 C 25 %
4157 22-09-2020 20:46:17 18.1 C 26 %
4158 22-09-2020 20:56:17 18 C 26 %
4159 22-09-2020 21:06:17 17.6 C 27 %
4160 22-09-2020 21:16:17 17.2 C 27 %
4161 22-09-2020 21:26:17 16.9 C 27 %
4162 22-09-2020 21:36:18 16.8 C 27 %
4163 22-09-2020 21:46:18 16.5 C 28 %
4164 22-09-2020 21:56:18 16.2 C 28 %
4165 22-09-2020 22:06:17 16.2 C 28 %
4166 22-09-2020 22:16:17 15.9 C 29 %
4167 22-09-2020 22:26:17 15.6 C 30 %
4168 22-09-2020 22:36:17 15.6 C 30 %
4169 22-09-2020 22:46:18 15.4 C 30 %
4170 22-09-2020 22:56:18 15.3 C 30 %
4171 22-09-2020 23:06:18 15.1 C 30 %
4172 22-09-2020 23:16:17 14.7 C 31 %
4173 22-09-2020 23:26:17 14.4 C 31 %
4174 22-09-2020 23:36:18 14.7 C 31 %
4175 22-09-2020 23:46:17 14.7 C 31 %
Sensor: Nr:Datum:Temp:Feuchte:
Aussen-T/F 4176 22-09-2020 23:56:17 14.2 C 31 %
4177 23-09-2020 00:06:18 14 C 31 %
4178 23-09-2020 00:16:17 13.8 C 32 %
4179 23-09-2020 00:26:17 14 C 31 %
4180 23-09-2020 00:36:18 14 C 31 %
4181 23-09-2020 00:46:17 13.8 C 32 %
4182 23-09-2020 00:56:17 13.7 C 33 %
4183 23-09-2020 01:06:17 13.6 C 33 %
4184 23-09-2020 01:16:17 13.7 C 33 %
4185 23-09-2020 01:26:17 13.9 C 33 %
4186 23-09-2020 01:36:17 14.1 C 32 %
4187 23-09-2020 01:46:17 14.5 C 32 %
4188 23-09-2020 01:56:17 14.5 C 32 %
4189 23-09-2020 02:06:18 14.5 C 32 %
4190 23-09-2020 02:16:17 14.6 C 31 %
4191 23-09-2020 02:26:17 14.2 C 32 %
4192 23-09-2020 02:36:17 14.1 C 32 %
4193 23-09-2020 02:46:17 13.9 C 33 %
4194 23-09-2020 02:56:17 13.2 C 34 %
4195 23-09-2020 03:06:18 13.2 C 33 %
4196 23-09-2020 03:16:17 13.4 C 34 %
4197 23-09-2020 03:26:17 13.7 C 34 %
4198 23-09-2020 03:36:18 14.1 C 32 %
4199 23-09-2020 03:46:17 14.2 C 33 %
4200 23-09-2020 03:56:17 14.1 C 33 %
Sensor: Nr:Datum:Temp:Feuchte:
Aussen-T/F 4201 23-09-2020 04:06:17 13.9 C 33 %
4202 23-09-2020 04:16:17 13.8 C 33 %
4203 23-09-2020 04:26:18 13.9 C 34 %
4204 23-09-2020 04:36:18 13.6 C 34 %
4205 23-09-2020 04:46:18 13.4 C 34 %
4206 23-09-2020 04:56:18 12.9 C 35 %
4207 23-09-2020 05:06:17 12.4 C 35 %
4208 23-09-2020 05:16:18 12 C 36 %
4209 23-09-2020 05:26:18 12 C 36 %
4210 23-09-2020 05:36:17 11.6 C 37 %
4211 23-09-2020 05:46:17 11.6 C 37 %
4212 23-09-2020 05:56:17 11.8 C 37 %
4213 23-09-2020 06:06:18 11.9 C 37 %
4214 23-09-2020 06:16:18 11.7 C 37 %
4215 23-09-2020 06:26:18 11.6 C 37 %
4216 23-09-2020 06:36:18 11.5 C 37 %
4217 23-09-2020 06:46:17 11.9 C 37 %
4218 23-09-2020 06:56:17 12.8 C 35 %
4219 23-09-2020 07:06:17 14 C 32 %
4220 23-09-2020 07:16:17 14.1 C 32 %
4221 23-09-2020 07:26:17 14.3 C 32 %
4222 23-09-2020 07:36:18 13.8 C 33 %
4223 23-09-2020 07:46:18 13.8 C 33 %
4224 23-09-2020 07:56:18 13.8 C 33 %
4225 23-09-2020 08:06:18 14 C 32 %
Sensor: Nr:Datum:Temp:Feuchte:
Aussen-T/F 4226 23-09-2020 08:16:18 13.9 C 33 %
4227 23-09-2020 08:26:18 14.1 C 32 %
4228 23-09-2020 08:36:18 13.8 C 33 %
4229 23-09-2020 08:46:17 13.6 C 33 %
4230 23-09-2020 08:56:17 13.6 C 34 %
4231 23-09-2020 09:06:17 13.5 C 34 %
4232 23-09-2020 09:16:17 13.7 C 34 %
4233 23-09-2020 09:26:17 14.3 C 33 %
4234 23-09-2020 09:36:17 14.4 C 33 %
4235 23-09-2020 09:46:17 16.2 C 30 %
4236 23-09-2020 09:56:17 17 C 27 %
4237 23-09-2020 10:06:17 17.6 C 27 %
4238 23-09-2020 10:16:17 18 C 26 %
4239 23-09-2020 10:26:17 18.1 C 26 %
4240 23-09-2020 10:36:17 18.1 C 26 %
4241 23-09-2020 10:46:18 18.5 C 26 %
4242 23-09-2020 10:56:18 18.8 C 25 %
4243 23-09-2020 11:06:17 18.9 C 26 %
4244 23-09-2020 11:16:17 19.4 C 25 %
4245 23-09-2020 11:26:17 19.8 C 25 %
4246 23-09-2020 11:36:17 19.9 C 26 %
4247 23-09-2020 11:46:18 19.9 C 26 %
4248 23-09-2020 11:56:18 20.1 C 25 %
4249 23-09-2020 12:06:17 20.1 C 25 %
4250 23-09-2020 12:16:17 20.7 C 25 %
Sensor: Nr:Datum:Temp:Feuchte:
Aussen-T/F 4251 23-09-2020 12:26:17 20.8 C 25 %
4252 23-09-2020 12:36:18 21 C 25 %
4253 23-09-2020 12:46:17 21.9 C 24 %
4254 23-09-2020 12:56:17 22.2 C 23 %
4255 23-09-2020 13:06:18 22.6 C 23 %
4256 23-09-2020 13:16:17 22.5 C 23 %
4257 23-09-2020 13:26:17 22 C 23 %
4258 23-09-2020 13:36:17 23.6 C 22 %
4259 23-09-2020 13:46:18 23.3 C 22 %
4260 23-09-2020 13:56:18 23.6 C 21 %
4261 23-09-2020 14:06:17 24.4 C 21 %
4262 23-09-2020 14:16:17 24.7 C 20 %
4263 23-09-2020 14:26:17 24.5 C 20 %
4264 23-09-2020 14:36:17 24.2 C 21 %
4265 23-09-2020 14:46:17 24.5 C 21 %
4266 23-09-2020 14:56:17 24.5 C 21 %
4267 23-09-2020 15:06:17 23.9 C 21 %
4268 23-09-2020 15:16:17 24.2 C 21 %
4269 23-09-2020 15:26:17 24.4 C 20 %
4270 23-09-2020 15:36:18 26.1 C 20 %
4271 23-09-2020 15:46:17 27.7 C 20 %
4272 23-09-2020 15:56:17 27.7 C 20 %
4273 23-09-2020 16:06:18 29.9 C 20 %
4274 23-09-2020 16:16:17 27 C 20 %
4275 23-09-2020 16:26:17 27.3 C 20 %
Sensor: Nr:Datum:Temp:Feuchte:
Aussen-T/F 4276 23-09-2020 16:36:17 28.6 C 20 %
4277 23-09-2020 16:46:17 29.1 C 20 %
4278 23-09-2020 16:56:18 28 C 20 %
4279 23-09-2020 17:06:18 24.6 C 20 %
4280 23-09-2020 17:16:17 24.8 C 20 %
4281 23-09-2020 17:26:17 24.1 C 20 %
4282 23-09-2020 17:36:17 25.5 C 20 %
4283 23-09-2020 17:46:17 24.5 C 20 %
4284 23-09-2020 17:56:17 24 C 20 %
4285 23-09-2020 18:06:18 23 C 20 %
4286 23-09-2020 18:16:17 22.4 C 21 %
4287 23-09-2020 18:26:17 22 C 22 %
4288 23-09-2020 18:36:17 21.5 C 23 %
4289 23-09-2020 18:46:18 20.9 C 25 %
4290 23-09-2020 18:56:18 20.2 C 26 %
4291 23-09-2020 19:06:18 19.4 C 27 %
4292 23-09-2020 19:16:18 18.6 C 28 %
4293 23-09-2020 19:26:18 18.2 C 29 %
4294 23-09-2020 19:36:17 17.9 C 30 %
4295 23-09-2020 19:46:17 17.7 C 30 %
4296 23-09-2020 19:56:17 17.3 C 30 %
4297 23-09-2020 20:06:18 17 C 31 %
4298 23-09-2020 20:16:17 17 C 31 %
4299 23-09-2020 20:26:17 17.1 C 31 %
4300 23-09-2020 20:36:17 17.2 C 31 %
Sensor: Nr:Datum:Temp:Feuchte:
Aussen-T/F 4301 23-09-2020 20:46:17 17.2 C 31 %
4302 23-09-2020 20:56:17 17.3 C 32 %
4303 23-09-2020 21:06:18 17.5 C 31 %
4304 23-09-2020 21:16:17 17.2 C 32 %
4305 23-09-2020 21:26:17 17.5 C 31 %
4306 23-09-2020 21:36:18 18 C 31 %
4307 23-09-2020 21:46:17 17.7 C 31 %
4308 23-09-2020 21:56:17 17.9 C 31 %
4309 23-09-2020 22:06:17 17.7 C 32 %
4310 23-09-2020 22:16:17 17.7 C 32 %
4311 23-09-2020 22:26:17 17.3 C 32 %
4312 23-09-2020 22:36:18 16.8 C 33 %
4313 23-09-2020 22:46:18 16.7 C 34 %
4314 23-09-2020 22:56:18 17 C 33 %
4315 23-09-2020 23:06:17 17.2 C 33 %
4316 23-09-2020 23:16:17 17.1 C 33 %
4317 23-09-2020 23:26:17 17.5 C 32 %
4318 23-09-2020 23:36:17 17.6 C 32 %
4319 23-09-2020 23:46:18 17.9 C 32 %
4320 23-09-2020 23:56:18 17.8 C 32 %
4321 24-09-2020 00:06:17 17.5 C 32 %
4322 24-09-2020 00:16:17 17.1 C 32 %
4323 24-09-2020 00:26:17 16.8 C 34 %
4324 24-09-2020 00:36:18 17.3 C 33 %
4325 24-09-2020 00:46:17 17.7 C 32 %
Sensor: Nr:Datum:Temp:Feuchte:
Aussen-T/F 4326 24-09-2020 00:56:17 17.8 C 32 %
4327 24-09-2020 01:06:17 17.4 C 32 %
4328 24-09-2020 01:16:17 17.9 C 32 %
4329 24-09-2020 01:26:17 18 C 32 %
4330 24-09-2020 01:36:17 18.5 C 31 %
4331 24-09-2020 01:46:17 18.1 C 32 %
4332 24-09-2020 01:56:17 17.6 C 34 %
4333 24-09-2020 02:06:17 17.2 C 35 %
4334 24-09-2020 02:16:17 16.5 C 39 %
4335 24-09-2020 02:26:17 16.1 C 42 %
4336 24-09-2020 02:36:18 15.9 C 43 %
4337 24-09-2020 02:46:17 15.8 C 43 %
4338 24-09-2020 02:56:17 15.8 C 43 %
4339 24-09-2020 03:06:17 15.8 C 43 %
4340 24-09-2020 03:16:17 15.6 C 43 %
4341 24-09-2020 03:26:17 15.6 C 43 %
4342 24-09-2020 03:36:17 15.5 C 43 %
4343 24-09-2020 03:46:17 15.5 C 43 %
4344 24-09-2020 03:56:17 15.5 C 42 %
4345 24-09-2020 04:06:17 15.7 C 42 %
4346 24-09-2020 04:16:17 15.8 C 42 %
4347 24-09-2020 04:26:17 15.8 C 42 %
4348 24-09-2020 04:36:17 15.8 C 42 %
4349 24-09-2020 04:46:17 15.6 C 42 %
4350 24-09-2020 04:56:17 15.6 C 42 %
Sensor: Nr:Datum:Temp:Feuchte:
Aussen-T/F 4351 24-09-2020 05:06:17 15.6 C 42 %
4352 24-09-2020 05:16:17 15.7 C 42 %
4353 24-09-2020 05:26:17 15.7 C 42 %
4354 24-09-2020 05:36:18 16 C 41 %
4355 24-09-2020 05:46:17 16.1 C 40 %
4356 24-09-2020 05:56:17 15.8 C 40 %
4357 24-09-2020 06:06:18 15.4 C 40 %
4358 24-09-2020 06:16:18 15 C 35 %
4359 24-09-2020 06:26:18 14.2 C 35 %
4360 24-09-2020 06:36:18 13.6 C 35 %
4361 24-09-2020 06:46:17 12.7 C 39 %
4362 24-09-2020 06:56:17 12 C 40 %
4363 24-09-2020 07:06:17 11.8 C 41 %
4364 24-09-2020 07:16:18 11.4 C 42 %
4365 24-09-2020 07:26:18 11.3 C 43 %
4366 24-09-2020 07:36:17 11.2 C 43 %
4367 24-09-2020 07:46:17 11.6 C 43 %
4368 24-09-2020 07:56:17 12.8 C 37 %
4369 24-09-2020 08:06:17 12.6 C 37 %
4370 24-09-2020 08:16:17 12.5 C 37 %
4371 24-09-2020 08:26:17 12.7 C 37 %
4372 24-09-2020 08:36:18 12.3 C 37 %
4373 24-09-2020 08:46:18 12.1 C 38 %
4374 24-09-2020 08:56:18 12.5 C 37 %
4375 24-09-2020 09:06:17 12.4 C 37 %
Sensor: Nr:Datum:Temp:Feuchte:
Aussen-T/F 4376 24-09-2020 09:16:17 12.2 C 38 %
4377 24-09-2020 09:26:17 13.1 C 36 %
4378 24-09-2020 09:36:18 13.2 C 35 %
4379 24-09-2020 09:46:17 13.3 C 35 %
4380 24-09-2020 09:56:17 13.4 C 35 %
4381 24-09-2020 10:06:18 13.4 C 34 %
4382 24-09-2020 10:16:17 13.4 C 34 %
4383 24-09-2020 10:26:17 13.8 C 34 %
4384 24-09-2020 10:36:17 14.1 C 32 %
4385 24-09-2020 10:46:18 14.2 C 32 %
4386 24-09-2020 10:56:18 14.3 C 32 %
4387 24-09-2020 11:06:17 14.2 C 32 %
4388 24-09-2020 11:16:17 14.7 C 31 %
4389 24-09-2020 11:26:17 15.2 C 30 %
4390 24-09-2020 11:36:18 15.5 C 30 %
4391 24-09-2020 11:46:18 16 C 29 %
4392 24-09-2020 11:56:18 16.7 C 29 %
4393 24-09-2020 12:06:17 17 C 28 %
4394 24-09-2020 12:16:17 18.3 C 27 %
4395 24-09-2020 12:26:17 18.3 C 26 %
4396 24-09-2020 12:36:18 18.1 C 26 %
4397 24-09-2020 12:46:17 18.6 C 26 %
4398 24-09-2020 12:56:17 18 C 26 %
4399 24-09-2020 13:06:18 18.3 C 26 %
4400 24-09-2020 13:16:17 18.3 C 26 %
Sensor: Nr:Datum:Temp:Feuchte:
Aussen-T/F 4401 24-09-2020 13:26:17 18.3 C 26 %
4402 24-09-2020 13:36:18 18.9 C 26 %
4403 24-09-2020 13:46:17 19.7 C 25 %
4404 24-09-2020 13:56:17 19.7 C 25 %
4405 24-09-2020 14:06:18 19.8 C 25 %
4406 24-09-2020 14:16:18 20.5 C 23 %
4407 24-09-2020 14:26:18 20.5 C 22 %
4408 24-09-2020 14:36:17 20.6 C 23 %
4409 24-09-2020 14:46:18 20.6 C 23 %
4410 24-09-2020 14:56:18 20.3 C 23 %
4411 24-09-2020 15:06:18 20 C 23 %
4412 24-09-2020 15:16:17 20.7 C 23 %
4413 24-09-2020 15:26:18 20.5 C 23 %
4414 24-09-2020 15:36:17 20.7 C 23 %
4415 24-09-2020 15:46:17 22.1 C 21 %
4416 24-09-2020 15:56:18 21.2 C 21 %
4417 24-09-2020 16:06:18 20.1 C 23 %
4418 24-09-2020 16:16:17 20.1 C 23 %
4419 24-09-2020 16:26:17 20.1 C 23 %
4420 24-09-2020 16:36:17 22.1 C 21 %
4421 24-09-2020 16:46:17 24 C 20 %
4422 24-09-2020 16:56:17 22.8 C 21 %
4423 24-09-2020 17:06:17 20.6 C 23 %
4424 24-09-2020 17:16:17 20 C 23 %
4425 24-09-2020 17:26:17 20.1 C 24 %
Sensor: Nr:Datum:Temp:Feuchte:
Aussen-T/F 4426 24-09-2020 17:36:17 19.9 C 25 %
4427 24-09-2020 17:46:17 19.6 C 25 %
4428 24-09-2020 17:56:17 19.4 C 25 %
4429 24-09-2020 18:06:17 19.1 C 25 %
4430 24-09-2020 18:16:17 19.1 C 26 %
4431 24-09-2020 18:26:18 18.5 C 27 %
4432 24-09-2020 18:36:18 16.9 C 32 %
4433 24-09-2020 18:46:18 17 C 31 %
4434 24-09-2020 18:56:18 16.9 C 32 %
4435 24-09-2020 19:06:17 16.9 C 32 %
4436 24-09-2020 19:16:18 16.8 C 32 %
4437 24-09-2020 19:26:18 16.2 C 33 %
4438 24-09-2020 19:36:18 16.2 C 33 %
4439 24-09-2020 19:46:17 16.3 C 33 %
4440 24-09-2020 19:56:17 16 C 33 %
4441 24-09-2020 20:06:18 16 C 33 %
4442 24-09-2020 20:16:18 15.9 C 34 %
4443 24-09-2020 20:26:18 15.5 C 34 %
4444 24-09-2020 20:36:17 15.4 C 34 %
4445 24-09-2020 20:46:18 15.6 C 34 %
4446 24-09-2020 20:56:18 15.3 C 35 %
4447 24-09-2020 21:06:18 15 C 35 %
4448 24-09-2020 21:16:17 14.8 C 36 %
4449 24-09-2020 21:26:17 14.4 C 36 %
4450 24-09-2020 21:36:17 14.3 C 37 %
Sensor: Nr:Datum:Temp:Feuchte:
Aussen-T/F 4451 24-09-2020 21:46:17 14.4 C 36 %
4452 24-09-2020 21:56:17 14.3 C 37 %
4453 24-09-2020 22:06:18 14.1 C 37 %
4454 24-09-2020 22:16:17 14 C 37 %
4455 24-09-2020 22:26:17 14 C 38 %
4456 24-09-2020 22:36:18 13.9 C 39 %
4457 24-09-2020 22:46:17 13.9 C 39 %
4458 24-09-2020 22:56:17 13.5 C 39 %
4459 24-09-2020 23:06:18 13.6 C 39 %
4460 24-09-2020 23:16:17 13.2 C 40 %
4461 24-09-2020 23:26:17 13.4 C 40 %
4462 24-09-2020 23:36:17 13.3 C 40 %
4463 24-09-2020 23:46:17 13.4 C 40 %
4464 24-09-2020 23:56:17 13.2 C 40 %
Sensor: Nr:Datum:Temp:Feuchte:
G-T/H 1 25-08-2020 00:04:18 20.9 C 55 %
2 25-08-2020 00:14:18 20.8 C 55 %
3 25-08-2020 00:24:17 20.8 C 55 %
4 25-08-2020 00:34:18 20.8 C 55 %
5 25-08-2020 00:44:18 20.8 C 55 %
6 25-08-2020 00:54:18 20.8 C 55 %
7 25-08-2020 01:04:17 20.8 C 55 %
8 25-08-2020 01:14:17 20.8 C 55 %
9 25-08-2020 01:24:17 20.8 C 55 %
10 25-08-2020 01:34:18 20.8 C 55 %
11 25-08-2020 01:44:18 20.8 C 55 %
12 25-08-2020 01:54:17 20.8 C 55 %
13 25-08-2020 02:04:18 20.8 C 55 %
14 25-08-2020 02:14:18 20.7 C 55 %
15 25-08-2020 02:24:17 20.7 C 56 %
16 25-08-2020 02:34:18 20.7 C 56 %
17 25-08-2020 02:44:18 20.7 C 56 %
18 25-08-2020 02:54:17 20.7 C 56 %
19 25-08-2020 03:04:17 20.7 C 56 %
20 25-08-2020 03:14:17 20.6 C 56 %
21 25-08-2020 03:24:17 20.7 C 56 %
22 25-08-2020 03:34:18 20.6 C 56 %
23 25-08-2020 03:44:18 20.6 C 56 %
24 25-08-2020 03:54:18 20.6 C 56 %
25 25-08-2020 04:04:17 20.5 C 56 %
Sensor: Nr:Datum:Temp:Feuchte:
G-T/H 26 25-08-2020 04:14:17 20.6 C 56 %
27 25-08-2020 04:24:17 20.6 C 56 %
28 25-08-2020 04:34:17 20.5 C 56 %
29 25-08-2020 04:44:17 20.5 C 56 %
30 25-08-2020 04:54:17 20.5 C 56 %
31 25-08-2020 05:04:18 20.5 C 56 %
32 25-08-2020 05:14:18 20.4 C 56 %
33 25-08-2020 05:24:17 20.4 C 56 %
34 25-08-2020 05:34:18 20.4 C 56 %
35 25-08-2020 05:44:18 20.4 C 56 %
36 25-08-2020 05:54:17 20.4 C 56 %
37 25-08-2020 06:04:17 20.4 C 56 %
38 25-08-2020 06:14:17 20.3 C 56 %
39 25-08-2020 06:24:17 20.4 C 56 %
40 25-08-2020 06:34:18 20.3 C 56 %
41 25-08-2020 06:44:18 20.3 C 56 %
42 25-08-2020 06:54:17 20.3 C 56 %
43 25-08-2020 07:04:18 20.2 C 56 %
44 25-08-2020 07:14:18 20.2 C 56 %
45 25-08-2020 07:24:17 20.2 C 56 %
46 25-08-2020 07:34:18 20.2 C 56 %
47 25-08-2020 07:44:18 20.2 C 56 %
48 25-08-2020 07:54:17 20.1 C 56 %
49 25-08-2020 08:04:17 20.1 C 56 %
50 25-08-2020 08:14:17 20.1 C 56 %
Sensor: Nr:Datum:Temp:Feuchte:
G-T/H 51 25-08-2020 08:24:17 20.1 C 56 %
52 25-08-2020 08:34:17 20.1 C 56 %
53 25-08-2020 08:44:17 20.1 C 56 %
54 25-08-2020 08:54:17 20 C 56 %
55 25-08-2020 09:04:17 20.1 C 56 %
56 25-08-2020 09:14:17 20 C 56 %
57 25-08-2020 09:24:17 20 C 57 %
58 25-08-2020 09:34:18 20 C 57 %
59 25-08-2020 09:44:18 20 C 57 %
60 25-08-2020 09:54:18 20 C 57 %
61 25-08-2020 10:04:18 20 C 57 %
62 25-08-2020 10:14:18 20 C 57 %
63 25-08-2020 10:24:17 20 C 57 %
64 25-08-2020 10:34:18 20 C 57 %
65 25-08-2020 10:44:18 20 C 57 %
66 25-08-2020 10:54:17 20 C 57 %
67 25-08-2020 11:04:18 20 C 57 %
68 25-08-2020 11:14:18 20 C 57 %
69 25-08-2020 11:24:17 20 C 57 %
70 25-08-2020 11:34:18 20 C 57 %
71 25-08-2020 11:44:18 20 C 57 %
72 25-08-2020 11:54:18 20 C 57 %
73 25-08-2020 12:04:17 20 C 57 %
74 25-08-2020 12:14:17 20 C 57 %
75 25-08-2020 12:24:17 20 C 57 %
Sensor: Nr:Datum:Temp:Feuchte:
G-T/H 76 25-08-2020 12:34:18 20 C 57 %
77 25-08-2020 12:44:18 20 C 57 %
78 25-08-2020 12:54:17 20 C 57 %
79 25-08-2020 13:04:18 20 C 57 %
80 25-08-2020 13:14:18 20 C 57 %
81 25-08-2020 13:24:17 20.1 C 57 %
82 25-08-2020 13:34:17 20 C 57 %
83 25-08-2020 13:44:17 20.1 C 57 %
84 25-08-2020 13:54:17 20.1 C 57 %
85 25-08-2020 14:04:17 20.1 C 57 %
86 25-08-2020 14:14:18 20.1 C 57 %
87 25-08-2020 14:24:17 20.1 C 57 %
88 25-08-2020 14:34:18 20.1 C 57 %
89 25-08-2020 14:44:18 20.1 C 57 %
90 25-08-2020 14:54:17 20.1 C 57 %
91 25-08-2020 15:04:17 20.1 C 57 %
92 25-08-2020 15:14:17 20.1 C 57 %
93 25-08-2020 15:24:18 20.2 C 57 %
94 25-08-2020 15:34:17 20.2 C 57 %
95 25-08-2020 15:44:17 20.2 C 57 %
96 25-08-2020 15:54:17 20.2 C 57 %
97 25-08-2020 16:04:17 20.2 C 57 %
98 25-08-2020 16:14:18 20.2 C 57 %
99 25-08-2020 16:24:17 20.2 C 57 %
100 25-08-2020 16:34:17 20.2 C 58 %
Sensor: Nr:Datum:Temp:Feuchte:
G-T/H 101 25-08-2020 16:44:17 20.3 C 58 %
102 25-08-2020 16:54:17 20.3 C 58 %
103 25-08-2020 17:04:18 20.3 C 58 %
104 25-08-2020 17:14:18 20.3 C 58 %
105 25-08-2020 17:24:17 20.3 C 58 %
106 25-08-2020 17:34:17 20.3 C 58 %
107 25-08-2020 17:44:17 20.4 C 58 %
108 25-08-2020 17:54:17 20.4 C 58 %
109 25-08-2020 18:04:17 20.4 C 58 %
110 25-08-2020 18:14:17 20.4 C 58 %
111 25-08-2020 18:24:18 20.4 C 58 %
112 25-08-2020 18:34:17 20.4 C 58 %
113 25-08-2020 18:44:18 20.5 C 58 %
114 25-08-2020 18:54:17 20.5 C 58 %
115 25-08-2020 19:04:18 20.5 C 58 %
116 25-08-2020 19:14:18 20.7 C 57 %
117 25-08-2020 19:24:17 20.7 C 57 %
118 25-08-2020 19:34:17 20.6 C 57 %
119 25-08-2020 19:44:17 20.6 C 57 %
120 25-08-2020 19:54:17 20.5 C 57 %
121 25-08-2020 20:04:17 20.5 C 57 %
122 25-08-2020 20:14:18 20.5 C 57 %
123 25-08-2020 20:24:17 20.5 C 57 %
124 25-08-2020 20:34:18 20.5 C 57 %
125 25-08-2020 20:44:18 20.5 C 57 %
Sensor: Nr:Datum:Temp:Feuchte:
G-T/H 126 25-08-2020 20:54:18 20.5 C 58 %
127 25-08-2020 21:04:18 20.5 C 58 %
128 25-08-2020 21:14:18 20.5 C 58 %
129 25-08-2020 21:24:17 20.5 C 58 %
130 25-08-2020 21:34:18 20.5 C 58 %
131 25-08-2020 21:44:18 20.5 C 58 %
132 25-08-2020 21:54:17 20.5 C 58 %
133 25-08-2020 22:04:17 20.5 C 58 %
134 25-08-2020 22:14:17 20.5 C 58 %
135 25-08-2020 22:24:17 20.5 C 58 %
136 25-08-2020 22:34:17 20.5 C 58 %
137 25-08-2020 22:44:18 20.5 C 58 %
138 25-08-2020 22:54:17 20.5 C 58 %
139 25-08-2020 23:04:17 20.5 C 58 %
140 25-08-2020 23:14:17 20.5 C 58 %
141 25-08-2020 23:24:17 20.5 C 58 %
142 25-08-2020 23:34:17 20.5 C 58 %
143 25-08-2020 23:44:17 20.5 C 58 %
144 25-08-2020 23:54:17 20.4 C 58 %
145 26-08-2020 00:04:17 20.4 C 58 %
146 26-08-2020 00:14:17 20.4 C 58 %
147 26-08-2020 00:24:17 20.4 C 58 %
148 26-08-2020 00:34:18 20.4 C 58 %
149 26-08-2020 00:44:18 20.4 C 58 %
150 26-08-2020 00:54:18 20.4 C 58 %
Sensor: Nr:Datum:Temp:Feuchte:
G-T/H 151 26-08-2020 01:04:18 20.4 C 58 %
152 26-08-2020 01:14:18 20.4 C 58 %
153 26-08-2020 01:24:17 20.4 C 58 %
154 26-08-2020 01:34:17 20.4 C 58 %
155 26-08-2020 01:44:17 20.4 C 58 %
156 26-08-2020 01:54:17 20.4 C 59 %
157 26-08-2020 02:04:17 20.5 C 59 %
158 26-08-2020 02:14:17 20.4 C 59 %
159 26-08-2020 02:24:17 20.5 C 59 %
160 26-08-2020 02:34:17 20.4 C 59 %
161 26-08-2020 02:44:18 20.4 C 59 %
162 26-08-2020 02:54:17 20.4 C 59 %
163 26-08-2020 03:04:18 20.4 C 59 %
164 26-08-2020 03:14:18 20.4 C 59 %
165 26-08-2020 03:24:17 20.5 C 59 %
166 26-08-2020 03:34:17 20.5 C 59 %
167 26-08-2020 03:44:17 20.4 C 59 %
168 26-08-2020 03:54:17 20.4 C 59 %
169 26-08-2020 04:04:18 20.4 C 59 %
170 26-08-2020 04:14:18 20.4 C 59 %
171 26-08-2020 04:24:17 20.4 C 59 %
172 26-08-2020 04:34:17 20.4 C 59 %
173 26-08-2020 04:44:17 20.4 C 59 %
174 26-08-2020 04:54:17 20.4 C 59 %
175 26-08-2020 05:04:17 20.4 C 59 %
Sensor: Nr:Datum:Temp:Feuchte:
G-T/H 176 26-08-2020 05:14:17 20.4 C 59 %
177 26-08-2020 05:24:17 20.4 C 59 %
178 26-08-2020 05:34:17 20.4 C 59 %
179 26-08-2020 05:44:17 20.4 C 58 %
180 26-08-2020 05:54:17 20.3 C 58 %
181 26-08-2020 06:04:17 20.3 C 58 %
182 26-08-2020 06:14:17 20.3 C 58 %
183 26-08-2020 06:24:17 20.3 C 58 %
184 26-08-2020 06:34:18 20.4 C 58 %
185 26-08-2020 06:44:18 20.3 C 58 %
186 26-08-2020 06:54:17 20.3 C 58 %
187 26-08-2020 07:04:17 20.3 C 58 %
188 26-08-2020 07:14:17 20.3 C 58 %
189 26-08-2020 07:24:17 20.3 C 58 %
190 26-08-2020 07:34:17 20.3 C 58 %
191 26-08-2020 07:44:17 20.3 C 58 %
192 26-08-2020 07:54:17 20.3 C 58 %
193 26-08-2020 08:04:17 20.3 C 58 %
194 26-08-2020 08:14:17 20.3 C 58 %
195 26-08-2020 08:24:17 20.2 C 58 %
196 26-08-2020 08:34:18 20.2 C 58 %
197 26-08-2020 08:44:18 20.3 C 58 %
198 26-08-2020 08:54:17 20.3 C 58 %
199 26-08-2020 09: